<?xml version="1.0" encoding="UTF-8" standalone="no" ?>
<gpx xmlns="http://www.topografix.com/GPX/1/1" xmlns:xsi="http://www.w3.org/2001/XMLSchema-instance" xsi:schemaLocation="http://www.topografix.com/GPX/1/1 http://www.topografix.com/GPX/1/1/gpx.xsd" version="1.1" creator="VisuGPX - https://www.visugpx.com">
  <metadata>
    <name>Saint-Laurent-sur-Sèvre Le sentier des oiseaux et le coteau</name>
  </metadata>
  <wpt lat="46.95887" lon="-0.88688">
    <ele>112</ele>
    <name><![CDATA[Mairie]]></name>
    <type><![CDATA[institution]]></type>
  </wpt>
  <trk>
    <name><![CDATA[Saint-Laurent-sur-Sèvre Le sentier des oiseaux et le coteau_1]]></name>
    <extensions>
      <line xmlns="http://www.topografix.com/GPX/gpx_style/0/2">
        <color>0000FF</color>
        <width>4</width>
      </line>
    </extensions>
    <trkseg>
      <trkpt lat="46.95876" lon="-0.88674">
        <ele>112</ele>
        <time>2021-11-24T09:12:48Z</time>
      </trkpt>
      <trkpt lat="46.95878" lon="-0.88664">
        <ele>112</ele>
        <time>2021-11-24T09:12:54Z</time>
      </trkpt>
      <trkpt lat="46.9588" lon="-0.88653">
        <ele>112</ele>
        <time>2021-11-24T09:13:00Z</time>
      </trkpt>
      <trkpt lat="46.95886" lon="-0.88648">
        <ele>112</ele>
        <time>2021-11-24T09:13:05Z</time>
      </trkpt>
      <trkpt lat="46.95892" lon="-0.88641">
        <ele>111.9</ele>
        <time>2021-11-24T09:13:11Z</time>
      </trkpt>
      <trkpt lat="46.95896" lon="-0.88635">
        <ele>111.7</ele>
        <time>2021-11-24T09:13:16Z</time>
      </trkpt>
      <trkpt lat="46.95902" lon="-0.88629">
        <ele>111.5</ele>
        <time>2021-11-24T09:13:21Z</time>
      </trkpt>
      <trkpt lat="46.95911" lon="-0.88623">
        <ele>111.2</ele>
        <time>2021-11-24T09:13:27Z</time>
      </trkpt>
      <trkpt lat="46.95919" lon="-0.88616">
        <ele>111</ele>
        <time>2021-11-24T09:13:33Z</time>
      </trkpt>
      <trkpt lat="46.95925" lon="-0.8861">
        <ele>111</ele>
        <time>2021-11-24T09:13:38Z</time>
      </trkpt>
      <trkpt lat="46.95931" lon="-0.88604">
        <ele>111.1</ele>
        <time>2021-11-24T09:13:44Z</time>
      </trkpt>
      <trkpt lat="46.9594" lon="-0.88604">
        <ele>111</ele>
        <time>2021-11-24T09:13:49Z</time>
      </trkpt>
      <trkpt lat="46.95952" lon="-0.88606">
        <ele>111</ele>
        <time>2021-11-24T09:13:55Z</time>
      </trkpt>
      <trkpt lat="46.95958" lon="-0.8861">
        <ele>111</ele>
        <time>2021-11-24T09:14:01Z</time>
      </trkpt>
      <trkpt lat="46.95966" lon="-0.88614">
        <ele>111.1</ele>
        <time>2021-11-24T09:14:06Z</time>
      </trkpt>
      <trkpt lat="46.95975" lon="-0.88617">
        <ele>111.2</ele>
        <time>2021-11-24T09:14:11Z</time>
      </trkpt>
      <trkpt lat="46.95984" lon="-0.88624">
        <ele>111.3</ele>
        <time>2021-11-24T09:14:17Z</time>
      </trkpt>
      <trkpt lat="46.95988" lon="-0.88632">
        <ele>111.3</ele>
        <time>2021-11-24T09:14:22Z</time>
      </trkpt>
      <trkpt lat="46.95993" lon="-0.88641">
        <ele>111.3</ele>
        <time>2021-11-24T09:14:27Z</time>
      </trkpt>
      <trkpt lat="46.95998" lon="-0.88649">
        <ele>111.1</ele>
        <time>2021-11-24T09:14:32Z</time>
      </trkpt>
      <trkpt lat="46.96002" lon="-0.88657">
        <ele>111</ele>
        <time>2021-11-24T09:14:37Z</time>
      </trkpt>
      <trkpt lat="46.96006" lon="-0.88668">
        <ele>111.2</ele>
        <time>2021-11-24T09:14:43Z</time>
      </trkpt>
      <trkpt lat="46.9601" lon="-0.88681">
        <ele>111.4</ele>
        <time>2021-11-24T09:14:49Z</time>
      </trkpt>
      <trkpt lat="46.96015" lon="-0.88689">
        <ele>111.5</ele>
        <time>2021-11-24T09:14:55Z</time>
      </trkpt>
      <trkpt lat="46.9602" lon="-0.88696">
        <ele>111.8</ele>
        <time>2021-11-24T09:15:00Z</time>
      </trkpt>
      <trkpt lat="46.96028" lon="-0.88697">
        <ele>112.1</ele>
        <time>2021-11-24T09:15:06Z</time>
      </trkpt>
      <trkpt lat="46.96037" lon="-0.88692">
        <ele>112.3</ele>
        <time>2021-11-24T09:15:12Z</time>
      </trkpt>
      <trkpt lat="46.96042" lon="-0.88679">
        <ele>112.2</ele>
        <time>2021-11-24T09:15:18Z</time>
      </trkpt>
      <trkpt lat="46.96046" lon="-0.88666">
        <ele>112</ele>
        <time>2021-11-24T09:15:24Z</time>
      </trkpt>
      <trkpt lat="46.96046" lon="-0.88656">
        <ele>111.9</ele>
        <time>2021-11-24T09:15:29Z</time>
      </trkpt>
      <trkpt lat="46.96049" lon="-0.88644">
        <ele>111.8</ele>
        <time>2021-11-24T09:15:35Z</time>
      </trkpt>
      <trkpt lat="46.96053" lon="-0.88635">
        <ele>111.9</ele>
        <time>2021-11-24T09:15:41Z</time>
      </trkpt>
      <trkpt lat="46.96058" lon="-0.88624">
        <ele>112</ele>
        <time>2021-11-24T09:15:47Z</time>
      </trkpt>
      <trkpt lat="46.96064" lon="-0.88613">
        <ele>112</ele>
        <time>2021-11-24T09:15:53Z</time>
      </trkpt>
      <trkpt lat="46.96069" lon="-0.88603">
        <ele>112.1</ele>
        <time>2021-11-24T09:15:59Z</time>
      </trkpt>
      <trkpt lat="46.96075" lon="-0.88597">
        <ele>112.4</ele>
        <time>2021-11-24T09:16:04Z</time>
      </trkpt>
      <trkpt lat="46.96083" lon="-0.88589">
        <ele>112.8</ele>
        <time>2021-11-24T09:16:10Z</time>
      </trkpt>
      <trkpt lat="46.96084" lon="-0.8858">
        <ele>113</ele>
        <time>2021-11-24T09:16:16Z</time>
      </trkpt>
      <trkpt lat="46.9608" lon="-0.88567">
        <ele>112.9</ele>
        <time>2021-11-24T09:16:22Z</time>
      </trkpt>
      <trkpt lat="46.96077" lon="-0.88559">
        <ele>112.8</ele>
        <time>2021-11-24T09:16:27Z</time>
      </trkpt>
      <trkpt lat="46.96072" lon="-0.88547">
        <ele>112.8</ele>
        <time>2021-11-24T09:16:33Z</time>
      </trkpt>
      <trkpt lat="46.96068" lon="-0.88536">
        <ele>112.8</ele>
        <time>2021-11-24T09:16:39Z</time>
      </trkpt>
      <trkpt lat="46.96065" lon="-0.88527">
        <ele>112.7</ele>
        <time>2021-11-24T09:16:44Z</time>
      </trkpt>
      <trkpt lat="46.9606" lon="-0.88516">
        <ele>112.9</ele>
        <time>2021-11-24T09:16:50Z</time>
      </trkpt>
      <trkpt lat="46.96056" lon="-0.88503">
        <ele>113</ele>
        <time>2021-11-24T09:16:56Z</time>
      </trkpt>
      <trkpt lat="46.96053" lon="-0.88496">
        <ele>113.2</ele>
        <time>2021-11-24T09:17:01Z</time>
      </trkpt>
      <trkpt lat="46.9605" lon="-0.88484">
        <ele>113.7</ele>
        <time>2021-11-24T09:17:07Z</time>
      </trkpt>
      <trkpt lat="46.96048" lon="-0.8847">
        <ele>114.4</ele>
        <time>2021-11-24T09:17:13Z</time>
      </trkpt>
      <trkpt lat="46.96045" lon="-0.8846">
        <ele>115</ele>
        <time>2021-11-24T09:17:18Z</time>
      </trkpt>
      <trkpt lat="46.96042" lon="-0.88448">
        <ele>115.3</ele>
        <time>2021-11-24T09:17:24Z</time>
      </trkpt>
      <trkpt lat="46.96039" lon="-0.88436">
        <ele>115.6</ele>
        <time>2021-11-24T09:17:29Z</time>
      </trkpt>
      <trkpt lat="46.96035" lon="-0.88427">
        <ele>115.2</ele>
        <time>2021-11-24T09:17:35Z</time>
      </trkpt>
      <trkpt lat="46.96031" lon="-0.88418">
        <ele>114.8</ele>
        <time>2021-11-24T09:17:41Z</time>
      </trkpt>
      <trkpt lat="46.96028" lon="-0.88411">
        <ele>114.9</ele>
        <time>2021-11-24T09:17:46Z</time>
      </trkpt>
      <trkpt lat="46.96022" lon="-0.88401">
        <ele>115.5</ele>
        <time>2021-11-24T09:17:52Z</time>
      </trkpt>
      <trkpt lat="46.96016" lon="-0.88391">
        <ele>115.7</ele>
        <time>2021-11-24T09:17:58Z</time>
      </trkpt>
      <trkpt lat="46.96011" lon="-0.88382">
        <ele>115.4</ele>
        <time>2021-11-24T09:18:03Z</time>
      </trkpt>
      <trkpt lat="46.96006" lon="-0.88374">
        <ele>114.8</ele>
        <time>2021-11-24T09:18:09Z</time>
      </trkpt>
      <trkpt lat="46.96002" lon="-0.88366">
        <ele>114.3</ele>
        <time>2021-11-24T09:18:14Z</time>
      </trkpt>
      <trkpt lat="46.95996" lon="-0.88356">
        <ele>114.2</ele>
        <time>2021-11-24T09:18:19Z</time>
      </trkpt>
      <trkpt lat="46.9599" lon="-0.88345">
        <ele>114.4</ele>
        <time>2021-11-24T09:18:25Z</time>
      </trkpt>
      <trkpt lat="46.95985" lon="-0.88333">
        <ele>114.4</ele>
        <time>2021-11-24T09:18:31Z</time>
      </trkpt>
      <trkpt lat="46.95981" lon="-0.88324">
        <ele>114.5</ele>
        <time>2021-11-24T09:18:37Z</time>
      </trkpt>
      <trkpt lat="46.95975" lon="-0.88312">
        <ele>114.2</ele>
        <time>2021-11-24T09:18:43Z</time>
      </trkpt>
      <trkpt lat="46.9597" lon="-0.88301">
        <ele>114.3</ele>
        <time>2021-11-24T09:18:49Z</time>
      </trkpt>
      <trkpt lat="46.95965" lon="-0.88292">
        <ele>114.7</ele>
        <time>2021-11-24T09:18:55Z</time>
      </trkpt>
      <trkpt lat="46.95961" lon="-0.88284">
        <ele>114.9</ele>
        <time>2021-11-24T09:19:00Z</time>
      </trkpt>
      <trkpt lat="46.95956" lon="-0.88277">
        <ele>114.8</ele>
        <time>2021-11-24T09:19:05Z</time>
      </trkpt>
      <trkpt lat="46.95951" lon="-0.88269">
        <ele>114.9</ele>
        <time>2021-11-24T09:19:11Z</time>
      </trkpt>
      <trkpt lat="46.95947" lon="-0.88262">
        <ele>114.7</ele>
        <time>2021-11-24T09:19:16Z</time>
      </trkpt>
      <trkpt lat="46.95942" lon="-0.88251">
        <ele>114.7</ele>
        <time>2021-11-24T09:19:22Z</time>
      </trkpt>
      <trkpt lat="46.95937" lon="-0.8824">
        <ele>115</ele>
        <time>2021-11-24T09:19:27Z</time>
      </trkpt>
      <trkpt lat="46.95932" lon="-0.88225">
        <ele>115.1</ele>
        <time>2021-11-24T09:19:33Z</time>
      </trkpt>
      <trkpt lat="46.95928" lon="-0.88214">
        <ele>115.3</ele>
        <time>2021-11-24T09:19:39Z</time>
      </trkpt>
      <trkpt lat="46.95921" lon="-0.88203">
        <ele>114.5</ele>
        <time>2021-11-24T09:19:45Z</time>
      </trkpt>
      <trkpt lat="46.95917" lon="-0.88192">
        <ele>114.4</ele>
        <time>2021-11-24T09:19:51Z</time>
      </trkpt>
      <trkpt lat="46.95912" lon="-0.88181">
        <ele>115</ele>
        <time>2021-11-24T09:19:57Z</time>
      </trkpt>
      <trkpt lat="46.95907" lon="-0.88172">
        <ele>115.2</ele>
        <time>2021-11-24T09:20:02Z</time>
      </trkpt>
      <trkpt lat="46.95902" lon="-0.88163">
        <ele>115.3</ele>
        <time>2021-11-24T09:20:07Z</time>
      </trkpt>
      <trkpt lat="46.95896" lon="-0.88155">
        <ele>115.4</ele>
        <time>2021-11-24T09:20:13Z</time>
      </trkpt>
      <trkpt lat="46.95891" lon="-0.88147">
        <ele>115.5</ele>
        <time>2021-11-24T09:20:18Z</time>
      </trkpt>
      <trkpt lat="46.95886" lon="-0.8814">
        <ele>115.6</ele>
        <time>2021-11-24T09:20:23Z</time>
      </trkpt>
      <trkpt lat="46.95879" lon="-0.88134">
        <ele>115.7</ele>
        <time>2021-11-24T09:20:29Z</time>
      </trkpt>
      <trkpt lat="46.95871" lon="-0.88128">
        <ele>115.5</ele>
        <time>2021-11-24T09:20:35Z</time>
      </trkpt>
      <trkpt lat="46.95863" lon="-0.88123">
        <ele>115</ele>
        <time>2021-11-24T09:20:41Z</time>
      </trkpt>
      <trkpt lat="46.95858" lon="-0.88119">
        <ele>115</ele>
        <time>2021-11-24T09:20:46Z</time>
      </trkpt>
      <trkpt lat="46.95849" lon="-0.88116">
        <ele>114.8</ele>
        <time>2021-11-24T09:20:52Z</time>
      </trkpt>
      <trkpt lat="46.9584" lon="-0.88114">
        <ele>114.3</ele>
        <time>2021-11-24T09:20:58Z</time>
      </trkpt>
      <trkpt lat="46.95832" lon="-0.88109">
        <ele>114.1</ele>
        <time>2021-11-24T09:21:04Z</time>
      </trkpt>
      <trkpt lat="46.95825" lon="-0.88102">
        <ele>114.5</ele>
        <time>2021-11-24T09:21:10Z</time>
      </trkpt>
      <trkpt lat="46.95819" lon="-0.88096">
        <ele>114.5</ele>
        <time>2021-11-24T09:21:15Z</time>
      </trkpt>
      <trkpt lat="46.95812" lon="-0.88087">
        <ele>114.4</ele>
        <time>2021-11-24T09:21:21Z</time>
      </trkpt>
      <trkpt lat="46.95804" lon="-0.88078">
        <ele>114.6</ele>
        <time>2021-11-24T09:21:27Z</time>
      </trkpt>
      <trkpt lat="46.95799" lon="-0.88071">
        <ele>115.4</ele>
        <time>2021-11-24T09:21:33Z</time>
      </trkpt>
      <trkpt lat="46.95791" lon="-0.88066">
        <ele>115.7</ele>
        <time>2021-11-24T09:21:38Z</time>
      </trkpt>
      <trkpt lat="46.95784" lon="-0.88072">
        <ele>115.4</ele>
        <time>2021-11-24T09:21:44Z</time>
      </trkpt>
      <trkpt lat="46.9578" lon="-0.88079">
        <ele>115.1</ele>
        <time>2021-11-24T09:21:49Z</time>
      </trkpt>
      <trkpt lat="46.95774" lon="-0.88088">
        <ele>115</ele>
        <time>2021-11-24T09:21:55Z</time>
      </trkpt>
      <trkpt lat="46.95769" lon="-0.88096">
        <ele>115</ele>
        <time>2021-11-24T09:22:00Z</time>
      </trkpt>
      <trkpt lat="46.95764" lon="-0.88105">
        <ele>115.1</ele>
        <time>2021-11-24T09:22:05Z</time>
      </trkpt>
      <trkpt lat="46.95756" lon="-0.88098">
        <ele>115.7</ele>
        <time>2021-11-24T09:22:10Z</time>
      </trkpt>
      <trkpt lat="46.95751" lon="-0.88088">
        <ele>116</ele>
        <time>2021-11-24T09:22:16Z</time>
      </trkpt>
      <trkpt lat="46.95746" lon="-0.88078">
        <ele>116.7</ele>
        <time>2021-11-24T09:22:22Z</time>
      </trkpt>
      <trkpt lat="46.9574" lon="-0.88067">
        <ele>117.6</ele>
        <time>2021-11-24T09:22:28Z</time>
      </trkpt>
      <trkpt lat="46.95738" lon="-0.88063">
        <ele>117.8</ele>
        <time>2021-11-24T09:22:34Z</time>
      </trkpt>
      <trkpt lat="46.95731" lon="-0.88066">
        <ele>118.5</ele>
        <time>2021-11-24T09:22:40Z</time>
      </trkpt>
      <trkpt lat="46.95723" lon="-0.88059">
        <ele>119.1</ele>
        <time>2021-11-24T09:22:46Z</time>
      </trkpt>
      <trkpt lat="46.95717" lon="-0.88062">
        <ele>120</ele>
        <time>2021-11-24T09:22:52Z</time>
      </trkpt>
      <trkpt lat="46.95711" lon="-0.88065">
        <ele>121</ele>
        <time>2021-11-24T09:22:57Z</time>
      </trkpt>
      <trkpt lat="46.95703" lon="-0.88069">
        <ele>122.3</ele>
        <time>2021-11-24T09:23:03Z</time>
      </trkpt>
      <trkpt lat="46.95696" lon="-0.88072">
        <ele>123.4</ele>
        <time>2021-11-24T09:23:08Z</time>
      </trkpt>
      <trkpt lat="46.9569" lon="-0.88076">
        <ele>124.4</ele>
        <time>2021-11-24T09:23:14Z</time>
      </trkpt>
      <trkpt lat="46.95683" lon="-0.88079">
        <ele>125.6</ele>
        <time>2021-11-24T09:23:20Z</time>
      </trkpt>
      <trkpt lat="46.95675" lon="-0.88081">
        <ele>126.8</ele>
        <time>2021-11-24T09:23:26Z</time>
      </trkpt>
      <trkpt lat="46.95669" lon="-0.88081">
        <ele>127.7</ele>
        <time>2021-11-24T09:23:31Z</time>
      </trkpt>
      <trkpt lat="46.95663" lon="-0.88082">
        <ele>128.5</ele>
        <time>2021-11-24T09:23:36Z</time>
      </trkpt>
      <trkpt lat="46.95657" lon="-0.88087">
        <ele>129.5</ele>
        <time>2021-11-24T09:23:42Z</time>
      </trkpt>
      <trkpt lat="46.9566" lon="-0.88086">
        <ele>129</ele>
        <time>2021-11-24T09:23:48Z</time>
      </trkpt>
      <trkpt lat="46.95653" lon="-0.88088">
        <ele>130.1</ele>
        <time>2021-11-24T09:23:54Z</time>
      </trkpt>
      <trkpt lat="46.95646" lon="-0.88092">
        <ele>131.1</ele>
        <time>2021-11-24T09:24:00Z</time>
      </trkpt>
      <trkpt lat="46.95639" lon="-0.88089">
        <ele>132</ele>
        <time>2021-11-24T09:24:06Z</time>
      </trkpt>
      <trkpt lat="46.95633" lon="-0.88084">
        <ele>132.6</ele>
        <time>2021-11-24T09:24:12Z</time>
      </trkpt>
      <trkpt lat="46.95627" lon="-0.88085">
        <ele>133.3</ele>
        <time>2021-11-24T09:24:17Z</time>
      </trkpt>
      <trkpt lat="46.9562" lon="-0.88086">
        <ele>134</ele>
        <time>2021-11-24T09:24:23Z</time>
      </trkpt>
      <trkpt lat="46.95614" lon="-0.88084">
        <ele>134.7</ele>
        <time>2021-11-24T09:24:29Z</time>
      </trkpt>
      <trkpt lat="46.95607" lon="-0.88085">
        <ele>135.4</ele>
        <time>2021-11-24T09:24:35Z</time>
      </trkpt>
      <trkpt lat="46.95601" lon="-0.88086">
        <ele>136</ele>
        <time>2021-11-24T09:24:40Z</time>
      </trkpt>
      <trkpt lat="46.95592" lon="-0.88086">
        <ele>136.9</ele>
        <time>2021-11-24T09:24:46Z</time>
      </trkpt>
      <trkpt lat="46.95586" lon="-0.88086">
        <ele>137.5</ele>
        <time>2021-11-24T09:24:51Z</time>
      </trkpt>
      <trkpt lat="46.95579" lon="-0.88083">
        <ele>138.3</ele>
        <time>2021-11-24T09:24:57Z</time>
      </trkpt>
      <trkpt lat="46.95571" lon="-0.8808">
        <ele>138.9</ele>
        <time>2021-11-24T09:25:03Z</time>
      </trkpt>
      <trkpt lat="46.95565" lon="-0.88076">
        <ele>139.4</ele>
        <time>2021-11-24T09:25:08Z</time>
      </trkpt>
      <trkpt lat="46.95557" lon="-0.8807">
        <ele>140.3</ele>
        <time>2021-11-24T09:25:14Z</time>
      </trkpt>
      <trkpt lat="46.95548" lon="-0.88064">
        <ele>141.5</ele>
        <time>2021-11-24T09:25:20Z</time>
      </trkpt>
      <trkpt lat="46.95541" lon="-0.88061">
        <ele>142.4</ele>
        <time>2021-11-24T09:25:26Z</time>
      </trkpt>
      <trkpt lat="46.95537" lon="-0.88057">
        <ele>143</ele>
        <time>2021-11-24T09:25:31Z</time>
      </trkpt>
      <trkpt lat="46.95531" lon="-0.88054">
        <ele>143.8</ele>
        <time>2021-11-24T09:25:37Z</time>
      </trkpt>
      <trkpt lat="46.95524" lon="-0.88053">
        <ele>144.6</ele>
        <time>2021-11-24T09:25:43Z</time>
      </trkpt>
      <trkpt lat="46.95517" lon="-0.8805">
        <ele>145.6</ele>
        <time>2021-11-24T09:25:49Z</time>
      </trkpt>
      <trkpt lat="46.95511" lon="-0.88046">
        <ele>146.5</ele>
        <time>2021-11-24T09:25:55Z</time>
      </trkpt>
      <trkpt lat="46.95504" lon="-0.88042">
        <ele>147.5</ele>
        <time>2021-11-24T09:26:01Z</time>
      </trkpt>
      <trkpt lat="46.95497" lon="-0.88041">
        <ele>148.3</ele>
        <time>2021-11-24T09:26:07Z</time>
      </trkpt>
      <trkpt lat="46.9549" lon="-0.8804">
        <ele>148.8</ele>
        <time>2021-11-24T09:26:13Z</time>
      </trkpt>
      <trkpt lat="46.95483" lon="-0.88036">
        <ele>149.6</ele>
        <time>2021-11-24T09:26:19Z</time>
      </trkpt>
      <trkpt lat="46.95476" lon="-0.88033">
        <ele>150.4</ele>
        <time>2021-11-24T09:26:25Z</time>
      </trkpt>
      <trkpt lat="46.95468" lon="-0.8803">
        <ele>151.1</ele>
        <time>2021-11-24T09:26:31Z</time>
      </trkpt>
      <trkpt lat="46.9546" lon="-0.88032">
        <ele>151.6</ele>
        <time>2021-11-24T09:26:37Z</time>
      </trkpt>
      <trkpt lat="46.9545" lon="-0.88033">
        <ele>152.2</ele>
        <time>2021-11-24T09:26:43Z</time>
      </trkpt>
      <trkpt lat="46.95442" lon="-0.8803">
        <ele>152.8</ele>
        <time>2021-11-24T09:26:49Z</time>
      </trkpt>
      <trkpt lat="46.95437" lon="-0.88023">
        <ele>153.2</ele>
        <time>2021-11-24T09:26:54Z</time>
      </trkpt>
      <trkpt lat="46.95431" lon="-0.88014">
        <ele>153.7</ele>
        <time>2021-11-24T09:27:00Z</time>
      </trkpt>
      <trkpt lat="46.95427" lon="-0.88004">
        <ele>154.4</ele>
        <time>2021-11-24T09:27:06Z</time>
      </trkpt>
      <trkpt lat="46.95424" lon="-0.87995">
        <ele>154.9</ele>
        <time>2021-11-24T09:27:11Z</time>
      </trkpt>
      <trkpt lat="46.9542" lon="-0.87997">
        <ele>155</ele>
        <time>2021-11-24T09:27:17Z</time>
      </trkpt>
      <trkpt lat="46.95417" lon="-0.88007">
        <ele>154.5</ele>
        <time>2021-11-24T09:27:23Z</time>
      </trkpt>
      <trkpt lat="46.95415" lon="-0.88017">
        <ele>153.7</ele>
        <time>2021-11-24T09:27:28Z</time>
      </trkpt>
      <trkpt lat="46.95414" lon="-0.88028">
        <ele>152.9</ele>
        <time>2021-11-24T09:27:34Z</time>
      </trkpt>
      <trkpt lat="46.95413" lon="-0.88039">
        <ele>152.1</ele>
        <time>2021-11-24T09:27:40Z</time>
      </trkpt>
      <trkpt lat="46.95412" lon="-0.8805">
        <ele>151.4</ele>
        <time>2021-11-24T09:27:46Z</time>
      </trkpt>
      <trkpt lat="46.9541" lon="-0.88062">
        <ele>150.5</ele>
        <time>2021-11-24T09:27:52Z</time>
      </trkpt>
      <trkpt lat="46.95409" lon="-0.88072">
        <ele>149.8</ele>
        <time>2021-11-24T09:27:57Z</time>
      </trkpt>
      <trkpt lat="46.9541" lon="-0.88081">
        <ele>149.2</ele>
        <time>2021-11-24T09:28:02Z</time>
      </trkpt>
      <trkpt lat="46.95412" lon="-0.88093">
        <ele>148.3</ele>
        <time>2021-11-24T09:28:08Z</time>
      </trkpt>
      <trkpt lat="46.95413" lon="-0.88103">
        <ele>147.6</ele>
        <time>2021-11-24T09:28:13Z</time>
      </trkpt>
      <trkpt lat="46.95415" lon="-0.88113">
        <ele>146.9</ele>
        <time>2021-11-24T09:28:19Z</time>
      </trkpt>
      <trkpt lat="46.95416" lon="-0.88123">
        <ele>146.2</ele>
        <time>2021-11-24T09:28:24Z</time>
      </trkpt>
      <trkpt lat="46.95419" lon="-0.88134">
        <ele>145.2</ele>
        <time>2021-11-24T09:28:30Z</time>
      </trkpt>
      <trkpt lat="46.95423" lon="-0.8814">
        <ele>144.4</ele>
        <time>2021-11-24T09:28:35Z</time>
      </trkpt>
      <trkpt lat="46.9543" lon="-0.88145">
        <ele>143.2</ele>
        <time>2021-11-24T09:28:41Z</time>
      </trkpt>
      <trkpt lat="46.95438" lon="-0.88147">
        <ele>142.3</ele>
        <time>2021-11-24T09:28:47Z</time>
      </trkpt>
      <trkpt lat="46.95444" lon="-0.88149">
        <ele>141.6</ele>
        <time>2021-11-24T09:28:52Z</time>
      </trkpt>
      <trkpt lat="46.95452" lon="-0.88152">
        <ele>140.8</ele>
        <time>2021-11-24T09:28:57Z</time>
      </trkpt>
      <trkpt lat="46.95459" lon="-0.88156">
        <ele>140</ele>
        <time>2021-11-24T09:29:03Z</time>
      </trkpt>
      <trkpt lat="46.9546" lon="-0.88159">
        <ele>139.5</ele>
        <time>2021-11-24T09:29:08Z</time>
      </trkpt>
      <trkpt lat="46.95467" lon="-0.88158">
        <ele>139.4</ele>
        <time>2021-11-24T09:29:14Z</time>
      </trkpt>
      <trkpt lat="46.95469" lon="-0.88161">
        <ele>138.9</ele>
        <time>2021-11-24T09:29:20Z</time>
      </trkpt>
      <trkpt lat="46.9547" lon="-0.88161">
        <ele>138.9</ele>
        <time>2021-11-24T09:29:25Z</time>
      </trkpt>
      <trkpt lat="46.9547" lon="-0.8816">
        <ele>139</ele>
        <time>2021-11-24T09:29:31Z</time>
      </trkpt>
      <trkpt lat="46.9547" lon="-0.8816">
        <ele>139</ele>
        <time>2021-11-24T09:29:37Z</time>
      </trkpt>
      <trkpt lat="46.9547" lon="-0.8816">
        <ele>139</ele>
        <time>2021-11-24T09:29:42Z</time>
      </trkpt>
      <trkpt lat="46.9547" lon="-0.88161">
        <ele>138.9</ele>
        <time>2021-11-24T09:29:48Z</time>
      </trkpt>
      <trkpt lat="46.95471" lon="-0.88161">
        <ele>138.9</ele>
        <time>2021-11-24T09:29:53Z</time>
      </trkpt>
      <trkpt lat="46.95471" lon="-0.8816">
        <ele>139</ele>
        <time>2021-11-24T09:29:59Z</time>
      </trkpt>
      <trkpt lat="46.95471" lon="-0.8816">
        <ele>139</ele>
        <time>2021-11-24T09:30:05Z</time>
      </trkpt>
      <trkpt lat="46.95471" lon="-0.8816">
        <ele>139</ele>
        <time>2021-11-24T09:30:11Z</time>
      </trkpt>
      <trkpt lat="46.95476" lon="-0.88159">
        <ele>139.1</ele>
        <time>2021-11-24T09:30:16Z</time>
      </trkpt>
      <trkpt lat="46.95482" lon="-0.88161">
        <ele>138.7</ele>
        <time>2021-11-24T09:30:21Z</time>
      </trkpt>
      <trkpt lat="46.95488" lon="-0.88163">
        <ele>138.5</ele>
        <time>2021-11-24T09:30:26Z</time>
      </trkpt>
      <trkpt lat="46.95494" lon="-0.88165">
        <ele>138.2</ele>
        <time>2021-11-24T09:30:31Z</time>
      </trkpt>
      <trkpt lat="46.95504" lon="-0.88168">
        <ele>137.7</ele>
        <time>2021-11-24T09:30:37Z</time>
      </trkpt>
      <trkpt lat="46.95511" lon="-0.88173">
        <ele>136.9</ele>
        <time>2021-11-24T09:30:43Z</time>
      </trkpt>
      <trkpt lat="46.95517" lon="-0.88175">
        <ele>136.6</ele>
        <time>2021-11-24T09:30:48Z</time>
      </trkpt>
      <trkpt lat="46.95522" lon="-0.88179">
        <ele>136.1</ele>
        <time>2021-11-24T09:30:53Z</time>
      </trkpt>
      <trkpt lat="46.95529" lon="-0.88182">
        <ele>135.8</ele>
        <time>2021-11-24T09:30:59Z</time>
      </trkpt>
      <trkpt lat="46.95534" lon="-0.88186">
        <ele>135.3</ele>
        <time>2021-11-24T09:31:04Z</time>
      </trkpt>
      <trkpt lat="46.9554" lon="-0.8819">
        <ele>134.8</ele>
        <time>2021-11-24T09:31:10Z</time>
      </trkpt>
      <trkpt lat="46.95543" lon="-0.882">
        <ele>133.9</ele>
        <time>2021-11-24T09:31:16Z</time>
      </trkpt>
      <trkpt lat="46.95539" lon="-0.8821">
        <ele>132.8</ele>
        <time>2021-11-24T09:31:21Z</time>
      </trkpt>
      <trkpt lat="46.95533" lon="-0.88217">
        <ele>131.9</ele>
        <time>2021-11-24T09:31:26Z</time>
      </trkpt>
      <trkpt lat="46.95527" lon="-0.88219">
        <ele>131.4</ele>
        <time>2021-11-24T09:31:31Z</time>
      </trkpt>
      <trkpt lat="46.95519" lon="-0.88223">
        <ele>130.2</ele>
        <time>2021-11-24T09:31:37Z</time>
      </trkpt>
      <trkpt lat="46.95511" lon="-0.88227">
        <ele>128.9</ele>
        <time>2021-11-24T09:31:43Z</time>
      </trkpt>
      <trkpt lat="46.95505" lon="-0.88231">
        <ele>127.8</ele>
        <time>2021-11-24T09:31:48Z</time>
      </trkpt>
      <trkpt lat="46.95498" lon="-0.88233">
        <ele>127</ele>
        <time>2021-11-24T09:31:53Z</time>
      </trkpt>
      <trkpt lat="46.9549" lon="-0.88236">
        <ele>126.2</ele>
        <time>2021-11-24T09:31:59Z</time>
      </trkpt>
      <trkpt lat="46.95482" lon="-0.88238">
        <ele>125.5</ele>
        <time>2021-11-24T09:32:05Z</time>
      </trkpt>
      <trkpt lat="46.95473" lon="-0.88244">
        <ele>124.1</ele>
        <time>2021-11-24T09:32:10Z</time>
      </trkpt>
      <trkpt lat="46.95466" lon="-0.88248">
        <ele>123.2</ele>
        <time>2021-11-24T09:32:16Z</time>
      </trkpt>
      <trkpt lat="46.95459" lon="-0.88251">
        <ele>122.3</ele>
        <time>2021-11-24T09:32:21Z</time>
      </trkpt>
      <trkpt lat="46.95452" lon="-0.88254">
        <ele>121.6</ele>
        <time>2021-11-24T09:32:27Z</time>
      </trkpt>
      <trkpt lat="46.95446" lon="-0.88258">
        <ele>120.6</ele>
        <time>2021-11-24T09:32:32Z</time>
      </trkpt>
      <trkpt lat="46.95439" lon="-0.88265">
        <ele>119.5</ele>
        <time>2021-11-24T09:32:38Z</time>
      </trkpt>
      <trkpt lat="46.95431" lon="-0.88271">
        <ele>118.7</ele>
        <time>2021-11-24T09:32:43Z</time>
      </trkpt>
      <trkpt lat="46.95424" lon="-0.88276">
        <ele>118.1</ele>
        <time>2021-11-24T09:32:49Z</time>
      </trkpt>
      <trkpt lat="46.95417" lon="-0.88282">
        <ele>117.4</ele>
        <time>2021-11-24T09:32:55Z</time>
      </trkpt>
      <trkpt lat="46.9541" lon="-0.88288">
        <ele>117</ele>
        <time>2021-11-24T09:33:00Z</time>
      </trkpt>
      <trkpt lat="46.95401" lon="-0.88292">
        <ele>117.1</ele>
        <time>2021-11-24T09:33:06Z</time>
      </trkpt>
      <trkpt lat="46.95395" lon="-0.88297">
        <ele>116.8</ele>
        <time>2021-11-24T09:33:11Z</time>
      </trkpt>
      <trkpt lat="46.95389" lon="-0.88301">
        <ele>116.6</ele>
        <time>2021-11-24T09:33:16Z</time>
      </trkpt>
      <trkpt lat="46.95381" lon="-0.88305">
        <ele>116.7</ele>
        <time>2021-11-24T09:33:22Z</time>
      </trkpt>
      <trkpt lat="46.95372" lon="-0.88309">
        <ele>116.8</ele>
        <time>2021-11-24T09:33:28Z</time>
      </trkpt>
      <trkpt lat="46.95363" lon="-0.88314">
        <ele>116.7</ele>
        <time>2021-11-24T09:33:34Z</time>
      </trkpt>
      <trkpt lat="46.95357" lon="-0.8832">
        <ele>116.2</ele>
        <time>2021-11-24T09:33:40Z</time>
      </trkpt>
      <trkpt lat="46.95352" lon="-0.88326">
        <ele>115.6</ele>
        <time>2021-11-24T09:33:45Z</time>
      </trkpt>
      <trkpt lat="46.95345" lon="-0.88333">
        <ele>114.6</ele>
        <time>2021-11-24T09:33:51Z</time>
      </trkpt>
      <trkpt lat="46.95338" lon="-0.88341">
        <ele>114.3</ele>
        <time>2021-11-24T09:33:57Z</time>
      </trkpt>
      <trkpt lat="46.95333" lon="-0.88349">
        <ele>113.9</ele>
        <time>2021-11-24T09:34:02Z</time>
      </trkpt>
      <trkpt lat="46.95326" lon="-0.88353">
        <ele>114.5</ele>
        <time>2021-11-24T09:34:08Z</time>
      </trkpt>
      <trkpt lat="46.95318" lon="-0.88353">
        <ele>115.6</ele>
        <time>2021-11-24T09:34:13Z</time>
      </trkpt>
      <trkpt lat="46.95311" lon="-0.88354">
        <ele>116.3</ele>
        <time>2021-11-24T09:34:18Z</time>
      </trkpt>
      <trkpt lat="46.95305" lon="-0.88356">
        <ele>116.8</ele>
        <time>2021-11-24T09:34:23Z</time>
      </trkpt>
      <trkpt lat="46.95298" lon="-0.88357">
        <ele>117.2</ele>
        <time>2021-11-24T09:34:29Z</time>
      </trkpt>
      <trkpt lat="46.9529" lon="-0.88361">
        <ele>117.1</ele>
        <time>2021-11-24T09:34:35Z</time>
      </trkpt>
      <trkpt lat="46.95283" lon="-0.88363">
        <ele>117.4</ele>
        <time>2021-11-24T09:34:40Z</time>
      </trkpt>
      <trkpt lat="46.95277" lon="-0.88366">
        <ele>117.3</ele>
        <time>2021-11-24T09:34:46Z</time>
      </trkpt>
      <trkpt lat="46.9527" lon="-0.88367">
        <ele>117.3</ele>
        <time>2021-11-24T09:34:51Z</time>
      </trkpt>
      <trkpt lat="46.95262" lon="-0.8837">
        <ele>116.9</ele>
        <time>2021-11-24T09:34:57Z</time>
      </trkpt>
      <trkpt lat="46.95258" lon="-0.8837">
        <ele>117</ele>
        <time>2021-11-24T09:35:02Z</time>
      </trkpt>
      <trkpt lat="46.95251" lon="-0.88372">
        <ele>116.6</ele>
        <time>2021-11-24T09:35:11Z</time>
      </trkpt>
      <trkpt lat="46.95244" lon="-0.88373">
        <ele>116.6</ele>
        <time>2021-11-24T09:35:17Z</time>
      </trkpt>
      <trkpt lat="46.95235" lon="-0.88377">
        <ele>115.8</ele>
        <time>2021-11-24T09:35:23Z</time>
      </trkpt>
      <trkpt lat="46.95228" lon="-0.88377">
        <ele>115.9</ele>
        <time>2021-11-24T09:35:28Z</time>
      </trkpt>
      <trkpt lat="46.95221" lon="-0.88379">
        <ele>115.4</ele>
        <time>2021-11-24T09:35:33Z</time>
      </trkpt>
      <trkpt lat="46.95214" lon="-0.88379">
        <ele>115.1</ele>
        <time>2021-11-24T09:35:38Z</time>
      </trkpt>
      <trkpt lat="46.95206" lon="-0.88376">
        <ele>115.4</ele>
        <time>2021-11-24T09:35:44Z</time>
      </trkpt>
      <trkpt lat="46.95197" lon="-0.88376">
        <ele>114.9</ele>
        <time>2021-11-24T09:35:50Z</time>
      </trkpt>
      <trkpt lat="46.95189" lon="-0.88372">
        <ele>115.3</ele>
        <time>2021-11-24T09:35:55Z</time>
      </trkpt>
      <trkpt lat="46.95181" lon="-0.88367">
        <ele>115.6</ele>
        <time>2021-11-24T09:36:01Z</time>
      </trkpt>
      <trkpt lat="46.95174" lon="-0.88363">
        <ele>115.5</ele>
        <time>2021-11-24T09:36:06Z</time>
      </trkpt>
      <trkpt lat="46.95165" lon="-0.88359">
        <ele>115.4</ele>
        <time>2021-11-24T09:36:12Z</time>
      </trkpt>
      <trkpt lat="46.95156" lon="-0.88355">
        <ele>115.5</ele>
        <time>2021-11-24T09:36:18Z</time>
      </trkpt>
      <trkpt lat="46.95149" lon="-0.8835">
        <ele>115.8</ele>
        <time>2021-11-24T09:36:24Z</time>
      </trkpt>
      <trkpt lat="46.95142" lon="-0.88344">
        <ele>115.9</ele>
        <time>2021-11-24T09:36:30Z</time>
      </trkpt>
      <trkpt lat="46.95134" lon="-0.88339">
        <ele>115.8</ele>
        <time>2021-11-24T09:36:36Z</time>
      </trkpt>
      <trkpt lat="46.95128" lon="-0.88334">
        <ele>115.8</ele>
        <time>2021-11-24T09:36:41Z</time>
      </trkpt>
      <trkpt lat="46.95121" lon="-0.88327">
        <ele>115.8</ele>
        <time>2021-11-24T09:36:47Z</time>
      </trkpt>
      <trkpt lat="46.95115" lon="-0.88318">
        <ele>115.8</ele>
        <time>2021-11-24T09:36:53Z</time>
      </trkpt>
      <trkpt lat="46.9511" lon="-0.88309">
        <ele>115.7</ele>
        <time>2021-11-24T09:36:59Z</time>
      </trkpt>
      <trkpt lat="46.95104" lon="-0.88299">
        <ele>116.3</ele>
        <time>2021-11-24T09:37:05Z</time>
      </trkpt>
      <trkpt lat="46.951" lon="-0.8829">
        <ele>116.8</ele>
        <time>2021-11-24T09:37:11Z</time>
      </trkpt>
      <trkpt lat="46.95095" lon="-0.8828">
        <ele>116.9</ele>
        <time>2021-11-24T09:37:17Z</time>
      </trkpt>
      <trkpt lat="46.9509" lon="-0.88272">
        <ele>116.9</ele>
        <time>2021-11-24T09:37:22Z</time>
      </trkpt>
      <trkpt lat="46.95085" lon="-0.88263">
        <ele>117</ele>
        <time>2021-11-24T09:37:27Z</time>
      </trkpt>
      <trkpt lat="46.9508" lon="-0.88252">
        <ele>117.4</ele>
        <time>2021-11-24T09:37:33Z</time>
      </trkpt>
      <trkpt lat="46.95077" lon="-0.8824">
        <ele>118.2</ele>
        <time>2021-11-24T09:37:39Z</time>
      </trkpt>
      <trkpt lat="46.95074" lon="-0.8823">
        <ele>118.7</ele>
        <time>2021-11-24T09:37:45Z</time>
      </trkpt>
      <trkpt lat="46.9507" lon="-0.88221">
        <ele>118.7</ele>
        <time>2021-11-24T09:37:50Z</time>
      </trkpt>
      <trkpt lat="46.95066" lon="-0.88213">
        <ele>118.9</ele>
        <time>2021-11-24T09:37:56Z</time>
      </trkpt>
      <trkpt lat="46.95061" lon="-0.88205">
        <ele>118.8</ele>
        <time>2021-11-24T09:38:02Z</time>
      </trkpt>
      <trkpt lat="46.95056" lon="-0.88197">
        <ele>118.8</ele>
        <time>2021-11-24T09:38:07Z</time>
      </trkpt>
      <trkpt lat="46.95051" lon="-0.88189">
        <ele>118.9</ele>
        <time>2021-11-24T09:38:13Z</time>
      </trkpt>
      <trkpt lat="46.95045" lon="-0.88182">
        <ele>118.7</ele>
        <time>2021-11-24T09:38:18Z</time>
      </trkpt>
      <trkpt lat="46.9504" lon="-0.88175">
        <ele>118.5</ele>
        <time>2021-11-24T09:38:23Z</time>
      </trkpt>
      <trkpt lat="46.95034" lon="-0.88166">
        <ele>118.2</ele>
        <time>2021-11-24T09:38:29Z</time>
      </trkpt>
      <trkpt lat="46.95028" lon="-0.8816">
        <ele>118</ele>
        <time>2021-11-24T09:38:34Z</time>
      </trkpt>
      <trkpt lat="46.9502" lon="-0.88151">
        <ele>118.2</ele>
        <time>2021-11-24T09:38:40Z</time>
      </trkpt>
      <trkpt lat="46.95014" lon="-0.88146">
        <ele>117.9</ele>
        <time>2021-11-24T09:38:45Z</time>
      </trkpt>
      <trkpt lat="46.95007" lon="-0.8814">
        <ele>117.2</ele>
        <time>2021-11-24T09:38:51Z</time>
      </trkpt>
      <trkpt lat="46.95" lon="-0.88137">
        <ele>116.2</ele>
        <time>2021-11-24T09:38:57Z</time>
      </trkpt>
      <trkpt lat="46.94993" lon="-0.88134">
        <ele>116.4</ele>
        <time>2021-11-24T09:39:02Z</time>
      </trkpt>
      <trkpt lat="46.94986" lon="-0.88132">
        <ele>116.4</ele>
        <time>2021-11-24T09:39:08Z</time>
      </trkpt>
      <trkpt lat="46.94979" lon="-0.88132">
        <ele>116.2</ele>
        <time>2021-11-24T09:39:14Z</time>
      </trkpt>
      <trkpt lat="46.94974" lon="-0.88134">
        <ele>116</ele>
        <time>2021-11-24T09:39:19Z</time>
      </trkpt>
      <trkpt lat="46.94967" lon="-0.88137">
        <ele>115.8</ele>
        <time>2021-11-24T09:39:25Z</time>
      </trkpt>
      <trkpt lat="46.94959" lon="-0.88138">
        <ele>115.5</ele>
        <time>2021-11-24T09:39:31Z</time>
      </trkpt>
      <trkpt lat="46.94952" lon="-0.88139">
        <ele>115.3</ele>
        <time>2021-11-24T09:39:37Z</time>
      </trkpt>
      <trkpt lat="46.94945" lon="-0.88136">
        <ele>115</ele>
        <time>2021-11-24T09:39:43Z</time>
      </trkpt>
      <trkpt lat="46.94941" lon="-0.88136">
        <ele>115</ele>
        <time>2021-11-24T09:39:49Z</time>
      </trkpt>
      <trkpt lat="46.9494" lon="-0.88137">
        <ele>115</ele>
        <time>2021-11-24T09:39:54Z</time>
      </trkpt>
      <trkpt lat="46.9494" lon="-0.88137">
        <ele>115</ele>
        <time>2021-11-24T09:40:00Z</time>
      </trkpt>
      <trkpt lat="46.9494" lon="-0.88137">
        <ele>115</ele>
        <time>2021-11-24T09:40:06Z</time>
      </trkpt>
      <trkpt lat="46.94937" lon="-0.88135">
        <ele>115</ele>
        <time>2021-11-24T09:40:12Z</time>
      </trkpt>
      <trkpt lat="46.94929" lon="-0.8813">
        <ele>115</ele>
        <time>2021-11-24T09:40:18Z</time>
      </trkpt>
      <trkpt lat="46.94922" lon="-0.88127">
        <ele>115</ele>
        <time>2021-11-24T09:40:24Z</time>
      </trkpt>
      <trkpt lat="46.94916" lon="-0.88121">
        <ele>115</ele>
        <time>2021-11-24T09:40:29Z</time>
      </trkpt>
      <trkpt lat="46.94909" lon="-0.88116">
        <ele>115</ele>
        <time>2021-11-24T09:40:34Z</time>
      </trkpt>
      <trkpt lat="46.94901" lon="-0.88112">
        <ele>115</ele>
        <time>2021-11-24T09:40:40Z</time>
      </trkpt>
      <trkpt lat="46.94894" lon="-0.88104">
        <ele>115</ele>
        <time>2021-11-24T09:40:46Z</time>
      </trkpt>
      <trkpt lat="46.94888" lon="-0.88099">
        <ele>115</ele>
        <time>2021-11-24T09:40:51Z</time>
      </trkpt>
      <trkpt lat="46.94882" lon="-0.88094">
        <ele>115</ele>
        <time>2021-11-24T09:40:56Z</time>
      </trkpt>
      <trkpt lat="46.94877" lon="-0.88091">
        <ele>115</ele>
        <time>2021-11-24T09:41:02Z</time>
      </trkpt>
      <trkpt lat="46.94871" lon="-0.88084">
        <ele>115</ele>
        <time>2021-11-24T09:41:07Z</time>
      </trkpt>
      <trkpt lat="46.94864" lon="-0.8808">
        <ele>115</ele>
        <time>2021-11-24T09:41:13Z</time>
      </trkpt>
      <trkpt lat="46.94858" lon="-0.88076">
        <ele>114.9</ele>
        <time>2021-11-24T09:41:18Z</time>
      </trkpt>
      <trkpt lat="46.94852" lon="-0.88072">
        <ele>114.8</ele>
        <time>2021-11-24T09:41:23Z</time>
      </trkpt>
      <trkpt lat="46.94845" lon="-0.88067">
        <ele>114.8</ele>
        <time>2021-11-24T09:41:28Z</time>
      </trkpt>
      <trkpt lat="46.94838" lon="-0.88063">
        <ele>114.8</ele>
        <time>2021-11-24T09:41:34Z</time>
      </trkpt>
      <trkpt lat="46.9483" lon="-0.88059">
        <ele>114.9</ele>
        <time>2021-11-24T09:41:40Z</time>
      </trkpt>
      <trkpt lat="46.94821" lon="-0.88056">
        <ele>115</ele>
        <time>2021-11-24T09:41:46Z</time>
      </trkpt>
      <trkpt lat="46.94814" lon="-0.88055">
        <ele>115</ele>
        <time>2021-11-24T09:41:51Z</time>
      </trkpt>
      <trkpt lat="46.94807" lon="-0.88055">
        <ele>115</ele>
        <time>2021-11-24T09:41:56Z</time>
      </trkpt>
      <trkpt lat="46.94801" lon="-0.88057">
        <ele>115.2</ele>
        <time>2021-11-24T09:42:01Z</time>
      </trkpt>
      <trkpt lat="46.94793" lon="-0.88059">
        <ele>115.4</ele>
        <time>2021-11-24T09:42:07Z</time>
      </trkpt>
      <trkpt lat="46.94787" lon="-0.88062">
        <ele>115.5</ele>
        <time>2021-11-24T09:42:12Z</time>
      </trkpt>
      <trkpt lat="46.9478" lon="-0.88066">
        <ele>115.6</ele>
        <time>2021-11-24T09:42:17Z</time>
      </trkpt>
      <trkpt lat="46.94771" lon="-0.88067">
        <ele>115.6</ele>
        <time>2021-11-24T09:42:23Z</time>
      </trkpt>
      <trkpt lat="46.94763" lon="-0.88067">
        <ele>115.6</ele>
        <time>2021-11-24T09:42:28Z</time>
      </trkpt>
      <trkpt lat="46.94757" lon="-0.88065">
        <ele>115.7</ele>
        <time>2021-11-24T09:42:33Z</time>
      </trkpt>
      <trkpt lat="46.94751" lon="-0.88061">
        <ele>115.8</ele>
        <time>2021-11-24T09:42:38Z</time>
      </trkpt>
      <trkpt lat="46.94744" lon="-0.88051">
        <ele>116</ele>
        <time>2021-11-24T09:42:44Z</time>
      </trkpt>
      <trkpt lat="46.94739" lon="-0.8804">
        <ele>116.2</ele>
        <time>2021-11-24T09:42:50Z</time>
      </trkpt>
      <trkpt lat="46.94733" lon="-0.8803">
        <ele>116.6</ele>
        <time>2021-11-24T09:42:56Z</time>
      </trkpt>
      <trkpt lat="46.94728" lon="-0.8802">
        <ele>117.5</ele>
        <time>2021-11-24T09:43:02Z</time>
      </trkpt>
      <trkpt lat="46.94724" lon="-0.88015">
        <ele>118.2</ele>
        <time>2021-11-24T09:43:08Z</time>
      </trkpt>
      <trkpt lat="46.94722" lon="-0.88014">
        <ele>118.5</ele>
        <time>2021-11-24T09:43:13Z</time>
      </trkpt>
      <trkpt lat="46.94718" lon="-0.88017">
        <ele>119.1</ele>
        <time>2021-11-24T09:43:19Z</time>
      </trkpt>
      <trkpt lat="46.94714" lon="-0.88021">
        <ele>119.6</ele>
        <time>2021-11-24T09:43:25Z</time>
      </trkpt>
      <trkpt lat="46.9471" lon="-0.88024">
        <ele>120.1</ele>
        <time>2021-11-24T09:43:31Z</time>
      </trkpt>
      <trkpt lat="46.94706" lon="-0.88025">
        <ele>120.9</ele>
        <time>2021-11-24T09:43:36Z</time>
      </trkpt>
      <trkpt lat="46.94702" lon="-0.88026">
        <ele>121.6</ele>
        <time>2021-11-24T09:43:41Z</time>
      </trkpt>
      <trkpt lat="46.94697" lon="-0.8803">
        <ele>122.2</ele>
        <time>2021-11-24T09:43:47Z</time>
      </trkpt>
      <trkpt lat="46.94693" lon="-0.88033">
        <ele>122.3</ele>
        <time>2021-11-24T09:43:52Z</time>
      </trkpt>
      <trkpt lat="46.94685" lon="-0.88036">
        <ele>122.3</ele>
        <time>2021-11-24T09:43:58Z</time>
      </trkpt>
      <trkpt lat="46.94679" lon="-0.88036">
        <ele>122.6</ele>
        <time>2021-11-24T09:44:03Z</time>
      </trkpt>
      <trkpt lat="46.94675" lon="-0.88034">
        <ele>123.2</ele>
        <time>2021-11-24T09:44:08Z</time>
      </trkpt>
      <trkpt lat="46.94669" lon="-0.88032">
        <ele>123.9</ele>
        <time>2021-11-24T09:44:14Z</time>
      </trkpt>
      <trkpt lat="46.94664" lon="-0.88029">
        <ele>124.6</ele>
        <time>2021-11-24T09:44:19Z</time>
      </trkpt>
      <trkpt lat="46.94659" lon="-0.8802">
        <ele>126.3</ele>
        <time>2021-11-24T09:44:25Z</time>
      </trkpt>
      <trkpt lat="46.94654" lon="-0.88019">
        <ele>126.4</ele>
        <time>2021-11-24T09:44:30Z</time>
      </trkpt>
      <trkpt lat="46.94649" lon="-0.8802">
        <ele>126.1</ele>
        <time>2021-11-24T09:44:35Z</time>
      </trkpt>
      <trkpt lat="46.94644" lon="-0.8802">
        <ele>126</ele>
        <time>2021-11-24T09:44:41Z</time>
      </trkpt>
      <trkpt lat="46.94638" lon="-0.88016">
        <ele>127</ele>
        <time>2021-11-24T09:44:47Z</time>
      </trkpt>
      <trkpt lat="46.94632" lon="-0.88014">
        <ele>127.8</ele>
        <time>2021-11-24T09:44:53Z</time>
      </trkpt>
      <trkpt lat="46.94627" lon="-0.88013">
        <ele>128.4</ele>
        <time>2021-11-24T09:44:58Z</time>
      </trkpt>
      <trkpt lat="46.94621" lon="-0.8801">
        <ele>129.5</ele>
        <time>2021-11-24T09:45:04Z</time>
      </trkpt>
      <trkpt lat="46.94617" lon="-0.88007">
        <ele>130.6</ele>
        <time>2021-11-24T09:45:09Z</time>
      </trkpt>
      <trkpt lat="46.94614" lon="-0.88003">
        <ele>131.9</ele>
        <time>2021-11-24T09:45:14Z</time>
      </trkpt>
      <trkpt lat="46.94608" lon="-0.88001">
        <ele>133.2</ele>
        <time>2021-11-24T09:45:20Z</time>
      </trkpt>
      <trkpt lat="46.94601" lon="-0.88001">
        <ele>134.2</ele>
        <time>2021-11-24T09:45:26Z</time>
      </trkpt>
      <trkpt lat="46.94598" lon="-0.88005">
        <ele>133.4</ele>
        <time>2021-11-24T09:45:31Z</time>
      </trkpt>
      <trkpt lat="46.94592" lon="-0.88008">
        <ele>133.4</ele>
        <time>2021-11-24T09:45:37Z</time>
      </trkpt>
      <trkpt lat="46.94585" lon="-0.88009">
        <ele>134.2</ele>
        <time>2021-11-24T09:45:43Z</time>
      </trkpt>
      <trkpt lat="46.9458" lon="-0.88007">
        <ele>135.5</ele>
        <time>2021-11-24T09:45:48Z</time>
      </trkpt>
      <trkpt lat="46.94574" lon="-0.88005">
        <ele>137</ele>
        <time>2021-11-24T09:45:54Z</time>
      </trkpt>
      <trkpt lat="46.94572" lon="-0.87999">
        <ele>138.8</ele>
        <time>2021-11-24T09:46:00Z</time>
      </trkpt>
      <trkpt lat="46.94569" lon="-0.87994">
        <ele>140</ele>
        <time>2021-11-24T09:46:05Z</time>
      </trkpt>
      <trkpt lat="46.94568" lon="-0.87986">
        <ele>141.4</ele>
        <time>2021-11-24T09:46:11Z</time>
      </trkpt>
      <trkpt lat="46.94566" lon="-0.87977">
        <ele>143.1</ele>
        <time>2021-11-24T09:46:17Z</time>
      </trkpt>
      <trkpt lat="46.94565" lon="-0.87969">
        <ele>144.3</ele>
        <time>2021-11-24T09:46:23Z</time>
      </trkpt>
      <trkpt lat="46.94565" lon="-0.87963">
        <ele>145</ele>
        <time>2021-11-24T09:46:28Z</time>
      </trkpt>
      <trkpt lat="46.94564" lon="-0.87954">
        <ele>146.1</ele>
        <time>2021-11-24T09:46:34Z</time>
      </trkpt>
      <trkpt lat="46.94562" lon="-0.87945">
        <ele>147.2</ele>
        <time>2021-11-24T09:46:40Z</time>
      </trkpt>
      <trkpt lat="46.9456" lon="-0.87936">
        <ele>148.1</ele>
        <time>2021-11-24T09:46:46Z</time>
      </trkpt>
      <trkpt lat="46.94557" lon="-0.87926">
        <ele>149.2</ele>
        <time>2021-11-24T09:46:52Z</time>
      </trkpt>
      <trkpt lat="46.94554" lon="-0.87918">
        <ele>149.9</ele>
        <time>2021-11-24T09:46:58Z</time>
      </trkpt>
      <trkpt lat="46.9455" lon="-0.87913">
        <ele>150.2</ele>
        <time>2021-11-24T09:47:03Z</time>
      </trkpt>
      <trkpt lat="46.94543" lon="-0.87911">
        <ele>150.3</ele>
        <time>2021-11-24T09:47:09Z</time>
      </trkpt>
      <trkpt lat="46.94536" lon="-0.87906">
        <ele>150.7</ele>
        <time>2021-11-24T09:47:15Z</time>
      </trkpt>
      <trkpt lat="46.94531" lon="-0.87898">
        <ele>151.3</ele>
        <time>2021-11-24T09:47:21Z</time>
      </trkpt>
      <trkpt lat="46.94524" lon="-0.87894">
        <ele>151.5</ele>
        <time>2021-11-24T09:47:27Z</time>
      </trkpt>
      <trkpt lat="46.94521" lon="-0.87889">
        <ele>151.7</ele>
        <time>2021-11-24T09:47:32Z</time>
      </trkpt>
      <trkpt lat="46.9452" lon="-0.87879">
        <ele>152.4</ele>
        <time>2021-11-24T09:47:38Z</time>
      </trkpt>
      <trkpt lat="46.9452" lon="-0.87871">
        <ele>153</ele>
        <time>2021-11-24T09:47:43Z</time>
      </trkpt>
      <trkpt lat="46.94523" lon="-0.87862">
        <ele>153.8</ele>
        <time>2021-11-24T09:47:49Z</time>
      </trkpt>
      <trkpt lat="46.94529" lon="-0.87853">
        <ele>154.5</ele>
        <time>2021-11-24T09:47:55Z</time>
      </trkpt>
      <trkpt lat="46.94534" lon="-0.87848">
        <ele>154.7</ele>
        <time>2021-11-24T09:48:01Z</time>
      </trkpt>
      <trkpt lat="46.94537" lon="-0.87848">
        <ele>154.6</ele>
        <time>2021-11-24T09:48:07Z</time>
      </trkpt>
      <trkpt lat="46.94537" lon="-0.87848">
        <ele>154.6</ele>
        <time>2021-11-24T09:48:13Z</time>
      </trkpt>
      <trkpt lat="46.94538" lon="-0.87849">
        <ele>154.5</ele>
        <time>2021-11-24T09:48:18Z</time>
      </trkpt>
      <trkpt lat="46.94537" lon="-0.87849">
        <ele>154.5</ele>
        <time>2021-11-24T09:48:24Z</time>
      </trkpt>
      <trkpt lat="46.94538" lon="-0.87849">
        <ele>154.5</ele>
        <time>2021-11-24T09:48:29Z</time>
      </trkpt>
      <trkpt lat="46.94539" lon="-0.87849">
        <ele>154.5</ele>
        <time>2021-11-24T09:48:35Z</time>
      </trkpt>
      <trkpt lat="46.94539" lon="-0.87849">
        <ele>154.5</ele>
        <time>2021-11-24T09:48:41Z</time>
      </trkpt>
      <trkpt lat="46.94539" lon="-0.87849">
        <ele>154.5</ele>
        <time>2021-11-24T09:48:47Z</time>
      </trkpt>
      <trkpt lat="46.94539" lon="-0.87849">
        <ele>154.5</ele>
        <time>2021-11-24T09:48:52Z</time>
      </trkpt>
      <trkpt lat="46.94539" lon="-0.87849">
        <ele>154.5</ele>
        <time>2021-11-24T09:48:57Z</time>
      </trkpt>
      <trkpt lat="46.94539" lon="-0.87849">
        <ele>154.5</ele>
        <time>2021-11-24T09:49:03Z</time>
      </trkpt>
      <trkpt lat="46.94539" lon="-0.87849">
        <ele>154.5</ele>
        <time>2021-11-24T09:49:08Z</time>
      </trkpt>
      <trkpt lat="46.94539" lon="-0.87849">
        <ele>154.5</ele>
        <time>2021-11-24T09:49:14Z</time>
      </trkpt>
      <trkpt lat="46.94539" lon="-0.87849">
        <ele>154.5</ele>
        <time>2021-11-24T09:49:20Z</time>
      </trkpt>
      <trkpt lat="46.94539" lon="-0.87849">
        <ele>154.5</ele>
        <time>2021-11-24T09:49:25Z</time>
      </trkpt>
      <trkpt lat="46.94539" lon="-0.87849">
        <ele>154.5</ele>
        <time>2021-11-24T09:49:30Z</time>
      </trkpt>
      <trkpt lat="46.9454" lon="-0.87849">
        <ele>154.4</ele>
        <time>2021-11-24T09:49:36Z</time>
      </trkpt>
      <trkpt lat="46.94542" lon="-0.87848">
        <ele>154.4</ele>
        <time>2021-11-24T09:49:42Z</time>
      </trkpt>
      <trkpt lat="46.94545" lon="-0.87843">
        <ele>154.7</ele>
        <time>2021-11-24T09:49:48Z</time>
      </trkpt>
      <trkpt lat="46.94545" lon="-0.87843">
        <ele>154.7</ele>
        <time>2021-11-24T09:49:54Z</time>
      </trkpt>
      <trkpt lat="46.94545" lon="-0.87843">
        <ele>154.7</ele>
        <time>2021-11-24T09:50:00Z</time>
      </trkpt>
      <trkpt lat="46.94545" lon="-0.87843">
        <ele>154.7</ele>
        <time>2021-11-24T09:50:05Z</time>
      </trkpt>
      <trkpt lat="46.94548" lon="-0.87838">
        <ele>154.9</ele>
        <time>2021-11-24T09:50:11Z</time>
      </trkpt>
      <trkpt lat="46.94551" lon="-0.87829">
        <ele>155.6</ele>
        <time>2021-11-24T09:50:17Z</time>
      </trkpt>
      <trkpt lat="46.94553" lon="-0.87825">
        <ele>156</ele>
        <time>2021-11-24T09:50:22Z</time>
      </trkpt>
      <trkpt lat="46.94553" lon="-0.87826">
        <ele>155.9</ele>
        <time>2021-11-24T09:50:28Z</time>
      </trkpt>
      <trkpt lat="46.94554" lon="-0.87822">
        <ele>156.3</ele>
        <time>2021-11-24T09:50:34Z</time>
      </trkpt>
      <trkpt lat="46.94556" lon="-0.87813">
        <ele>157.2</ele>
        <time>2021-11-24T09:50:40Z</time>
      </trkpt>
      <trkpt lat="46.94558" lon="-0.87807">
        <ele>157.7</ele>
        <time>2021-11-24T09:50:45Z</time>
      </trkpt>
      <trkpt lat="46.94559" lon="-0.87804">
        <ele>157.9</ele>
        <time>2021-11-24T09:50:50Z</time>
      </trkpt>
      <trkpt lat="46.94561" lon="-0.87798">
        <ele>158.2</ele>
        <time>2021-11-24T09:50:56Z</time>
      </trkpt>
      <trkpt lat="46.94564" lon="-0.87793">
        <ele>158.3</ele>
        <time>2021-11-24T09:51:01Z</time>
      </trkpt>
      <trkpt lat="46.94566" lon="-0.87791">
        <ele>158.3</ele>
        <time>2021-11-24T09:51:07Z</time>
      </trkpt>
      <trkpt lat="46.94569" lon="-0.87784">
        <ele>158.6</ele>
        <time>2021-11-24T09:51:13Z</time>
      </trkpt>
      <trkpt lat="46.94574" lon="-0.87778">
        <ele>158.7</ele>
        <time>2021-11-24T09:51:18Z</time>
      </trkpt>
      <trkpt lat="46.94576" lon="-0.87778">
        <ele>158.5</ele>
        <time>2021-11-24T09:51:23Z</time>
      </trkpt>
      <trkpt lat="46.94578" lon="-0.87783">
        <ele>158</ele>
        <time>2021-11-24T09:51:29Z</time>
      </trkpt>
      <trkpt lat="46.94579" lon="-0.87784">
        <ele>157.9</ele>
        <time>2021-11-24T09:51:34Z</time>
      </trkpt>
      <trkpt lat="46.94579" lon="-0.87784">
        <ele>157.9</ele>
        <time>2021-11-24T09:51:40Z</time>
      </trkpt>
      <trkpt lat="46.94579" lon="-0.87784">
        <ele>157.9</ele>
        <time>2021-11-24T09:51:45Z</time>
      </trkpt>
      <trkpt lat="46.94578" lon="-0.87785">
        <ele>157.9</ele>
        <time>2021-11-24T09:51:51Z</time>
      </trkpt>
      <trkpt lat="46.94578" lon="-0.87786">
        <ele>157.8</ele>
        <time>2021-11-24T09:51:57Z</time>
      </trkpt>
      <trkpt lat="46.94582" lon="-0.87787">
        <ele>157.4</ele>
        <time>2021-11-24T09:52:03Z</time>
      </trkpt>
      <trkpt lat="46.94585" lon="-0.87791">
        <ele>156.9</ele>
        <time>2021-11-24T09:52:09Z</time>
      </trkpt>
      <trkpt lat="46.94588" lon="-0.8779">
        <ele>156.6</ele>
        <time>2021-11-24T09:52:14Z</time>
      </trkpt>
      <trkpt lat="46.94588" lon="-0.8779">
        <ele>156.6</ele>
        <time>2021-11-24T09:52:19Z</time>
      </trkpt>
      <trkpt lat="46.94588" lon="-0.8779">
        <ele>156.6</ele>
        <time>2021-11-24T09:52:24Z</time>
      </trkpt>
      <trkpt lat="46.94588" lon="-0.8779">
        <ele>156.6</ele>
        <time>2021-11-24T09:52:30Z</time>
      </trkpt>
      <trkpt lat="46.94589" lon="-0.87791">
        <ele>156.4</ele>
        <time>2021-11-24T09:52:35Z</time>
      </trkpt>
      <trkpt lat="46.94589" lon="-0.87791">
        <ele>156.4</ele>
        <time>2021-11-24T09:52:41Z</time>
      </trkpt>
      <trkpt lat="46.94588" lon="-0.87791">
        <ele>156.5</ele>
        <time>2021-11-24T09:52:47Z</time>
      </trkpt>
      <trkpt lat="46.94588" lon="-0.87792">
        <ele>156.5</ele>
        <time>2021-11-24T09:52:53Z</time>
      </trkpt>
      <trkpt lat="46.94588" lon="-0.87792">
        <ele>156.5</ele>
        <time>2021-11-24T09:52:58Z</time>
      </trkpt>
      <trkpt lat="46.94587" lon="-0.87792">
        <ele>156.6</ele>
        <time>2021-11-24T09:53:03Z</time>
      </trkpt>
      <trkpt lat="46.94581" lon="-0.87789">
        <ele>157.4</ele>
        <time>2021-11-24T09:53:08Z</time>
      </trkpt>
      <trkpt lat="46.9458" lon="-0.87788">
        <ele>157.5</ele>
        <time>2021-11-24T09:53:14Z</time>
      </trkpt>
      <trkpt lat="46.94579" lon="-0.87787">
        <ele>157.6</ele>
        <time>2021-11-24T09:53:19Z</time>
      </trkpt>
      <trkpt lat="46.94578" lon="-0.87787">
        <ele>157.7</ele>
        <time>2021-11-24T09:53:24Z</time>
      </trkpt>
      <trkpt lat="46.94578" lon="-0.87786">
        <ele>157.8</ele>
        <time>2021-11-24T09:53:30Z</time>
      </trkpt>
      <trkpt lat="46.94574" lon="-0.87782">
        <ele>158.4</ele>
        <time>2021-11-24T09:53:35Z</time>
      </trkpt>
      <trkpt lat="46.94576" lon="-0.8777">
        <ele>159</ele>
        <time>2021-11-24T09:53:41Z</time>
      </trkpt>
      <trkpt lat="46.94576" lon="-0.87761">
        <ele>159.6</ele>
        <time>2021-11-24T09:53:46Z</time>
      </trkpt>
      <trkpt lat="46.94575" lon="-0.87752">
        <ele>160.2</ele>
        <time>2021-11-24T09:53:52Z</time>
      </trkpt>
      <trkpt lat="46.94578" lon="-0.87743">
        <ele>160.6</ele>
        <time>2021-11-24T09:53:58Z</time>
      </trkpt>
      <trkpt lat="46.94582" lon="-0.87739">
        <ele>160.8</ele>
        <time>2021-11-24T09:54:04Z</time>
      </trkpt>
      <trkpt lat="46.94583" lon="-0.87739">
        <ele>160.8</ele>
        <time>2021-11-24T09:54:09Z</time>
      </trkpt>
      <trkpt lat="46.94585" lon="-0.87737">
        <ele>160.8</ele>
        <time>2021-11-24T09:54:15Z</time>
      </trkpt>
      <trkpt lat="46.94588" lon="-0.87732">
        <ele>161</ele>
        <time>2021-11-24T09:54:21Z</time>
      </trkpt>
      <trkpt lat="46.94587" lon="-0.87723">
        <ele>161.7</ele>
        <time>2021-11-24T09:54:27Z</time>
      </trkpt>
      <trkpt lat="46.94585" lon="-0.87715">
        <ele>161.9</ele>
        <time>2021-11-24T09:54:32Z</time>
      </trkpt>
      <trkpt lat="46.94582" lon="-0.87706">
        <ele>162</ele>
        <time>2021-11-24T09:54:37Z</time>
      </trkpt>
      <trkpt lat="46.94576" lon="-0.87697">
        <ele>162</ele>
        <time>2021-11-24T09:54:43Z</time>
      </trkpt>
      <trkpt lat="46.94572" lon="-0.87687">
        <ele>162</ele>
        <time>2021-11-24T09:54:49Z</time>
      </trkpt>
      <trkpt lat="46.94569" lon="-0.87678">
        <ele>162</ele>
        <time>2021-11-24T09:54:55Z</time>
      </trkpt>
      <trkpt lat="46.94567" lon="-0.8767">
        <ele>162</ele>
        <time>2021-11-24T09:55:00Z</time>
      </trkpt>
      <trkpt lat="46.94563" lon="-0.8766">
        <ele>161.8</ele>
        <time>2021-11-24T09:55:06Z</time>
      </trkpt>
      <trkpt lat="46.94559" lon="-0.87649">
        <ele>161.4</ele>
        <time>2021-11-24T09:55:12Z</time>
      </trkpt>
      <trkpt lat="46.94555" lon="-0.87642">
        <ele>161.1</ele>
        <time>2021-11-24T09:55:18Z</time>
      </trkpt>
      <trkpt lat="46.9455" lon="-0.87647">
        <ele>161.1</ele>
        <time>2021-11-24T09:55:23Z</time>
      </trkpt>
      <trkpt lat="46.94544" lon="-0.87655">
        <ele>161.2</ele>
        <time>2021-11-24T09:55:29Z</time>
      </trkpt>
      <trkpt lat="46.9454" lon="-0.87664">
        <ele>161.3</ele>
        <time>2021-11-24T09:55:34Z</time>
      </trkpt>
      <trkpt lat="46.94536" lon="-0.87671">
        <ele>161.3</ele>
        <time>2021-11-24T09:55:39Z</time>
      </trkpt>
      <trkpt lat="46.9453" lon="-0.87679">
        <ele>161.1</ele>
        <time>2021-11-24T09:55:45Z</time>
      </trkpt>
      <trkpt lat="46.94525" lon="-0.87685">
        <ele>160.8</ele>
        <time>2021-11-24T09:55:50Z</time>
      </trkpt>
      <trkpt lat="46.94519" lon="-0.8769">
        <ele>160.3</ele>
        <time>2021-11-24T09:55:55Z</time>
      </trkpt>
      <trkpt lat="46.94512" lon="-0.87698">
        <ele>159.9</ele>
        <time>2021-11-24T09:56:01Z</time>
      </trkpt>
      <trkpt lat="46.94505" lon="-0.87706">
        <ele>159.4</ele>
        <time>2021-11-24T09:56:07Z</time>
      </trkpt>
      <trkpt lat="46.945" lon="-0.87712">
        <ele>159</ele>
        <time>2021-11-24T09:56:12Z</time>
      </trkpt>
      <trkpt lat="46.94495" lon="-0.87718">
        <ele>158.5</ele>
        <time>2021-11-24T09:56:17Z</time>
      </trkpt>
      <trkpt lat="46.9449" lon="-0.87726">
        <ele>157.9</ele>
        <time>2021-11-24T09:56:23Z</time>
      </trkpt>
      <trkpt lat="46.94483" lon="-0.87734">
        <ele>157.2</ele>
        <time>2021-11-24T09:56:29Z</time>
      </trkpt>
      <trkpt lat="46.94476" lon="-0.87738">
        <ele>156.4</ele>
        <time>2021-11-24T09:56:34Z</time>
      </trkpt>
      <trkpt lat="46.94467" lon="-0.87737">
        <ele>155</ele>
        <time>2021-11-24T09:56:40Z</time>
      </trkpt>
      <trkpt lat="46.94461" lon="-0.87739">
        <ele>153.9</ele>
        <time>2021-11-24T09:56:45Z</time>
      </trkpt>
      <trkpt lat="46.94457" lon="-0.87746">
        <ele>152.9</ele>
        <time>2021-11-24T09:56:50Z</time>
      </trkpt>
      <trkpt lat="46.94454" lon="-0.87755">
        <ele>151.9</ele>
        <time>2021-11-24T09:56:55Z</time>
      </trkpt>
      <trkpt lat="46.94447" lon="-0.87759">
        <ele>150.2</ele>
        <time>2021-11-24T09:57:01Z</time>
      </trkpt>
      <trkpt lat="46.94439" lon="-0.87757">
        <ele>149.1</ele>
        <time>2021-11-24T09:57:07Z</time>
      </trkpt>
      <trkpt lat="46.94432" lon="-0.87755">
        <ele>148.3</ele>
        <time>2021-11-24T09:57:12Z</time>
      </trkpt>
      <trkpt lat="46.94425" lon="-0.87756">
        <ele>147.4</ele>
        <time>2021-11-24T09:57:17Z</time>
      </trkpt>
      <trkpt lat="46.94419" lon="-0.87759">
        <ele>146.3</ele>
        <time>2021-11-24T09:57:22Z</time>
      </trkpt>
      <trkpt lat="46.94412" lon="-0.87764">
        <ele>145.6</ele>
        <time>2021-11-24T09:57:28Z</time>
      </trkpt>
      <trkpt lat="46.94408" lon="-0.8777">
        <ele>144.9</ele>
        <time>2021-11-24T09:57:33Z</time>
      </trkpt>
      <trkpt lat="46.94405" lon="-0.87779">
        <ele>143.9</ele>
        <time>2021-11-24T09:57:39Z</time>
      </trkpt>
      <trkpt lat="46.94404" lon="-0.87787">
        <ele>143.5</ele>
        <time>2021-11-24T09:57:44Z</time>
      </trkpt>
      <trkpt lat="46.944" lon="-0.878">
        <ele>142.6</ele>
        <time>2021-11-24T09:57:50Z</time>
      </trkpt>
      <trkpt lat="46.94397" lon="-0.8781">
        <ele>141.6</ele>
        <time>2021-11-24T09:57:56Z</time>
      </trkpt>
      <trkpt lat="46.94394" lon="-0.87819">
        <ele>140.8</ele>
        <time>2021-11-24T09:58:01Z</time>
      </trkpt>
      <trkpt lat="46.94391" lon="-0.87828">
        <ele>139.7</ele>
        <time>2021-11-24T09:58:06Z</time>
      </trkpt>
      <trkpt lat="46.94387" lon="-0.87838">
        <ele>138.6</ele>
        <time>2021-11-24T09:58:11Z</time>
      </trkpt>
      <trkpt lat="46.94379" lon="-0.87847">
        <ele>137.3</ele>
        <time>2021-11-24T09:58:17Z</time>
      </trkpt>
      <trkpt lat="46.94371" lon="-0.8785">
        <ele>136.1</ele>
        <time>2021-11-24T09:58:23Z</time>
      </trkpt>
      <trkpt lat="46.94363" lon="-0.87851">
        <ele>135</ele>
        <time>2021-11-24T09:58:29Z</time>
      </trkpt>
      <trkpt lat="46.94355" lon="-0.87852">
        <ele>133.7</ele>
        <time>2021-11-24T09:58:35Z</time>
      </trkpt>
      <trkpt lat="46.9435" lon="-0.87853">
        <ele>132.8</ele>
        <time>2021-11-24T09:58:40Z</time>
      </trkpt>
      <trkpt lat="46.94342" lon="-0.87854">
        <ele>131.4</ele>
        <time>2021-11-24T09:58:46Z</time>
      </trkpt>
      <trkpt lat="46.94334" lon="-0.87852">
        <ele>130.4</ele>
        <time>2021-11-24T09:58:51Z</time>
      </trkpt>
      <trkpt lat="46.94329" lon="-0.87848">
        <ele>130</ele>
        <time>2021-11-24T09:58:56Z</time>
      </trkpt>
      <trkpt lat="46.94323" lon="-0.87844">
        <ele>129.2</ele>
        <time>2021-11-24T09:59:01Z</time>
      </trkpt>
      <trkpt lat="46.94315" lon="-0.8784">
        <ele>128.1</ele>
        <time>2021-11-24T09:59:07Z</time>
      </trkpt>
      <trkpt lat="46.94309" lon="-0.87837">
        <ele>127.2</ele>
        <time>2021-11-24T09:59:12Z</time>
      </trkpt>
      <trkpt lat="46.94302" lon="-0.87833">
        <ele>126.6</ele>
        <time>2021-11-24T09:59:17Z</time>
      </trkpt>
      <trkpt lat="46.94294" lon="-0.8783">
        <ele>126</ele>
        <time>2021-11-24T09:59:23Z</time>
      </trkpt>
      <trkpt lat="46.94287" lon="-0.87828">
        <ele>125.2</ele>
        <time>2021-11-24T09:59:28Z</time>
      </trkpt>
      <trkpt lat="46.9428" lon="-0.87825">
        <ele>124.6</ele>
        <time>2021-11-24T09:59:34Z</time>
      </trkpt>
      <trkpt lat="46.94274" lon="-0.8782">
        <ele>124.3</ele>
        <time>2021-11-24T09:59:39Z</time>
      </trkpt>
      <trkpt lat="46.94267" lon="-0.87816">
        <ele>123.7</ele>
        <time>2021-11-24T09:59:45Z</time>
      </trkpt>
      <trkpt lat="46.94259" lon="-0.87812">
        <ele>122.8</ele>
        <time>2021-11-24T09:59:50Z</time>
      </trkpt>
      <trkpt lat="46.94251" lon="-0.87808">
        <ele>121.9</ele>
        <time>2021-11-24T09:59:56Z</time>
      </trkpt>
      <trkpt lat="46.94244" lon="-0.87803">
        <ele>122</ele>
        <time>2021-11-24T10:00:02Z</time>
      </trkpt>
      <trkpt lat="46.94238" lon="-0.87797">
        <ele>122.4</ele>
        <time>2021-11-24T10:00:07Z</time>
      </trkpt>
      <trkpt lat="46.94232" lon="-0.8779">
        <ele>122.8</ele>
        <time>2021-11-24T10:00:13Z</time>
      </trkpt>
      <trkpt lat="46.94227" lon="-0.87784">
        <ele>122.9</ele>
        <time>2021-11-24T10:00:18Z</time>
      </trkpt>
      <trkpt lat="46.9422" lon="-0.87779">
        <ele>122.7</ele>
        <time>2021-11-24T10:00:24Z</time>
      </trkpt>
      <trkpt lat="46.94213" lon="-0.87776">
        <ele>122.6</ele>
        <time>2021-11-24T10:00:30Z</time>
      </trkpt>
      <trkpt lat="46.94207" lon="-0.87771">
        <ele>122.9</ele>
        <time>2021-11-24T10:00:36Z</time>
      </trkpt>
      <trkpt lat="46.942" lon="-0.87764">
        <ele>123.1</ele>
        <time>2021-11-24T10:00:41Z</time>
      </trkpt>
      <trkpt lat="46.94194" lon="-0.87755">
        <ele>123.4</ele>
        <time>2021-11-24T10:00:47Z</time>
      </trkpt>
      <trkpt lat="46.94189" lon="-0.87747">
        <ele>123.8</ele>
        <time>2021-11-24T10:00:53Z</time>
      </trkpt>
      <trkpt lat="46.94183" lon="-0.8774">
        <ele>124.1</ele>
        <time>2021-11-24T10:00:58Z</time>
      </trkpt>
      <trkpt lat="46.94177" lon="-0.87733">
        <ele>124.2</ele>
        <time>2021-11-24T10:01:04Z</time>
      </trkpt>
      <trkpt lat="46.94172" lon="-0.87725">
        <ele>124.4</ele>
        <time>2021-11-24T10:01:09Z</time>
      </trkpt>
      <trkpt lat="46.94168" lon="-0.8772">
        <ele>124.6</ele>
        <time>2021-11-24T10:01:14Z</time>
      </trkpt>
      <trkpt lat="46.94162" lon="-0.87711">
        <ele>125.1</ele>
        <time>2021-11-24T10:01:20Z</time>
      </trkpt>
      <trkpt lat="46.94157" lon="-0.87706">
        <ele>124.9</ele>
        <time>2021-11-24T10:01:25Z</time>
      </trkpt>
      <trkpt lat="46.94151" lon="-0.87698">
        <ele>124.6</ele>
        <time>2021-11-24T10:01:31Z</time>
      </trkpt>
      <trkpt lat="46.94145" lon="-0.87691">
        <ele>124.2</ele>
        <time>2021-11-24T10:01:37Z</time>
      </trkpt>
      <trkpt lat="46.94143" lon="-0.87689">
        <ele>124</ele>
        <time>2021-11-24T10:01:42Z</time>
      </trkpt>
      <trkpt lat="46.94145" lon="-0.87689">
        <ele>124.6</ele>
        <time>2021-11-24T10:01:47Z</time>
      </trkpt>
      <trkpt lat="46.94146" lon="-0.8769">
        <ele>124.6</ele>
        <time>2021-11-24T10:01:52Z</time>
      </trkpt>
      <trkpt lat="46.94156" lon="-0.87696">
        <ele>126.1</ele>
        <time>2021-11-24T10:01:58Z</time>
      </trkpt>
      <trkpt lat="46.94163" lon="-0.87697">
        <ele>127.7</ele>
        <time>2021-11-24T10:02:04Z</time>
      </trkpt>
      <trkpt lat="46.94166" lon="-0.87694">
        <ele>128.9</ele>
        <time>2021-11-24T10:02:09Z</time>
      </trkpt>
      <trkpt lat="46.94174" lon="-0.87702">
        <ele>128.9</ele>
        <time>2021-11-24T10:02:15Z</time>
      </trkpt>
      <trkpt lat="46.9418" lon="-0.87704">
        <ele>129.5</ele>
        <time>2021-11-24T10:02:21Z</time>
      </trkpt>
      <trkpt lat="46.94188" lon="-0.87706">
        <ele>130.4</ele>
        <time>2021-11-24T10:02:27Z</time>
      </trkpt>
      <trkpt lat="46.94193" lon="-0.87713">
        <ele>129.8</ele>
        <time>2021-11-24T10:02:33Z</time>
      </trkpt>
      <trkpt lat="46.94199" lon="-0.87716">
        <ele>130.1</ele>
        <time>2021-11-24T10:02:39Z</time>
      </trkpt>
      <trkpt lat="46.94202" lon="-0.87718">
        <ele>130.2</ele>
        <time>2021-11-24T10:02:45Z</time>
      </trkpt>
      <trkpt lat="46.94203" lon="-0.87718">
        <ele>130.4</ele>
        <time>2021-11-24T10:02:50Z</time>
      </trkpt>
      <trkpt lat="46.94206" lon="-0.87723">
        <ele>130</ele>
        <time>2021-11-24T10:02:56Z</time>
      </trkpt>
      <trkpt lat="46.94214" lon="-0.87727">
        <ele>130.7</ele>
        <time>2021-11-24T10:03:01Z</time>
      </trkpt>
      <trkpt lat="46.94221" lon="-0.87722">
        <ele>132.8</ele>
        <time>2021-11-24T10:03:07Z</time>
      </trkpt>
      <trkpt lat="46.94223" lon="-0.87716">
        <ele>134.3</ele>
        <time>2021-11-24T10:03:13Z</time>
      </trkpt>
      <trkpt lat="46.9422" lon="-0.87716">
        <ele>133.7</ele>
        <time>2021-11-24T10:03:19Z</time>
      </trkpt>
      <trkpt lat="46.94217" lon="-0.87713">
        <ele>133.8</ele>
        <time>2021-11-24T10:03:24Z</time>
      </trkpt>
      <trkpt lat="46.94213" lon="-0.8771">
        <ele>133.7</ele>
        <time>2021-11-24T10:03:29Z</time>
      </trkpt>
      <trkpt lat="46.94211" lon="-0.87703">
        <ele>134.7</ele>
        <time>2021-11-24T10:03:34Z</time>
      </trkpt>
      <trkpt lat="46.94214" lon="-0.87697">
        <ele>136.3</ele>
        <time>2021-11-24T10:03:39Z</time>
      </trkpt>
      <trkpt lat="46.94217" lon="-0.87695">
        <ele>137.1</ele>
        <time>2021-11-24T10:03:45Z</time>
      </trkpt>
      <trkpt lat="46.94223" lon="-0.87695">
        <ele>138</ele>
        <time>2021-11-24T10:03:51Z</time>
      </trkpt>
      <trkpt lat="46.94227" lon="-0.87696">
        <ele>138.6</ele>
        <time>2021-11-24T10:03:56Z</time>
      </trkpt>
      <trkpt lat="46.94229" lon="-0.87693">
        <ele>139.5</ele>
        <time>2021-11-24T10:04:02Z</time>
      </trkpt>
      <trkpt lat="46.94225" lon="-0.8769">
        <ele>139.5</ele>
        <time>2021-11-24T10:04:08Z</time>
      </trkpt>
      <trkpt lat="46.94221" lon="-0.87689">
        <ele>139</ele>
        <time>2021-11-24T10:04:13Z</time>
      </trkpt>
      <trkpt lat="46.94216" lon="-0.87687">
        <ele>138.8</ele>
        <time>2021-11-24T10:04:18Z</time>
      </trkpt>
      <trkpt lat="46.94211" lon="-0.87684">
        <ele>138.8</ele>
        <time>2021-11-24T10:04:23Z</time>
      </trkpt>
      <trkpt lat="46.94205" lon="-0.87678">
        <ele>139.4</ele>
        <time>2021-11-24T10:04:29Z</time>
      </trkpt>
      <trkpt lat="46.942" lon="-0.87671">
        <ele>140.5</ele>
        <time>2021-11-24T10:04:35Z</time>
      </trkpt>
      <trkpt lat="46.94195" lon="-0.87667">
        <ele>141</ele>
        <time>2021-11-24T10:04:40Z</time>
      </trkpt>
      <trkpt lat="46.9419" lon="-0.87664">
        <ele>140.8</ele>
        <time>2021-11-24T10:04:46Z</time>
      </trkpt>
      <trkpt lat="46.94182" lon="-0.87661">
        <ele>139.9</ele>
        <time>2021-11-24T10:04:52Z</time>
      </trkpt>
      <trkpt lat="46.94175" lon="-0.87656">
        <ele>139.9</ele>
        <time>2021-11-24T10:04:58Z</time>
      </trkpt>
      <trkpt lat="46.94173" lon="-0.87653">
        <ele>140.3</ele>
        <time>2021-11-24T10:05:03Z</time>
      </trkpt>
      <trkpt lat="46.94174" lon="-0.87647">
        <ele>142.2</ele>
        <time>2021-11-24T10:05:09Z</time>
      </trkpt>
      <trkpt lat="46.94178" lon="-0.87644">
        <ele>144</ele>
        <time>2021-11-24T10:05:14Z</time>
      </trkpt>
      <trkpt lat="46.94184" lon="-0.87642">
        <ele>145.8</ele>
        <time>2021-11-24T10:05:20Z</time>
      </trkpt>
      <trkpt lat="46.94188" lon="-0.8764">
        <ele>147.3</ele>
        <time>2021-11-24T10:05:25Z</time>
      </trkpt>
      <trkpt lat="46.94193" lon="-0.8764">
        <ele>148.4</ele>
        <time>2021-11-24T10:05:31Z</time>
      </trkpt>
      <trkpt lat="46.94194" lon="-0.8764">
        <ele>148.6</ele>
        <time>2021-11-24T10:05:37Z</time>
      </trkpt>
      <trkpt lat="46.94198" lon="-0.87642">
        <ele>148.5</ele>
        <time>2021-11-24T10:05:43Z</time>
      </trkpt>
      <trkpt lat="46.94203" lon="-0.87645">
        <ele>148.2</ele>
        <time>2021-11-24T10:05:48Z</time>
      </trkpt>
      <trkpt lat="46.94208" lon="-0.87646">
        <ele>148.4</ele>
        <time>2021-11-24T10:05:53Z</time>
      </trkpt>
      <trkpt lat="46.94211" lon="-0.87649">
        <ele>147.9</ele>
        <time>2021-11-24T10:05:59Z</time>
      </trkpt>
      <trkpt lat="46.94218" lon="-0.87655">
        <ele>146.9</ele>
        <time>2021-11-24T10:06:05Z</time>
      </trkpt>
      <trkpt lat="46.94224" lon="-0.87658">
        <ele>146.8</ele>
        <time>2021-11-24T10:06:11Z</time>
      </trkpt>
      <trkpt lat="46.9423" lon="-0.87664">
        <ele>146.1</ele>
        <time>2021-11-24T10:06:17Z</time>
      </trkpt>
      <trkpt lat="46.94235" lon="-0.87667">
        <ele>146.2</ele>
        <time>2021-11-24T10:06:22Z</time>
      </trkpt>
      <trkpt lat="46.9424" lon="-0.87668">
        <ele>146.9</ele>
        <time>2021-11-24T10:06:27Z</time>
      </trkpt>
      <trkpt lat="46.94246" lon="-0.87672">
        <ele>147.1</ele>
        <time>2021-11-24T10:06:33Z</time>
      </trkpt>
      <trkpt lat="46.9425" lon="-0.87672">
        <ele>147.8</ele>
        <time>2021-11-24T10:06:38Z</time>
      </trkpt>
      <trkpt lat="46.94252" lon="-0.87667">
        <ele>149.2</ele>
        <time>2021-11-24T10:06:44Z</time>
      </trkpt>
      <trkpt lat="46.94255" lon="-0.87662">
        <ele>150.5</ele>
        <time>2021-11-24T10:06:49Z</time>
      </trkpt>
      <trkpt lat="46.94259" lon="-0.87659">
        <ele>151.6</ele>
        <time>2021-11-24T10:06:55Z</time>
      </trkpt>
      <trkpt lat="46.94261" lon="-0.8766">
        <ele>151.7</ele>
        <time>2021-11-24T10:07:01Z</time>
      </trkpt>
      <trkpt lat="46.94266" lon="-0.87657">
        <ele>152.8</ele>
        <time>2021-11-24T10:07:06Z</time>
      </trkpt>
      <trkpt lat="46.94264" lon="-0.87653">
        <ele>153.2</ele>
        <time>2021-11-24T10:07:12Z</time>
      </trkpt>
      <trkpt lat="46.94263" lon="-0.87648">
        <ele>153.9</ele>
        <time>2021-11-24T10:07:18Z</time>
      </trkpt>
      <trkpt lat="46.94266" lon="-0.87644">
        <ele>154.9</ele>
        <time>2021-11-24T10:07:23Z</time>
      </trkpt>
      <trkpt lat="46.94269" lon="-0.87638">
        <ele>156.2</ele>
        <time>2021-11-24T10:07:28Z</time>
      </trkpt>
      <trkpt lat="46.94273" lon="-0.87634">
        <ele>157.2</ele>
        <time>2021-11-24T10:07:34Z</time>
      </trkpt>
      <trkpt lat="46.94278" lon="-0.87635">
        <ele>157.6</ele>
        <time>2021-11-24T10:07:39Z</time>
      </trkpt>
      <trkpt lat="46.94285" lon="-0.87638">
        <ele>157.6</ele>
        <time>2021-11-24T10:07:45Z</time>
      </trkpt>
      <trkpt lat="46.9429" lon="-0.87643">
        <ele>157.4</ele>
        <time>2021-11-24T10:07:50Z</time>
      </trkpt>
      <trkpt lat="46.94295" lon="-0.8765">
        <ele>156.9</ele>
        <time>2021-11-24T10:07:56Z</time>
      </trkpt>
      <trkpt lat="46.94299" lon="-0.87653">
        <ele>156.9</ele>
        <time>2021-11-24T10:08:01Z</time>
      </trkpt>
      <trkpt lat="46.94304" lon="-0.87654">
        <ele>157.2</ele>
        <time>2021-11-24T10:08:06Z</time>
      </trkpt>
      <trkpt lat="46.94312" lon="-0.87654">
        <ele>157.8</ele>
        <time>2021-11-24T10:08:12Z</time>
      </trkpt>
      <trkpt lat="46.94315" lon="-0.8765">
        <ele>158.5</ele>
        <time>2021-11-24T10:08:18Z</time>
      </trkpt>
      <trkpt lat="46.94319" lon="-0.87647">
        <ele>159.1</ele>
        <time>2021-11-24T10:08:23Z</time>
      </trkpt>
      <trkpt lat="46.94321" lon="-0.87639">
        <ele>160.1</ele>
        <time>2021-11-24T10:08:28Z</time>
      </trkpt>
      <trkpt lat="46.94322" lon="-0.87633">
        <ele>160.7</ele>
        <time>2021-11-24T10:08:33Z</time>
      </trkpt>
      <trkpt lat="46.94319" lon="-0.87628">
        <ele>161</ele>
        <time>2021-11-24T10:08:39Z</time>
      </trkpt>
      <trkpt lat="46.94317" lon="-0.8762">
        <ele>161.6</ele>
        <time>2021-11-24T10:08:45Z</time>
      </trkpt>
      <trkpt lat="46.94318" lon="-0.87612">
        <ele>162.4</ele>
        <time>2021-11-24T10:08:50Z</time>
      </trkpt>
      <trkpt lat="46.94321" lon="-0.87604">
        <ele>163.3</ele>
        <time>2021-11-24T10:08:56Z</time>
      </trkpt>
      <trkpt lat="46.94323" lon="-0.87597">
        <ele>164</ele>
        <time>2021-11-24T10:09:01Z</time>
      </trkpt>
      <trkpt lat="46.94326" lon="-0.87593">
        <ele>164.4</ele>
        <time>2021-11-24T10:09:06Z</time>
      </trkpt>
      <trkpt lat="46.9433" lon="-0.87586">
        <ele>164.9</ele>
        <time>2021-11-24T10:09:11Z</time>
      </trkpt>
      <trkpt lat="46.94335" lon="-0.87583">
        <ele>165</ele>
        <time>2021-11-24T10:09:17Z</time>
      </trkpt>
      <trkpt lat="46.94339" lon="-0.87585">
        <ele>164.9</ele>
        <time>2021-11-24T10:09:22Z</time>
      </trkpt>
      <trkpt lat="46.94344" lon="-0.87588">
        <ele>164.7</ele>
        <time>2021-11-24T10:09:27Z</time>
      </trkpt>
      <trkpt lat="46.94348" lon="-0.87594">
        <ele>164.2</ele>
        <time>2021-11-24T10:09:33Z</time>
      </trkpt>
      <trkpt lat="46.94353" lon="-0.87602">
        <ele>163.7</ele>
        <time>2021-11-24T10:09:39Z</time>
      </trkpt>
      <trkpt lat="46.94359" lon="-0.87608">
        <ele>163.2</ele>
        <time>2021-11-24T10:09:45Z</time>
      </trkpt>
      <trkpt lat="46.94364" lon="-0.87616">
        <ele>162.5</ele>
        <time>2021-11-24T10:09:51Z</time>
      </trkpt>
      <trkpt lat="46.94366" lon="-0.87625">
        <ele>161.8</ele>
        <time>2021-11-24T10:09:57Z</time>
      </trkpt>
      <trkpt lat="46.94369" lon="-0.87633">
        <ele>161.1</ele>
        <time>2021-11-24T10:10:03Z</time>
      </trkpt>
      <trkpt lat="46.94372" lon="-0.87643">
        <ele>160.3</ele>
        <time>2021-11-24T10:10:08Z</time>
      </trkpt>
      <trkpt lat="46.94372" lon="-0.87652">
        <ele>159.7</ele>
        <time>2021-11-24T10:10:13Z</time>
      </trkpt>
      <trkpt lat="46.94374" lon="-0.87663">
        <ele>158.8</ele>
        <time>2021-11-24T10:10:19Z</time>
      </trkpt>
      <trkpt lat="46.94378" lon="-0.87673">
        <ele>157.8</ele>
        <time>2021-11-24T10:10:25Z</time>
      </trkpt>
      <trkpt lat="46.94381" lon="-0.87679">
        <ele>157.3</ele>
        <time>2021-11-24T10:10:30Z</time>
      </trkpt>
      <trkpt lat="46.94381" lon="-0.87687">
        <ele>156.6</ele>
        <time>2021-11-24T10:10:35Z</time>
      </trkpt>
      <trkpt lat="46.9438" lon="-0.87698">
        <ele>155.5</ele>
        <time>2021-11-24T10:10:41Z</time>
      </trkpt>
      <trkpt lat="46.9438" lon="-0.87708">
        <ele>154.2</ele>
        <time>2021-11-24T10:10:47Z</time>
      </trkpt>
      <trkpt lat="46.9438" lon="-0.87719">
        <ele>152.7</ele>
        <time>2021-11-24T10:10:53Z</time>
      </trkpt>
      <trkpt lat="46.94376" lon="-0.87725">
        <ele>152.1</ele>
        <time>2021-11-24T10:10:59Z</time>
      </trkpt>
      <trkpt lat="46.94371" lon="-0.87728">
        <ele>151.8</ele>
        <time>2021-11-24T10:11:04Z</time>
      </trkpt>
      <trkpt lat="46.94367" lon="-0.87732">
        <ele>151.4</ele>
        <time>2021-11-24T10:11:10Z</time>
      </trkpt>
      <trkpt lat="46.94368" lon="-0.8774">
        <ele>150.2</ele>
        <time>2021-11-24T10:11:16Z</time>
      </trkpt>
      <trkpt lat="46.94367" lon="-0.87749">
        <ele>148.9</ele>
        <time>2021-11-24T10:11:22Z</time>
      </trkpt>
      <trkpt lat="46.94365" lon="-0.87756">
        <ele>148</ele>
        <time>2021-11-24T10:11:28Z</time>
      </trkpt>
      <trkpt lat="46.94367" lon="-0.87764">
        <ele>146.8</ele>
        <time>2021-11-24T10:11:33Z</time>
      </trkpt>
      <trkpt lat="46.94368" lon="-0.87771">
        <ele>145.7</ele>
        <time>2021-11-24T10:11:38Z</time>
      </trkpt>
      <trkpt lat="46.94367" lon="-0.87778">
        <ele>144.8</ele>
        <time>2021-11-24T10:11:44Z</time>
      </trkpt>
      <trkpt lat="46.94368" lon="-0.87781">
        <ele>144.3</ele>
        <time>2021-11-24T10:11:49Z</time>
      </trkpt>
      <trkpt lat="46.94371" lon="-0.87784">
        <ele>143.8</ele>
        <time>2021-11-24T10:11:55Z</time>
      </trkpt>
      <trkpt lat="46.94378" lon="-0.87786">
        <ele>143.4</ele>
        <time>2021-11-24T10:12:01Z</time>
      </trkpt>
      <trkpt lat="46.94385" lon="-0.87786">
        <ele>143.2</ele>
        <time>2021-11-24T10:12:06Z</time>
      </trkpt>
      <trkpt lat="46.94394" lon="-0.87789">
        <ele>143</ele>
        <time>2021-11-24T10:12:12Z</time>
      </trkpt>
      <trkpt lat="46.944" lon="-0.87786">
        <ele>143.5</ele>
        <time>2021-11-24T10:12:18Z</time>
      </trkpt>
      <trkpt lat="46.94403" lon="-0.87778">
        <ele>144</ele>
        <time>2021-11-24T10:12:23Z</time>
      </trkpt>
      <trkpt lat="46.94405" lon="-0.87769">
        <ele>145.1</ele>
        <time>2021-11-24T10:12:29Z</time>
      </trkpt>
      <trkpt lat="46.9441" lon="-0.87759">
        <ele>146.2</ele>
        <time>2021-11-24T10:12:35Z</time>
      </trkpt>
      <trkpt lat="46.94413" lon="-0.87756">
        <ele>146.5</ele>
        <time>2021-11-24T10:12:40Z</time>
      </trkpt>
      <trkpt lat="46.94418" lon="-0.87752">
        <ele>146.9</ele>
        <time>2021-11-24T10:12:45Z</time>
      </trkpt>
      <trkpt lat="46.94427" lon="-0.87751">
        <ele>148</ele>
        <time>2021-11-24T10:12:51Z</time>
      </trkpt>
      <trkpt lat="46.94436" lon="-0.87762">
        <ele>148.4</ele>
        <time>2021-11-24T10:12:57Z</time>
      </trkpt>
      <trkpt lat="46.94434" lon="-0.8777">
        <ele>147.6</ele>
        <time>2021-11-24T10:13:02Z</time>
      </trkpt>
      <trkpt lat="46.94431" lon="-0.87778">
        <ele>146.6</ele>
        <time>2021-11-24T10:13:07Z</time>
      </trkpt>
      <trkpt lat="46.94427" lon="-0.87786">
        <ele>145.9</ele>
        <time>2021-11-24T10:13:13Z</time>
      </trkpt>
      <trkpt lat="46.94427" lon="-0.87787">
        <ele>145.9</ele>
        <time>2021-11-24T10:13:19Z</time>
      </trkpt>
      <trkpt lat="46.94425" lon="-0.87789">
        <ele>145.5</ele>
        <time>2021-11-24T10:13:24Z</time>
      </trkpt>
      <trkpt lat="46.94421" lon="-0.87797">
        <ele>144.8</ele>
        <time>2021-11-24T10:13:30Z</time>
      </trkpt>
      <trkpt lat="46.94421" lon="-0.87806">
        <ele>144.8</ele>
        <time>2021-11-24T10:13:35Z</time>
      </trkpt>
      <trkpt lat="46.94425" lon="-0.87813">
        <ele>145.4</ele>
        <time>2021-11-24T10:13:41Z</time>
      </trkpt>
      <trkpt lat="46.94431" lon="-0.87817">
        <ele>146.4</ele>
        <time>2021-11-24T10:13:47Z</time>
      </trkpt>
      <trkpt lat="46.94438" lon="-0.87818">
        <ele>147.5</ele>
        <time>2021-11-24T10:13:52Z</time>
      </trkpt>
      <trkpt lat="46.94443" lon="-0.87821">
        <ele>148.2</ele>
        <time>2021-11-24T10:13:57Z</time>
      </trkpt>
      <trkpt lat="46.94451" lon="-0.87826">
        <ele>149.4</ele>
        <time>2021-11-24T10:14:03Z</time>
      </trkpt>
      <trkpt lat="46.94457" lon="-0.8783">
        <ele>150.4</ele>
        <time>2021-11-24T10:14:09Z</time>
      </trkpt>
      <trkpt lat="46.94462" lon="-0.87836">
        <ele>150.9</ele>
        <time>2021-11-24T10:14:14Z</time>
      </trkpt>
      <trkpt lat="46.94469" lon="-0.87841">
        <ele>151.7</ele>
        <time>2021-11-24T10:14:20Z</time>
      </trkpt>
      <trkpt lat="46.94473" lon="-0.87845">
        <ele>151.8</ele>
        <time>2021-11-24T10:14:25Z</time>
      </trkpt>
      <trkpt lat="46.94478" lon="-0.87852">
        <ele>151.5</ele>
        <time>2021-11-24T10:14:30Z</time>
      </trkpt>
      <trkpt lat="46.94483" lon="-0.87864">
        <ele>151</ele>
        <time>2021-11-24T10:14:36Z</time>
      </trkpt>
      <trkpt lat="46.94489" lon="-0.87872">
        <ele>151</ele>
        <time>2021-11-24T10:14:42Z</time>
      </trkpt>
      <trkpt lat="46.94494" lon="-0.87879">
        <ele>151.1</ele>
        <time>2021-11-24T10:14:48Z</time>
      </trkpt>
      <trkpt lat="46.94501" lon="-0.87881">
        <ele>151.6</ele>
        <time>2021-11-24T10:14:53Z</time>
      </trkpt>
      <trkpt lat="46.94508" lon="-0.87885">
        <ele>151.6</ele>
        <time>2021-11-24T10:14:58Z</time>
      </trkpt>
      <trkpt lat="46.94514" lon="-0.8789">
        <ele>151.4</ele>
        <time>2021-11-24T10:15:04Z</time>
      </trkpt>
      <trkpt lat="46.94519" lon="-0.87887">
        <ele>151.8</ele>
        <time>2021-11-24T10:15:09Z</time>
      </trkpt>
      <trkpt lat="46.9452" lon="-0.87895">
        <ele>151.2</ele>
        <time>2021-11-24T10:15:15Z</time>
      </trkpt>
      <trkpt lat="46.94518" lon="-0.87905">
        <ele>150.3</ele>
        <time>2021-11-24T10:15:20Z</time>
      </trkpt>
      <trkpt lat="46.94517" lon="-0.87915">
        <ele>149.4</ele>
        <time>2021-11-24T10:15:26Z</time>
      </trkpt>
      <trkpt lat="46.94512" lon="-0.87917">
        <ele>148.8</ele>
        <time>2021-11-24T10:15:31Z</time>
      </trkpt>
      <trkpt lat="46.94507" lon="-0.87923">
        <ele>148</ele>
        <time>2021-11-24T10:15:37Z</time>
      </trkpt>
      <trkpt lat="46.9451" lon="-0.87932">
        <ele>147.6</ele>
        <time>2021-11-24T10:15:43Z</time>
      </trkpt>
      <trkpt lat="46.94507" lon="-0.87938">
        <ele>147</ele>
        <time>2021-11-24T10:15:48Z</time>
      </trkpt>
      <trkpt lat="46.94503" lon="-0.87944">
        <ele>146.2</ele>
        <time>2021-11-24T10:15:53Z</time>
      </trkpt>
      <trkpt lat="46.94503" lon="-0.87952">
        <ele>145.7</ele>
        <time>2021-11-24T10:15:59Z</time>
      </trkpt>
      <trkpt lat="46.94505" lon="-0.87955">
        <ele>145.6</ele>
        <time>2021-11-24T10:16:05Z</time>
      </trkpt>
      <trkpt lat="46.94508" lon="-0.87961">
        <ele>145.4</ele>
        <time>2021-11-24T10:16:10Z</time>
      </trkpt>
      <trkpt lat="46.94513" lon="-0.87966">
        <ele>145.4</ele>
        <time>2021-11-24T10:16:16Z</time>
      </trkpt>
      <trkpt lat="46.9452" lon="-0.87971">
        <ele>145.5</ele>
        <time>2021-11-24T10:16:22Z</time>
      </trkpt>
      <trkpt lat="46.94526" lon="-0.87978">
        <ele>145.3</ele>
        <time>2021-11-24T10:16:28Z</time>
      </trkpt>
      <trkpt lat="46.94531" lon="-0.87978">
        <ele>145.2</ele>
        <time>2021-11-24T10:16:33Z</time>
      </trkpt>
      <trkpt lat="46.94535" lon="-0.87984">
        <ele>144.4</ele>
        <time>2021-11-24T10:16:39Z</time>
      </trkpt>
      <trkpt lat="46.94541" lon="-0.87988">
        <ele>143.5</ele>
        <time>2021-11-24T10:16:44Z</time>
      </trkpt>
      <trkpt lat="46.94544" lon="-0.87994">
        <ele>142.6</ele>
        <time>2021-11-24T10:16:49Z</time>
      </trkpt>
      <trkpt lat="46.94549" lon="-0.87997">
        <ele>141.9</ele>
        <time>2021-11-24T10:16:55Z</time>
      </trkpt>
      <trkpt lat="46.94555" lon="-0.88002">
        <ele>140.6</ele>
        <time>2021-11-24T10:17:01Z</time>
      </trkpt>
      <trkpt lat="46.94553" lon="-0.8801">
        <ele>139.1</ele>
        <time>2021-11-24T10:17:07Z</time>
      </trkpt>
      <trkpt lat="46.9455" lon="-0.88017">
        <ele>137.9</ele>
        <time>2021-11-24T10:17:13Z</time>
      </trkpt>
      <trkpt lat="46.94545" lon="-0.88022">
        <ele>137.3</ele>
        <time>2021-11-24T10:17:19Z</time>
      </trkpt>
      <trkpt lat="46.94539" lon="-0.88026">
        <ele>137.1</ele>
        <time>2021-11-24T10:17:25Z</time>
      </trkpt>
      <trkpt lat="46.94533" lon="-0.88033">
        <ele>135.9</ele>
        <time>2021-11-24T10:17:31Z</time>
      </trkpt>
      <trkpt lat="46.94524" lon="-0.88038">
        <ele>135.1</ele>
        <time>2021-11-24T10:17:37Z</time>
      </trkpt>
      <trkpt lat="46.94515" lon="-0.88038">
        <ele>135.2</ele>
        <time>2021-11-24T10:17:43Z</time>
      </trkpt>
      <trkpt lat="46.94509" lon="-0.88039">
        <ele>135</ele>
        <time>2021-11-24T10:17:48Z</time>
      </trkpt>
      <trkpt lat="46.94501" lon="-0.88042">
        <ele>134.4</ele>
        <time>2021-11-24T10:17:54Z</time>
      </trkpt>
      <trkpt lat="46.94494" lon="-0.8804">
        <ele>134.2</ele>
        <time>2021-11-24T10:18:00Z</time>
      </trkpt>
      <trkpt lat="46.9449" lon="-0.88041">
        <ele>133.6</ele>
        <time>2021-11-24T10:18:05Z</time>
      </trkpt>
      <trkpt lat="46.94482" lon="-0.88045">
        <ele>131.9</ele>
        <time>2021-11-24T10:18:11Z</time>
      </trkpt>
      <trkpt lat="46.94479" lon="-0.8805">
        <ele>130.6</ele>
        <time>2021-11-24T10:18:16Z</time>
      </trkpt>
      <trkpt lat="46.9448" lon="-0.88057">
        <ele>129.3</ele>
        <time>2021-11-24T10:18:22Z</time>
      </trkpt>
      <trkpt lat="46.94484" lon="-0.88061">
        <ele>128.6</ele>
        <time>2021-11-24T10:18:27Z</time>
      </trkpt>
      <trkpt lat="46.9449" lon="-0.88063">
        <ele>128.4</ele>
        <time>2021-11-24T10:18:33Z</time>
      </trkpt>
      <trkpt lat="46.94495" lon="-0.88065">
        <ele>128.1</ele>
        <time>2021-11-24T10:18:39Z</time>
      </trkpt>
      <trkpt lat="46.94499" lon="-0.88072">
        <ele>126.3</ele>
        <time>2021-11-24T10:18:45Z</time>
      </trkpt>
      <trkpt lat="46.94494" lon="-0.88075">
        <ele>125.4</ele>
        <time>2021-11-24T10:18:51Z</time>
      </trkpt>
      <trkpt lat="46.94486" lon="-0.88079">
        <ele>124.5</ele>
        <time>2021-11-24T10:18:57Z</time>
      </trkpt>
      <trkpt lat="46.9448" lon="-0.88077">
        <ele>125.1</ele>
        <time>2021-11-24T10:19:02Z</time>
      </trkpt>
      <trkpt lat="46.94476" lon="-0.88074">
        <ele>125.7</ele>
        <time>2021-11-24T10:19:07Z</time>
      </trkpt>
      <trkpt lat="46.94471" lon="-0.88066">
        <ele>127</ele>
        <time>2021-11-24T10:19:12Z</time>
      </trkpt>
      <trkpt lat="46.94466" lon="-0.88063">
        <ele>127</ele>
        <time>2021-11-24T10:19:17Z</time>
      </trkpt>
      <trkpt lat="46.94459" lon="-0.88064">
        <ele>126.2</ele>
        <time>2021-11-24T10:19:22Z</time>
      </trkpt>
      <trkpt lat="46.94453" lon="-0.88063">
        <ele>125.8</ele>
        <time>2021-11-24T10:19:28Z</time>
      </trkpt>
      <trkpt lat="46.94447" lon="-0.88058">
        <ele>125.9</ele>
        <time>2021-11-24T10:19:34Z</time>
      </trkpt>
      <trkpt lat="46.94444" lon="-0.8805">
        <ele>126.7</ele>
        <time>2021-11-24T10:19:39Z</time>
      </trkpt>
      <trkpt lat="46.94438" lon="-0.88044">
        <ele>126.8</ele>
        <time>2021-11-24T10:19:45Z</time>
      </trkpt>
      <trkpt lat="46.94436" lon="-0.88032">
        <ele>128.4</ele>
        <time>2021-11-24T10:19:50Z</time>
      </trkpt>
      <trkpt lat="46.94438" lon="-0.88021">
        <ele>130.1</ele>
        <time>2021-11-24T10:19:56Z</time>
      </trkpt>
      <trkpt lat="46.94438" lon="-0.88013">
        <ele>131.1</ele>
        <time>2021-11-24T10:20:01Z</time>
      </trkpt>
      <trkpt lat="46.94432" lon="-0.8801">
        <ele>131.1</ele>
        <time>2021-11-24T10:20:07Z</time>
      </trkpt>
      <trkpt lat="46.94427" lon="-0.88014">
        <ele>130.2</ele>
        <time>2021-11-24T10:20:13Z</time>
      </trkpt>
      <trkpt lat="46.94424" lon="-0.88017">
        <ele>129.5</ele>
        <time>2021-11-24T10:20:19Z</time>
      </trkpt>
      <trkpt lat="46.94424" lon="-0.88018">
        <ele>129.4</ele>
        <time>2021-11-24T10:20:24Z</time>
      </trkpt>
      <trkpt lat="46.94422" lon="-0.88017">
        <ele>129.4</ele>
        <time>2021-11-24T10:20:30Z</time>
      </trkpt>
      <trkpt lat="46.94417" lon="-0.88024">
        <ele>127.7</ele>
        <time>2021-11-24T10:20:36Z</time>
      </trkpt>
      <trkpt lat="46.94416" lon="-0.88028">
        <ele>126.9</ele>
        <time>2021-11-24T10:20:42Z</time>
      </trkpt>
      <trkpt lat="46.9441" lon="-0.88029">
        <ele>125.8</ele>
        <time>2021-11-24T10:20:48Z</time>
      </trkpt>
      <trkpt lat="46.94411" lon="-0.88033">
        <ele>125.3</ele>
        <time>2021-11-24T10:20:54Z</time>
      </trkpt>
      <trkpt lat="46.94414" lon="-0.88043">
        <ele>123.9</ele>
        <time>2021-11-24T10:20:59Z</time>
      </trkpt>
      <trkpt lat="46.94419" lon="-0.88051">
        <ele>123.1</ele>
        <time>2021-11-24T10:21:04Z</time>
      </trkpt>
      <trkpt lat="46.94424" lon="-0.88058">
        <ele>122.8</ele>
        <time>2021-11-24T10:21:10Z</time>
      </trkpt>
      <trkpt lat="46.94425" lon="-0.88065">
        <ele>122.1</ele>
        <time>2021-11-24T10:21:15Z</time>
      </trkpt>
      <trkpt lat="46.94425" lon="-0.88067">
        <ele>121.8</ele>
        <time>2021-11-24T10:21:20Z</time>
      </trkpt>
      <trkpt lat="46.94428" lon="-0.88071">
        <ele>121.7</ele>
        <time>2021-11-24T10:21:26Z</time>
      </trkpt>
      <trkpt lat="46.94433" lon="-0.88078">
        <ele>121.5</ele>
        <time>2021-11-24T10:21:31Z</time>
      </trkpt>
      <trkpt lat="46.9444" lon="-0.88081">
        <ele>121.8</ele>
        <time>2021-11-24T10:21:37Z</time>
      </trkpt>
      <trkpt lat="46.94445" lon="-0.88086">
        <ele>121.7</ele>
        <time>2021-11-24T10:21:43Z</time>
      </trkpt>
      <trkpt lat="46.94444" lon="-0.88086">
        <ele>121.7</ele>
        <time>2021-11-24T10:21:48Z</time>
      </trkpt>
      <trkpt lat="46.94444" lon="-0.88086">
        <ele>121.7</ele>
        <time>2021-11-24T10:21:54Z</time>
      </trkpt>
      <trkpt lat="46.94452" lon="-0.8809">
        <ele>121.7</ele>
        <time>2021-11-24T10:22:00Z</time>
      </trkpt>
      <trkpt lat="46.94461" lon="-0.88093">
        <ele>121.7</ele>
        <time>2021-11-24T10:22:05Z</time>
      </trkpt>
      <trkpt lat="46.94467" lon="-0.8809">
        <ele>122.5</ele>
        <time>2021-11-24T10:22:11Z</time>
      </trkpt>
      <trkpt lat="46.94472" lon="-0.88092">
        <ele>122.4</ele>
        <time>2021-11-24T10:22:16Z</time>
      </trkpt>
      <trkpt lat="46.94478" lon="-0.88094">
        <ele>121.9</ele>
        <time>2021-11-24T10:22:21Z</time>
      </trkpt>
      <trkpt lat="46.94484" lon="-0.88091">
        <ele>122.2</ele>
        <time>2021-11-24T10:22:26Z</time>
      </trkpt>
      <trkpt lat="46.94491" lon="-0.8809">
        <ele>122.1</ele>
        <time>2021-11-24T10:22:32Z</time>
      </trkpt>
      <trkpt lat="46.94495" lon="-0.88089">
        <ele>122.2</ele>
        <time>2021-11-24T10:22:37Z</time>
      </trkpt>
      <trkpt lat="46.945" lon="-0.88088">
        <ele>122.2</ele>
        <time>2021-11-24T10:22:42Z</time>
      </trkpt>
      <trkpt lat="46.94505" lon="-0.88087">
        <ele>122</ele>
        <time>2021-11-24T10:22:47Z</time>
      </trkpt>
      <trkpt lat="46.94512" lon="-0.88091">
        <ele>120.8</ele>
        <time>2021-11-24T10:22:53Z</time>
      </trkpt>
      <trkpt lat="46.94521" lon="-0.88092">
        <ele>119.9</ele>
        <time>2021-11-24T10:22:59Z</time>
      </trkpt>
      <trkpt lat="46.94525" lon="-0.88098">
        <ele>118.6</ele>
        <time>2021-11-24T10:23:04Z</time>
      </trkpt>
      <trkpt lat="46.9452" lon="-0.88104">
        <ele>117.8</ele>
        <time>2021-11-24T10:23:10Z</time>
      </trkpt>
      <trkpt lat="46.94512" lon="-0.8811">
        <ele>117.3</ele>
        <time>2021-11-24T10:23:16Z</time>
      </trkpt>
      <trkpt lat="46.94508" lon="-0.88118">
        <ele>117.1</ele>
        <time>2021-11-24T10:23:21Z</time>
      </trkpt>
      <trkpt lat="46.94502" lon="-0.88121">
        <ele>117.2</ele>
        <time>2021-11-24T10:23:27Z</time>
      </trkpt>
      <trkpt lat="46.945" lon="-0.88123">
        <ele>117.1</ele>
        <time>2021-11-24T10:23:32Z</time>
      </trkpt>
      <trkpt lat="46.945" lon="-0.88125">
        <ele>117</ele>
        <time>2021-11-24T10:23:37Z</time>
      </trkpt>
      <trkpt lat="46.945" lon="-0.88123">
        <ele>117.1</ele>
        <time>2021-11-24T10:23:43Z</time>
      </trkpt>
      <trkpt lat="46.945" lon="-0.8812">
        <ele>117.4</ele>
        <time>2021-11-24T10:23:48Z</time>
      </trkpt>
      <trkpt lat="46.945" lon="-0.8812">
        <ele>117.4</ele>
        <time>2021-11-24T10:23:54Z</time>
      </trkpt>
      <trkpt lat="46.94498" lon="-0.8812">
        <ele>117.4</ele>
        <time>2021-11-24T10:24:00Z</time>
      </trkpt>
      <trkpt lat="46.94499" lon="-0.8812">
        <ele>117.4</ele>
        <time>2021-11-24T10:24:05Z</time>
      </trkpt>
      <trkpt lat="46.94499" lon="-0.8812">
        <ele>117.4</ele>
        <time>2021-11-24T10:24:11Z</time>
      </trkpt>
      <trkpt lat="46.94499" lon="-0.8812">
        <ele>117.4</ele>
        <time>2021-11-24T10:24:17Z</time>
      </trkpt>
      <trkpt lat="46.94499" lon="-0.8812">
        <ele>117.4</ele>
        <time>2021-11-24T10:24:22Z</time>
      </trkpt>
      <trkpt lat="46.94499" lon="-0.8812">
        <ele>117.4</ele>
        <time>2021-11-24T10:24:28Z</time>
      </trkpt>
      <trkpt lat="46.94499" lon="-0.8812">
        <ele>117.4</ele>
        <time>2021-11-24T10:24:34Z</time>
      </trkpt>
      <trkpt lat="46.945" lon="-0.88119">
        <ele>117.4</ele>
        <time>2021-11-24T10:24:40Z</time>
      </trkpt>
      <trkpt lat="46.945" lon="-0.88119">
        <ele>117.4</ele>
        <time>2021-11-24T10:24:46Z</time>
      </trkpt>
      <trkpt lat="46.945" lon="-0.88119">
        <ele>117.4</ele>
        <time>2021-11-24T10:24:51Z</time>
      </trkpt>
      <trkpt lat="46.945" lon="-0.88119">
        <ele>117.4</ele>
        <time>2021-11-24T10:24:57Z</time>
      </trkpt>
      <trkpt lat="46.945" lon="-0.8812">
        <ele>117.4</ele>
        <time>2021-11-24T10:25:02Z</time>
      </trkpt>
      <trkpt lat="46.945" lon="-0.8812">
        <ele>117.4</ele>
        <time>2021-11-24T10:25:08Z</time>
      </trkpt>
      <trkpt lat="46.94499" lon="-0.8812">
        <ele>117.4</ele>
        <time>2021-11-24T10:25:14Z</time>
      </trkpt>
      <trkpt lat="46.94499" lon="-0.8812">
        <ele>117.4</ele>
        <time>2021-11-24T10:25:20Z</time>
      </trkpt>
      <trkpt lat="46.94499" lon="-0.8812">
        <ele>117.4</ele>
        <time>2021-11-24T10:25:25Z</time>
      </trkpt>
      <trkpt lat="46.94499" lon="-0.8812">
        <ele>117.4</ele>
        <time>2021-11-24T10:25:31Z</time>
      </trkpt>
      <trkpt lat="46.94499" lon="-0.8812">
        <ele>117.4</ele>
        <time>2021-11-24T10:25:37Z</time>
      </trkpt>
      <trkpt lat="46.94499" lon="-0.88122">
        <ele>117.2</ele>
        <time>2021-11-24T10:25:43Z</time>
      </trkpt>
      <trkpt lat="46.94499" lon="-0.88121">
        <ele>117.3</ele>
        <time>2021-11-24T10:25:49Z</time>
      </trkpt>
      <trkpt lat="46.94498" lon="-0.88121">
        <ele>117.3</ele>
        <time>2021-11-24T10:25:55Z</time>
      </trkpt>
      <trkpt lat="46.94498" lon="-0.88121">
        <ele>117.3</ele>
        <time>2021-11-24T10:26:01Z</time>
      </trkpt>
      <trkpt lat="46.94498" lon="-0.88121">
        <ele>117.3</ele>
        <time>2021-11-24T10:26:06Z</time>
      </trkpt>
      <trkpt lat="46.94497" lon="-0.88122">
        <ele>117.3</ele>
        <time>2021-11-24T10:26:12Z</time>
      </trkpt>
      <trkpt lat="46.94497" lon="-0.88122">
        <ele>117.3</ele>
        <time>2021-11-24T10:26:18Z</time>
      </trkpt>
      <trkpt lat="46.94497" lon="-0.88122">
        <ele>117.3</ele>
        <time>2021-11-24T10:26:24Z</time>
      </trkpt>
      <trkpt lat="46.94497" lon="-0.88122">
        <ele>117.3</ele>
        <time>2021-11-24T10:26:29Z</time>
      </trkpt>
      <trkpt lat="46.94497" lon="-0.88122">
        <ele>117.3</ele>
        <time>2021-11-24T10:26:34Z</time>
      </trkpt>
      <trkpt lat="46.94497" lon="-0.88122">
        <ele>117.3</ele>
        <time>2021-11-24T10:26:40Z</time>
      </trkpt>
      <trkpt lat="46.94497" lon="-0.88122">
        <ele>117.3</ele>
        <time>2021-11-24T10:26:46Z</time>
      </trkpt>
      <trkpt lat="46.94497" lon="-0.88122">
        <ele>117.3</ele>
        <time>2021-11-24T10:26:52Z</time>
      </trkpt>
      <trkpt lat="46.94497" lon="-0.88123">
        <ele>117.2</ele>
        <time>2021-11-24T10:26:57Z</time>
      </trkpt>
      <trkpt lat="46.94497" lon="-0.88123">
        <ele>117.2</ele>
        <time>2021-11-24T10:27:03Z</time>
      </trkpt>
      <trkpt lat="46.94497" lon="-0.88123">
        <ele>117.2</ele>
        <time>2021-11-24T10:27:08Z</time>
      </trkpt>
      <trkpt lat="46.94499" lon="-0.88123">
        <ele>117.2</ele>
        <time>2021-11-24T10:27:14Z</time>
      </trkpt>
      <trkpt lat="46.94499" lon="-0.88125">
        <ele>117</ele>
        <time>2021-11-24T10:27:20Z</time>
      </trkpt>
      <trkpt lat="46.94498" lon="-0.88125">
        <ele>117</ele>
        <time>2021-11-24T10:27:25Z</time>
      </trkpt>
      <trkpt lat="46.94498" lon="-0.88124">
        <ele>117.1</ele>
        <time>2021-11-24T10:27:31Z</time>
      </trkpt>
      <trkpt lat="46.94497" lon="-0.88124">
        <ele>117.1</ele>
        <time>2021-11-24T10:27:37Z</time>
      </trkpt>
      <trkpt lat="46.94497" lon="-0.88124">
        <ele>117.1</ele>
        <time>2021-11-24T10:27:42Z</time>
      </trkpt>
      <trkpt lat="46.94496" lon="-0.88123">
        <ele>117.2</ele>
        <time>2021-11-24T10:27:47Z</time>
      </trkpt>
      <trkpt lat="46.94496" lon="-0.88121">
        <ele>117.4</ele>
        <time>2021-11-24T10:27:53Z</time>
      </trkpt>
      <trkpt lat="46.94495" lon="-0.88121">
        <ele>117.4</ele>
        <time>2021-11-24T10:27:59Z</time>
      </trkpt>
      <trkpt lat="46.94495" lon="-0.88121">
        <ele>117.4</ele>
        <time>2021-11-24T10:28:05Z</time>
      </trkpt>
      <trkpt lat="46.94495" lon="-0.88121">
        <ele>117.4</ele>
        <time>2021-11-24T10:28:10Z</time>
      </trkpt>
      <trkpt lat="46.94495" lon="-0.88121">
        <ele>117.4</ele>
        <time>2021-11-24T10:28:15Z</time>
      </trkpt>
      <trkpt lat="46.94495" lon="-0.88122">
        <ele>117.3</ele>
        <time>2021-11-24T10:28:20Z</time>
      </trkpt>
      <trkpt lat="46.94494" lon="-0.88122">
        <ele>117.3</ele>
        <time>2021-11-24T10:28:25Z</time>
      </trkpt>
      <trkpt lat="46.94494" lon="-0.88121">
        <ele>117.4</ele>
        <time>2021-11-24T10:28:31Z</time>
      </trkpt>
      <trkpt lat="46.94494" lon="-0.8812">
        <ele>117.5</ele>
        <time>2021-11-24T10:28:36Z</time>
      </trkpt>
      <trkpt lat="46.94494" lon="-0.8812">
        <ele>117.5</ele>
        <time>2021-11-24T10:28:42Z</time>
      </trkpt>
      <trkpt lat="46.94494" lon="-0.88118">
        <ele>117.7</ele>
        <time>2021-11-24T10:28:47Z</time>
      </trkpt>
      <trkpt lat="46.94495" lon="-0.88117">
        <ele>117.7</ele>
        <time>2021-11-24T10:28:53Z</time>
      </trkpt>
      <trkpt lat="46.94495" lon="-0.88116">
        <ele>117.8</ele>
        <time>2021-11-24T10:28:58Z</time>
      </trkpt>
      <trkpt lat="46.94496" lon="-0.88116">
        <ele>117.8</ele>
        <time>2021-11-24T10:29:03Z</time>
      </trkpt>
      <trkpt lat="46.94496" lon="-0.88116">
        <ele>117.8</ele>
        <time>2021-11-24T10:29:09Z</time>
      </trkpt>
      <trkpt lat="46.94497" lon="-0.8812">
        <ele>117.4</ele>
        <time>2021-11-24T10:29:15Z</time>
      </trkpt>
      <trkpt lat="46.94496" lon="-0.88121">
        <ele>117.4</ele>
        <time>2021-11-24T10:29:20Z</time>
      </trkpt>
      <trkpt lat="46.94497" lon="-0.88125">
        <ele>117.1</ele>
        <time>2021-11-24T10:29:26Z</time>
      </trkpt>
      <trkpt lat="46.94493" lon="-0.88133">
        <ele>116.5</ele>
        <time>2021-11-24T10:29:32Z</time>
      </trkpt>
      <trkpt lat="46.94488" lon="-0.88137">
        <ele>116.2</ele>
        <time>2021-11-24T10:29:38Z</time>
      </trkpt>
      <trkpt lat="46.94482" lon="-0.88138">
        <ele>116.1</ele>
        <time>2021-11-24T10:29:44Z</time>
      </trkpt>
      <trkpt lat="46.94479" lon="-0.88138">
        <ele>116.1</ele>
        <time>2021-11-24T10:29:50Z</time>
      </trkpt>
      <trkpt lat="46.94478" lon="-0.88142">
        <ele>116</ele>
        <time>2021-11-24T10:29:55Z</time>
      </trkpt>
      <trkpt lat="46.94478" lon="-0.88146">
        <ele>116</ele>
        <time>2021-11-24T10:30:01Z</time>
      </trkpt>
      <trkpt lat="46.94477" lon="-0.88149">
        <ele>116</ele>
        <time>2021-11-24T10:30:07Z</time>
      </trkpt>
      <trkpt lat="46.94475" lon="-0.88155">
        <ele>116</ele>
        <time>2021-11-24T10:30:12Z</time>
      </trkpt>
      <trkpt lat="46.94473" lon="-0.88162">
        <ele>116</ele>
        <time>2021-11-24T10:30:17Z</time>
      </trkpt>
      <trkpt lat="46.94466" lon="-0.88167">
        <ele>116</ele>
        <time>2021-11-24T10:30:23Z</time>
      </trkpt>
      <trkpt lat="46.94461" lon="-0.88171">
        <ele>116.2</ele>
        <time>2021-11-24T10:30:28Z</time>
      </trkpt>
      <trkpt lat="46.94455" lon="-0.88174">
        <ele>116.4</ele>
        <time>2021-11-24T10:30:33Z</time>
      </trkpt>
      <trkpt lat="46.94452" lon="-0.88178">
        <ele>116.7</ele>
        <time>2021-11-24T10:30:38Z</time>
      </trkpt>
      <trkpt lat="46.94448" lon="-0.88175">
        <ele>116.6</ele>
        <time>2021-11-24T10:30:44Z</time>
      </trkpt>
      <trkpt lat="46.94448" lon="-0.88175">
        <ele>116.6</ele>
        <time>2021-11-24T10:30:49Z</time>
      </trkpt>
      <trkpt lat="46.94449" lon="-0.88174">
        <ele>116.5</ele>
        <time>2021-11-24T10:30:55Z</time>
      </trkpt>
      <trkpt lat="46.94449" lon="-0.88173">
        <ele>116.4</ele>
        <time>2021-11-24T10:31:01Z</time>
      </trkpt>
      <trkpt lat="46.94449" lon="-0.88173">
        <ele>116.4</ele>
        <time>2021-11-24T10:31:07Z</time>
      </trkpt>
      <trkpt lat="46.94448" lon="-0.88173">
        <ele>116.4</ele>
        <time>2021-11-24T10:31:13Z</time>
      </trkpt>
      <trkpt lat="46.94448" lon="-0.88172">
        <ele>116.4</ele>
        <time>2021-11-24T10:31:19Z</time>
      </trkpt>
      <trkpt lat="46.94448" lon="-0.88172">
        <ele>116.4</ele>
        <time>2021-11-24T10:31:24Z</time>
      </trkpt>
      <trkpt lat="46.94447" lon="-0.88172">
        <ele>116.4</ele>
        <time>2021-11-24T10:31:30Z</time>
      </trkpt>
      <trkpt lat="46.94447" lon="-0.88172">
        <ele>116.4</ele>
        <time>2021-11-24T10:31:35Z</time>
      </trkpt>
      <trkpt lat="46.94444" lon="-0.88173">
        <ele>116.5</ele>
        <time>2021-11-24T10:31:41Z</time>
      </trkpt>
      <trkpt lat="46.94438" lon="-0.88175">
        <ele>116.8</ele>
        <time>2021-11-24T10:31:46Z</time>
      </trkpt>
      <trkpt lat="46.94431" lon="-0.88173">
        <ele>116.8</ele>
        <time>2021-11-24T10:31:52Z</time>
      </trkpt>
      <trkpt lat="46.94425" lon="-0.88171">
        <ele>116.9</ele>
        <time>2021-11-24T10:31:58Z</time>
      </trkpt>
      <trkpt lat="46.94419" lon="-0.88168">
        <ele>117</ele>
        <time>2021-11-24T10:32:03Z</time>
      </trkpt>
      <trkpt lat="46.94416" lon="-0.88164">
        <ele>117</ele>
        <time>2021-11-24T10:32:08Z</time>
      </trkpt>
      <trkpt lat="46.94412" lon="-0.88159">
        <ele>117.2</ele>
        <time>2021-11-24T10:32:14Z</time>
      </trkpt>
      <trkpt lat="46.94408" lon="-0.88151">
        <ele>117.3</ele>
        <time>2021-11-24T10:32:20Z</time>
      </trkpt>
      <trkpt lat="46.94402" lon="-0.88143">
        <ele>117.5</ele>
        <time>2021-11-24T10:32:26Z</time>
      </trkpt>
      <trkpt lat="46.94398" lon="-0.88136">
        <ele>117.6</ele>
        <time>2021-11-24T10:32:31Z</time>
      </trkpt>
      <trkpt lat="46.94394" lon="-0.88127">
        <ele>117.5</ele>
        <time>2021-11-24T10:32:36Z</time>
      </trkpt>
      <trkpt lat="46.94391" lon="-0.88117">
        <ele>117.3</ele>
        <time>2021-11-24T10:32:41Z</time>
      </trkpt>
      <trkpt lat="46.94394" lon="-0.88106">
        <ele>117.2</ele>
        <time>2021-11-24T10:32:47Z</time>
      </trkpt>
      <trkpt lat="46.94393" lon="-0.88098">
        <ele>117.2</ele>
        <time>2021-11-24T10:32:52Z</time>
      </trkpt>
      <trkpt lat="46.94391" lon="-0.88093">
        <ele>117.1</ele>
        <time>2021-11-24T10:32:58Z</time>
      </trkpt>
      <trkpt lat="46.94387" lon="-0.88085">
        <ele>117.1</ele>
        <time>2021-11-24T10:33:03Z</time>
      </trkpt>
      <trkpt lat="46.94386" lon="-0.88076">
        <ele>117.6</ele>
        <time>2021-11-24T10:33:08Z</time>
      </trkpt>
      <trkpt lat="46.94385" lon="-0.88066">
        <ele>118.2</ele>
        <time>2021-11-24T10:33:14Z</time>
      </trkpt>
      <trkpt lat="46.94383" lon="-0.88057">
        <ele>118.7</ele>
        <time>2021-11-24T10:33:20Z</time>
      </trkpt>
      <trkpt lat="46.94378" lon="-0.88052">
        <ele>118.9</ele>
        <time>2021-11-24T10:33:25Z</time>
      </trkpt>
      <trkpt lat="46.94371" lon="-0.88047">
        <ele>118.8</ele>
        <time>2021-11-24T10:33:30Z</time>
      </trkpt>
      <trkpt lat="46.94367" lon="-0.88035">
        <ele>118.8</ele>
        <time>2021-11-24T10:33:36Z</time>
      </trkpt>
      <trkpt lat="46.94364" lon="-0.88025">
        <ele>118.7</ele>
        <time>2021-11-24T10:33:42Z</time>
      </trkpt>
      <trkpt lat="46.94364" lon="-0.88016">
        <ele>119.5</ele>
        <time>2021-11-24T10:33:47Z</time>
      </trkpt>
      <trkpt lat="46.94362" lon="-0.88008">
        <ele>119.6</ele>
        <time>2021-11-24T10:33:53Z</time>
      </trkpt>
      <trkpt lat="46.94358" lon="-0.87996">
        <ele>120.4</ele>
        <time>2021-11-24T10:33:59Z</time>
      </trkpt>
      <trkpt lat="46.94357" lon="-0.87987">
        <ele>121.7</ele>
        <time>2021-11-24T10:34:05Z</time>
      </trkpt>
      <trkpt lat="46.94359" lon="-0.87986">
        <ele>122.2</ele>
        <time>2021-11-24T10:34:11Z</time>
      </trkpt>
      <trkpt lat="46.94355" lon="-0.87995">
        <ele>120.3</ele>
        <time>2021-11-24T10:34:17Z</time>
      </trkpt>
      <trkpt lat="46.94351" lon="-0.88001">
        <ele>119.2</ele>
        <time>2021-11-24T10:34:23Z</time>
      </trkpt>
      <trkpt lat="46.94349" lon="-0.88009">
        <ele>118.9</ele>
        <time>2021-11-24T10:34:28Z</time>
      </trkpt>
      <trkpt lat="46.94347" lon="-0.88015">
        <ele>118.7</ele>
        <time>2021-11-24T10:34:33Z</time>
      </trkpt>
      <trkpt lat="46.94345" lon="-0.88023">
        <ele>118.6</ele>
        <time>2021-11-24T10:34:39Z</time>
      </trkpt>
      <trkpt lat="46.94348" lon="-0.88039">
        <ele>118.5</ele>
        <time>2021-11-24T10:34:44Z</time>
      </trkpt>
      <trkpt lat="46.9435" lon="-0.8805">
        <ele>118.4</ele>
        <time>2021-11-24T10:34:49Z</time>
      </trkpt>
      <trkpt lat="46.94351" lon="-0.88059">
        <ele>118.4</ele>
        <time>2021-11-24T10:34:54Z</time>
      </trkpt>
      <trkpt lat="46.94351" lon="-0.88067">
        <ele>118.4</ele>
        <time>2021-11-24T10:34:59Z</time>
      </trkpt>
      <trkpt lat="46.94353" lon="-0.88074">
        <ele>118.3</ele>
        <time>2021-11-24T10:35:05Z</time>
      </trkpt>
      <trkpt lat="46.94354" lon="-0.88083">
        <ele>118.3</ele>
        <time>2021-11-24T10:35:11Z</time>
      </trkpt>
      <trkpt lat="46.94354" lon="-0.88093">
        <ele>118.3</ele>
        <time>2021-11-24T10:35:17Z</time>
      </trkpt>
      <trkpt lat="46.94351" lon="-0.88099">
        <ele>118.6</ele>
        <time>2021-11-24T10:35:23Z</time>
      </trkpt>
      <trkpt lat="46.94346" lon="-0.88107">
        <ele>119</ele>
        <time>2021-11-24T10:35:29Z</time>
      </trkpt>
      <trkpt lat="46.94342" lon="-0.88113">
        <ele>119.3</ele>
        <time>2021-11-24T10:35:34Z</time>
      </trkpt>
      <trkpt lat="46.94339" lon="-0.88118">
        <ele>119.4</ele>
        <time>2021-11-24T10:35:40Z</time>
      </trkpt>
      <trkpt lat="46.94337" lon="-0.88116">
        <ele>119.6</ele>
        <time>2021-11-24T10:35:46Z</time>
      </trkpt>
      <trkpt lat="46.94335" lon="-0.88117">
        <ele>119.7</ele>
        <time>2021-11-24T10:35:51Z</time>
      </trkpt>
      <trkpt lat="46.94331" lon="-0.88126">
        <ele>119.5</ele>
        <time>2021-11-24T10:35:57Z</time>
      </trkpt>
      <trkpt lat="46.94326" lon="-0.88136">
        <ele>119.5</ele>
        <time>2021-11-24T10:36:02Z</time>
      </trkpt>
      <trkpt lat="46.94324" lon="-0.88148">
        <ele>120.8</ele>
        <time>2021-11-24T10:36:08Z</time>
      </trkpt>
      <trkpt lat="46.94323" lon="-0.88155">
        <ele>121.8</ele>
        <time>2021-11-24T10:36:13Z</time>
      </trkpt>
      <trkpt lat="46.94326" lon="-0.88164">
        <ele>122.3</ele>
        <time>2021-11-24T10:36:19Z</time>
      </trkpt>
      <trkpt lat="46.94331" lon="-0.88173">
        <ele>122.9</ele>
        <time>2021-11-24T10:36:25Z</time>
      </trkpt>
      <trkpt lat="46.94335" lon="-0.88179">
        <ele>123.5</ele>
        <time>2021-11-24T10:36:30Z</time>
      </trkpt>
      <trkpt lat="46.94341" lon="-0.88186">
        <ele>124</ele>
        <time>2021-11-24T10:36:36Z</time>
      </trkpt>
      <trkpt lat="46.94342" lon="-0.88193">
        <ele>125.2</ele>
        <time>2021-11-24T10:36:41Z</time>
      </trkpt>
      <trkpt lat="46.94346" lon="-0.882">
        <ele>125.8</ele>
        <time>2021-11-24T10:36:47Z</time>
      </trkpt>
      <trkpt lat="46.94348" lon="-0.88206">
        <ele>126.6</ele>
        <time>2021-11-24T10:36:52Z</time>
      </trkpt>
      <trkpt lat="46.94355" lon="-0.8821">
        <ele>125.7</ele>
        <time>2021-11-24T10:36:57Z</time>
      </trkpt>
      <trkpt lat="46.94357" lon="-0.88217">
        <ele>126.3</ele>
        <time>2021-11-24T10:37:03Z</time>
      </trkpt>
      <trkpt lat="46.94358" lon="-0.88225">
        <ele>127.5</ele>
        <time>2021-11-24T10:37:09Z</time>
      </trkpt>
      <trkpt lat="46.94361" lon="-0.88236">
        <ele>129</ele>
        <time>2021-11-24T10:37:15Z</time>
      </trkpt>
      <trkpt lat="46.94364" lon="-0.88242">
        <ele>129.6</ele>
        <time>2021-11-24T10:37:20Z</time>
      </trkpt>
      <trkpt lat="46.94365" lon="-0.88249">
        <ele>130.8</ele>
        <time>2021-11-24T10:37:26Z</time>
      </trkpt>
      <trkpt lat="46.94368" lon="-0.88256">
        <ele>131.9</ele>
        <time>2021-11-24T10:37:31Z</time>
      </trkpt>
      <trkpt lat="46.94371" lon="-0.88265">
        <ele>133.6</ele>
        <time>2021-11-24T10:37:37Z</time>
      </trkpt>
      <trkpt lat="46.94375" lon="-0.88273">
        <ele>134.7</ele>
        <time>2021-11-24T10:37:43Z</time>
      </trkpt>
      <trkpt lat="46.9438" lon="-0.88282">
        <ele>135.9</ele>
        <time>2021-11-24T10:37:49Z</time>
      </trkpt>
      <trkpt lat="46.94384" lon="-0.88288">
        <ele>136.7</ele>
        <time>2021-11-24T10:37:54Z</time>
      </trkpt>
      <trkpt lat="46.94389" lon="-0.88295">
        <ele>137.6</ele>
        <time>2021-11-24T10:38:00Z</time>
      </trkpt>
      <trkpt lat="46.94391" lon="-0.883">
        <ele>138.8</ele>
        <time>2021-11-24T10:38:05Z</time>
      </trkpt>
      <trkpt lat="46.94394" lon="-0.88306">
        <ele>140.2</ele>
        <time>2021-11-24T10:38:10Z</time>
      </trkpt>
      <trkpt lat="46.944" lon="-0.88308">
        <ele>139.7</ele>
        <time>2021-11-24T10:38:16Z</time>
      </trkpt>
      <trkpt lat="46.94404" lon="-0.88311">
        <ele>139.9</ele>
        <time>2021-11-24T10:38:21Z</time>
      </trkpt>
      <trkpt lat="46.94409" lon="-0.88311">
        <ele>139</ele>
        <time>2021-11-24T10:38:26Z</time>
      </trkpt>
      <trkpt lat="46.94416" lon="-0.88313">
        <ele>138.5</ele>
        <time>2021-11-24T10:38:32Z</time>
      </trkpt>
      <trkpt lat="46.94422" lon="-0.88315">
        <ele>138.5</ele>
        <time>2021-11-24T10:38:37Z</time>
      </trkpt>
      <trkpt lat="46.9443" lon="-0.88318">
        <ele>138.8</ele>
        <time>2021-11-24T10:38:43Z</time>
      </trkpt>
      <trkpt lat="46.94437" lon="-0.8832">
        <ele>138.9</ele>
        <time>2021-11-24T10:38:48Z</time>
      </trkpt>
      <trkpt lat="46.94443" lon="-0.88323">
        <ele>139.4</ele>
        <time>2021-11-24T10:38:54Z</time>
      </trkpt>
      <trkpt lat="46.94449" lon="-0.88326">
        <ele>140</ele>
        <time>2021-11-24T10:39:00Z</time>
      </trkpt>
      <trkpt lat="46.94455" lon="-0.88329">
        <ele>140.4</ele>
        <time>2021-11-24T10:39:05Z</time>
      </trkpt>
      <trkpt lat="46.94463" lon="-0.88334">
        <ele>141.1</ele>
        <time>2021-11-24T10:39:11Z</time>
      </trkpt>
      <trkpt lat="46.94469" lon="-0.88336">
        <ele>140.9</ele>
        <time>2021-11-24T10:39:16Z</time>
      </trkpt>
      <trkpt lat="46.94476" lon="-0.88342">
        <ele>141.6</ele>
        <time>2021-11-24T10:39:22Z</time>
      </trkpt>
      <trkpt lat="46.94482" lon="-0.88349">
        <ele>142.5</ele>
        <time>2021-11-24T10:39:28Z</time>
      </trkpt>
      <trkpt lat="46.94484" lon="-0.88352">
        <ele>142.9</ele>
        <time>2021-11-24T10:39:33Z</time>
      </trkpt>
      <trkpt lat="46.9449" lon="-0.88349">
        <ele>141.7</ele>
        <time>2021-11-24T10:39:39Z</time>
      </trkpt>
      <trkpt lat="46.94497" lon="-0.88346">
        <ele>140.5</ele>
        <time>2021-11-24T10:39:45Z</time>
      </trkpt>
      <trkpt lat="46.94504" lon="-0.88345">
        <ele>140</ele>
        <time>2021-11-24T10:39:51Z</time>
      </trkpt>
      <trkpt lat="46.94509" lon="-0.88344">
        <ele>139.6</ele>
        <time>2021-11-24T10:39:56Z</time>
      </trkpt>
      <trkpt lat="46.94517" lon="-0.88344">
        <ele>139.3</ele>
        <time>2021-11-24T10:40:02Z</time>
      </trkpt>
      <trkpt lat="46.94522" lon="-0.88342">
        <ele>138.8</ele>
        <time>2021-11-24T10:40:07Z</time>
      </trkpt>
      <trkpt lat="46.94529" lon="-0.88341">
        <ele>138.4</ele>
        <time>2021-11-24T10:40:12Z</time>
      </trkpt>
      <trkpt lat="46.94534" lon="-0.88338">
        <ele>137.8</ele>
        <time>2021-11-24T10:40:17Z</time>
      </trkpt>
      <trkpt lat="46.94541" lon="-0.88334">
        <ele>137.1</ele>
        <time>2021-11-24T10:40:23Z</time>
      </trkpt>
      <trkpt lat="46.94547" lon="-0.88333">
        <ele>136.9</ele>
        <time>2021-11-24T10:40:28Z</time>
      </trkpt>
      <trkpt lat="46.94551" lon="-0.88329">
        <ele>136.2</ele>
        <time>2021-11-24T10:40:34Z</time>
      </trkpt>
      <trkpt lat="46.94557" lon="-0.88322">
        <ele>135</ele>
        <time>2021-11-24T10:40:40Z</time>
      </trkpt>
      <trkpt lat="46.94564" lon="-0.88313">
        <ele>133.3</ele>
        <time>2021-11-24T10:40:46Z</time>
      </trkpt>
      <trkpt lat="46.94569" lon="-0.88306">
        <ele>132.1</ele>
        <time>2021-11-24T10:40:51Z</time>
      </trkpt>
      <trkpt lat="46.94575" lon="-0.88299">
        <ele>130.8</ele>
        <time>2021-11-24T10:40:57Z</time>
      </trkpt>
      <trkpt lat="46.94581" lon="-0.88292">
        <ele>129.6</ele>
        <time>2021-11-24T10:41:03Z</time>
      </trkpt>
      <trkpt lat="46.94587" lon="-0.88285">
        <ele>128.2</ele>
        <time>2021-11-24T10:41:09Z</time>
      </trkpt>
      <trkpt lat="46.94593" lon="-0.88276">
        <ele>126.4</ele>
        <time>2021-11-24T10:41:15Z</time>
      </trkpt>
      <trkpt lat="46.94596" lon="-0.88267">
        <ele>125</ele>
        <time>2021-11-24T10:41:21Z</time>
      </trkpt>
      <trkpt lat="46.94599" lon="-0.88261">
        <ele>124</ele>
        <time>2021-11-24T10:41:26Z</time>
      </trkpt>
      <trkpt lat="46.94605" lon="-0.88251">
        <ele>122.4</ele>
        <time>2021-11-24T10:41:32Z</time>
      </trkpt>
      <trkpt lat="46.9461" lon="-0.88247">
        <ele>121.8</ele>
        <time>2021-11-24T10:41:37Z</time>
      </trkpt>
      <trkpt lat="46.94616" lon="-0.88244">
        <ele>121.2</ele>
        <time>2021-11-24T10:41:42Z</time>
      </trkpt>
      <trkpt lat="46.94623" lon="-0.88245">
        <ele>120.8</ele>
        <time>2021-11-24T10:41:48Z</time>
      </trkpt>
      <trkpt lat="46.9463" lon="-0.88254">
        <ele>121.2</ele>
        <time>2021-11-24T10:41:54Z</time>
      </trkpt>
      <trkpt lat="46.94638" lon="-0.88258">
        <ele>121.2</ele>
        <time>2021-11-24T10:42:00Z</time>
      </trkpt>
      <trkpt lat="46.94646" lon="-0.88258">
        <ele>121.2</ele>
        <time>2021-11-24T10:42:06Z</time>
      </trkpt>
      <trkpt lat="46.94653" lon="-0.88255">
        <ele>120.7</ele>
        <time>2021-11-24T10:42:12Z</time>
      </trkpt>
      <trkpt lat="46.94663" lon="-0.88253">
        <ele>120.4</ele>
        <time>2021-11-24T10:42:18Z</time>
      </trkpt>
      <trkpt lat="46.9467" lon="-0.88253">
        <ele>120.4</ele>
        <time>2021-11-24T10:42:23Z</time>
      </trkpt>
      <trkpt lat="46.94675" lon="-0.88255">
        <ele>120.7</ele>
        <time>2021-11-24T10:42:28Z</time>
      </trkpt>
      <trkpt lat="46.94682" lon="-0.88253">
        <ele>120.4</ele>
        <time>2021-11-24T10:42:33Z</time>
      </trkpt>
      <trkpt lat="46.9469" lon="-0.88251">
        <ele>120.1</ele>
        <time>2021-11-24T10:42:38Z</time>
      </trkpt>
      <trkpt lat="46.94699" lon="-0.88247">
        <ele>119.7</ele>
        <time>2021-11-24T10:42:44Z</time>
      </trkpt>
      <trkpt lat="46.94706" lon="-0.8824">
        <ele>118.9</ele>
        <time>2021-11-24T10:42:50Z</time>
      </trkpt>
      <trkpt lat="46.94713" lon="-0.88238">
        <ele>118.7</ele>
        <time>2021-11-24T10:42:55Z</time>
      </trkpt>
      <trkpt lat="46.9472" lon="-0.88235">
        <ele>118.4</ele>
        <time>2021-11-24T10:43:01Z</time>
      </trkpt>
      <trkpt lat="46.94728" lon="-0.88233">
        <ele>118.5</ele>
        <time>2021-11-24T10:43:07Z</time>
      </trkpt>
      <trkpt lat="46.94733" lon="-0.8823">
        <ele>118.3</ele>
        <time>2021-11-24T10:43:12Z</time>
      </trkpt>
      <trkpt lat="46.94739" lon="-0.88227">
        <ele>118.2</ele>
        <time>2021-11-24T10:43:17Z</time>
      </trkpt>
      <trkpt lat="46.94746" lon="-0.88222">
        <ele>117.8</ele>
        <time>2021-11-24T10:43:23Z</time>
      </trkpt>
      <trkpt lat="46.94754" lon="-0.8822">
        <ele>118.2</ele>
        <time>2021-11-24T10:43:29Z</time>
      </trkpt>
      <trkpt lat="46.94763" lon="-0.88218">
        <ele>118.6</ele>
        <time>2021-11-24T10:43:35Z</time>
      </trkpt>
      <trkpt lat="46.94769" lon="-0.8822">
        <ele>119.2</ele>
        <time>2021-11-24T10:43:41Z</time>
      </trkpt>
      <trkpt lat="46.94776" lon="-0.88222">
        <ele>119.8</ele>
        <time>2021-11-24T10:43:47Z</time>
      </trkpt>
      <trkpt lat="46.94785" lon="-0.88224">
        <ele>120</ele>
        <time>2021-11-24T10:43:53Z</time>
      </trkpt>
      <trkpt lat="46.94792" lon="-0.88225">
        <ele>119.8</ele>
        <time>2021-11-24T10:43:59Z</time>
      </trkpt>
      <trkpt lat="46.948" lon="-0.88224">
        <ele>119.4</ele>
        <time>2021-11-24T10:44:05Z</time>
      </trkpt>
      <trkpt lat="46.94806" lon="-0.88226">
        <ele>119.3</ele>
        <time>2021-11-24T10:44:10Z</time>
      </trkpt>
      <trkpt lat="46.94814" lon="-0.88229">
        <ele>118.5</ele>
        <time>2021-11-24T10:44:16Z</time>
      </trkpt>
      <trkpt lat="46.9482" lon="-0.88235">
        <ele>118.3</ele>
        <time>2021-11-24T10:44:21Z</time>
      </trkpt>
      <trkpt lat="46.94825" lon="-0.88243">
        <ele>118.4</ele>
        <time>2021-11-24T10:44:27Z</time>
      </trkpt>
      <trkpt lat="46.9483" lon="-0.88249">
        <ele>118.4</ele>
        <time>2021-11-24T10:44:32Z</time>
      </trkpt>
      <trkpt lat="46.94835" lon="-0.88254">
        <ele>118.1</ele>
        <time>2021-11-24T10:44:37Z</time>
      </trkpt>
      <trkpt lat="46.9484" lon="-0.88264">
        <ele>118.2</ele>
        <time>2021-11-24T10:44:43Z</time>
      </trkpt>
      <trkpt lat="46.94845" lon="-0.88272">
        <ele>118.2</ele>
        <time>2021-11-24T10:44:49Z</time>
      </trkpt>
      <trkpt lat="46.94849" lon="-0.88276">
        <ele>118.1</ele>
        <time>2021-11-24T10:44:54Z</time>
      </trkpt>
      <trkpt lat="46.94856" lon="-0.8828">
        <ele>117.7</ele>
        <time>2021-11-24T10:45:00Z</time>
      </trkpt>
      <trkpt lat="46.94862" lon="-0.88281">
        <ele>117.2</ele>
        <time>2021-11-24T10:45:06Z</time>
      </trkpt>
      <trkpt lat="46.94868" lon="-0.88282">
        <ele>116.9</ele>
        <time>2021-11-24T10:45:11Z</time>
      </trkpt>
      <trkpt lat="46.94875" lon="-0.88285">
        <ele>116.8</ele>
        <time>2021-11-24T10:45:16Z</time>
      </trkpt>
      <trkpt lat="46.94882" lon="-0.88288">
        <ele>116.8</ele>
        <time>2021-11-24T10:45:21Z</time>
      </trkpt>
      <trkpt lat="46.94893" lon="-0.88293">
        <ele>117</ele>
        <time>2021-11-24T10:45:27Z</time>
      </trkpt>
      <trkpt lat="46.94899" lon="-0.88298">
        <ele>117.5</ele>
        <time>2021-11-24T10:45:33Z</time>
      </trkpt>
      <trkpt lat="46.94904" lon="-0.88303">
        <ele>118.1</ele>
        <time>2021-11-24T10:45:38Z</time>
      </trkpt>
      <trkpt lat="46.94911" lon="-0.88303">
        <ele>117.8</ele>
        <time>2021-11-24T10:45:44Z</time>
      </trkpt>
      <trkpt lat="46.94914" lon="-0.88304">
        <ele>117.9</ele>
        <time>2021-11-24T10:45:49Z</time>
      </trkpt>
      <trkpt lat="46.94919" lon="-0.88307">
        <ele>118.1</ele>
        <time>2021-11-24T10:45:54Z</time>
      </trkpt>
      <trkpt lat="46.94923" lon="-0.88309">
        <ele>118.2</ele>
        <time>2021-11-24T10:45:59Z</time>
      </trkpt>
      <trkpt lat="46.94926" lon="-0.88311">
        <ele>118.3</ele>
        <time>2021-11-24T10:46:04Z</time>
      </trkpt>
      <trkpt lat="46.94925" lon="-0.88314">
        <ele>118.9</ele>
        <time>2021-11-24T10:46:10Z</time>
      </trkpt>
      <trkpt lat="46.94924" lon="-0.88316">
        <ele>119.4</ele>
        <time>2021-11-24T10:46:16Z</time>
      </trkpt>
      <trkpt lat="46.94923" lon="-0.88316">
        <ele>119.4</ele>
        <time>2021-11-24T10:46:21Z</time>
      </trkpt>
      <trkpt lat="46.94916" lon="-0.88317">
        <ele>120.1</ele>
        <time>2021-11-24T10:46:26Z</time>
      </trkpt>
      <trkpt lat="46.94908" lon="-0.88317">
        <ele>120.4</ele>
        <time>2021-11-24T10:46:31Z</time>
      </trkpt>
      <trkpt lat="46.94901" lon="-0.88317">
        <ele>120.6</ele>
        <time>2021-11-24T10:46:37Z</time>
      </trkpt>
      <trkpt lat="46.94898" lon="-0.8832">
        <ele>121.3</ele>
        <time>2021-11-24T10:46:42Z</time>
      </trkpt>
      <trkpt lat="46.94892" lon="-0.88323">
        <ele>122</ele>
        <time>2021-11-24T10:46:48Z</time>
      </trkpt>
      <trkpt lat="46.94888" lon="-0.88321">
        <ele>121.8</ele>
        <time>2021-11-24T10:46:54Z</time>
      </trkpt>
      <trkpt lat="46.94888" lon="-0.88316">
        <ele>120.9</ele>
        <time>2021-11-24T10:47:00Z</time>
      </trkpt>
      <trkpt lat="46.94885" lon="-0.88314">
        <ele>120.5</ele>
        <time>2021-11-24T10:47:05Z</time>
      </trkpt>
      <trkpt lat="46.9488" lon="-0.88311">
        <ele>120</ele>
        <time>2021-11-24T10:47:10Z</time>
      </trkpt>
      <trkpt lat="46.94876" lon="-0.88309">
        <ele>119.6</ele>
        <time>2021-11-24T10:47:16Z</time>
      </trkpt>
      <trkpt lat="46.94871" lon="-0.88313">
        <ele>120.3</ele>
        <time>2021-11-24T10:47:21Z</time>
      </trkpt>
      <trkpt lat="46.94866" lon="-0.88318">
        <ele>121.2</ele>
        <time>2021-11-24T10:47:27Z</time>
      </trkpt>
      <trkpt lat="46.94863" lon="-0.8832">
        <ele>121.6</ele>
        <time>2021-11-24T10:47:32Z</time>
      </trkpt>
      <trkpt lat="46.94863" lon="-0.88322">
        <ele>122</ele>
        <time>2021-11-24T10:47:38Z</time>
      </trkpt>
      <trkpt lat="46.94861" lon="-0.88325">
        <ele>122.5</ele>
        <time>2021-11-24T10:47:43Z</time>
      </trkpt>
      <trkpt lat="46.94855" lon="-0.88336">
        <ele>124.8</ele>
        <time>2021-11-24T10:47:49Z</time>
      </trkpt>
      <trkpt lat="46.94853" lon="-0.8834">
        <ele>125.6</ele>
        <time>2021-11-24T10:47:54Z</time>
      </trkpt>
      <trkpt lat="46.94851" lon="-0.88342">
        <ele>126</ele>
        <time>2021-11-24T10:47:59Z</time>
      </trkpt>
      <trkpt lat="46.94849" lon="-0.88352">
        <ele>127.9</ele>
        <time>2021-11-24T10:48:05Z</time>
      </trkpt>
      <trkpt lat="46.94847" lon="-0.88354">
        <ele>128.2</ele>
        <time>2021-11-24T10:48:11Z</time>
      </trkpt>
      <trkpt lat="46.94844" lon="-0.88358">
        <ele>128.8</ele>
        <time>2021-11-24T10:48:17Z</time>
      </trkpt>
      <trkpt lat="46.94843" lon="-0.88357">
        <ele>128.7</ele>
        <time>2021-11-24T10:48:22Z</time>
      </trkpt>
      <trkpt lat="46.94842" lon="-0.88361">
        <ele>129.3</ele>
        <time>2021-11-24T10:48:28Z</time>
      </trkpt>
      <trkpt lat="46.94841" lon="-0.88372">
        <ele>131.2</ele>
        <time>2021-11-24T10:48:33Z</time>
      </trkpt>
      <trkpt lat="46.94842" lon="-0.88379">
        <ele>132.5</ele>
        <time>2021-11-24T10:48:38Z</time>
      </trkpt>
      <trkpt lat="46.94845" lon="-0.8838">
        <ele>132.8</ele>
        <time>2021-11-24T10:48:44Z</time>
      </trkpt>
      <trkpt lat="46.94848" lon="-0.88383">
        <ele>133.5</ele>
        <time>2021-11-24T10:48:49Z</time>
      </trkpt>
      <trkpt lat="46.94851" lon="-0.88386">
        <ele>134.1</ele>
        <time>2021-11-24T10:48:55Z</time>
      </trkpt>
      <trkpt lat="46.94854" lon="-0.88388">
        <ele>134.6</ele>
        <time>2021-11-24T10:49:01Z</time>
      </trkpt>
      <trkpt lat="46.94857" lon="-0.88388">
        <ele>134.7</ele>
        <time>2021-11-24T10:49:06Z</time>
      </trkpt>
      <trkpt lat="46.94862" lon="-0.88384">
        <ele>134.2</ele>
        <time>2021-11-24T10:49:12Z</time>
      </trkpt>
      <trkpt lat="46.94867" lon="-0.88381">
        <ele>133.9</ele>
        <time>2021-11-24T10:49:17Z</time>
      </trkpt>
      <trkpt lat="46.94873" lon="-0.88378">
        <ele>133.6</ele>
        <time>2021-11-24T10:49:23Z</time>
      </trkpt>
      <trkpt lat="46.94879" lon="-0.88376">
        <ele>133.4</ele>
        <time>2021-11-24T10:49:28Z</time>
      </trkpt>
      <trkpt lat="46.94885" lon="-0.88377">
        <ele>133.8</ele>
        <time>2021-11-24T10:49:33Z</time>
      </trkpt>
      <trkpt lat="46.94892" lon="-0.88376">
        <ele>133.8</ele>
        <time>2021-11-24T10:49:39Z</time>
      </trkpt>
      <trkpt lat="46.94899" lon="-0.88375">
        <ele>133.5</ele>
        <time>2021-11-24T10:49:45Z</time>
      </trkpt>
      <trkpt lat="46.94907" lon="-0.88383">
        <ele>135.5</ele>
        <time>2021-11-24T10:49:51Z</time>
      </trkpt>
      <trkpt lat="46.94912" lon="-0.88383">
        <ele>135.5</ele>
        <time>2021-11-24T10:49:56Z</time>
      </trkpt>
      <trkpt lat="46.94918" lon="-0.88378">
        <ele>134.1</ele>
        <time>2021-11-24T10:50:01Z</time>
      </trkpt>
      <trkpt lat="46.94925" lon="-0.88375">
        <ele>132.5</ele>
        <time>2021-11-24T10:50:06Z</time>
      </trkpt>
      <trkpt lat="46.94931" lon="-0.88383">
        <ele>133.6</ele>
        <time>2021-11-24T10:50:12Z</time>
      </trkpt>
      <trkpt lat="46.94932" lon="-0.88393">
        <ele>135.5</ele>
        <time>2021-11-24T10:50:18Z</time>
      </trkpt>
      <trkpt lat="46.94937" lon="-0.88395">
        <ele>135.3</ele>
        <time>2021-11-24T10:50:23Z</time>
      </trkpt>
      <trkpt lat="46.94942" lon="-0.88398">
        <ele>135.3</ele>
        <time>2021-11-24T10:50:28Z</time>
      </trkpt>
      <trkpt lat="46.94946" lon="-0.88402">
        <ele>135.4</ele>
        <time>2021-11-24T10:50:34Z</time>
      </trkpt>
      <trkpt lat="46.94952" lon="-0.88407">
        <ele>135</ele>
        <time>2021-11-24T10:50:40Z</time>
      </trkpt>
      <trkpt lat="46.94958" lon="-0.88408">
        <ele>133.7</ele>
        <time>2021-11-24T10:50:46Z</time>
      </trkpt>
      <trkpt lat="46.94964" lon="-0.88406">
        <ele>131.8</ele>
        <time>2021-11-24T10:50:52Z</time>
      </trkpt>
      <trkpt lat="46.94969" lon="-0.88407">
        <ele>130.7</ele>
        <time>2021-11-24T10:50:57Z</time>
      </trkpt>
      <trkpt lat="46.94974" lon="-0.88408">
        <ele>129.5</ele>
        <time>2021-11-24T10:51:03Z</time>
      </trkpt>
      <trkpt lat="46.94979" lon="-0.88409">
        <ele>128</ele>
        <time>2021-11-24T10:51:08Z</time>
      </trkpt>
      <trkpt lat="46.94986" lon="-0.88415">
        <ele>126.7</ele>
        <time>2021-11-24T10:51:14Z</time>
      </trkpt>
      <trkpt lat="46.94992" lon="-0.88425">
        <ele>126.4</ele>
        <time>2021-11-24T10:51:19Z</time>
      </trkpt>
      <trkpt lat="46.94998" lon="-0.88434">
        <ele>125.8</ele>
        <time>2021-11-24T10:51:25Z</time>
      </trkpt>
      <trkpt lat="46.95" lon="-0.88443">
        <ele>126.7</ele>
        <time>2021-11-24T10:51:31Z</time>
      </trkpt>
      <trkpt lat="46.94999" lon="-0.88447">
        <ele>127.9</ele>
        <time>2021-11-24T10:51:36Z</time>
      </trkpt>
      <trkpt lat="46.94999" lon="-0.88449">
        <ele>128.3</ele>
        <time>2021-11-24T10:51:42Z</time>
      </trkpt>
      <trkpt lat="46.94998" lon="-0.88452">
        <ele>129.3</ele>
        <time>2021-11-24T10:51:48Z</time>
      </trkpt>
      <trkpt lat="46.94998" lon="-0.88456">
        <ele>130.1</ele>
        <time>2021-11-24T10:51:54Z</time>
      </trkpt>
      <trkpt lat="46.94998" lon="-0.88458">
        <ele>130.5</ele>
        <time>2021-11-24T10:51:59Z</time>
      </trkpt>
      <trkpt lat="46.94998" lon="-0.88462">
        <ele>131.4</ele>
        <time>2021-11-24T10:52:04Z</time>
      </trkpt>
      <trkpt lat="46.94998" lon="-0.88466">
        <ele>132.2</ele>
        <time>2021-11-24T10:52:10Z</time>
      </trkpt>
      <trkpt lat="46.95" lon="-0.88472">
        <ele>133</ele>
        <time>2021-11-24T10:52:16Z</time>
      </trkpt>
      <trkpt lat="46.95002" lon="-0.88481">
        <ele>133.8</ele>
        <time>2021-11-24T10:52:21Z</time>
      </trkpt>
      <trkpt lat="46.95005" lon="-0.88489">
        <ele>134.3</ele>
        <time>2021-11-24T10:52:26Z</time>
      </trkpt>
      <trkpt lat="46.95007" lon="-0.88496">
        <ele>134.9</ele>
        <time>2021-11-24T10:52:32Z</time>
      </trkpt>
      <trkpt lat="46.95011" lon="-0.88505">
        <ele>135.4</ele>
        <time>2021-11-24T10:52:38Z</time>
      </trkpt>
      <trkpt lat="46.95013" lon="-0.88511">
        <ele>136</ele>
        <time>2021-11-24T10:52:44Z</time>
      </trkpt>
      <trkpt lat="46.95014" lon="-0.88516">
        <ele>136.6</ele>
        <time>2021-11-24T10:52:49Z</time>
      </trkpt>
      <trkpt lat="46.95021" lon="-0.88534">
        <ele>138.2</ele>
        <time>2021-11-24T10:52:54Z</time>
      </trkpt>
      <trkpt lat="46.95029" lon="-0.88555">
        <ele>140.5</ele>
        <time>2021-11-24T10:53:00Z</time>
      </trkpt>
      <trkpt lat="46.95034" lon="-0.88566">
        <ele>140.9</ele>
        <time>2021-11-24T10:53:06Z</time>
      </trkpt>
      <trkpt lat="46.95035" lon="-0.88568">
        <ele>141</ele>
        <time>2021-11-24T10:53:12Z</time>
      </trkpt>
      <trkpt lat="46.95037" lon="-0.88572">
        <ele>141.2</ele>
        <time>2021-11-24T10:53:17Z</time>
      </trkpt>
      <trkpt lat="46.95043" lon="-0.88585">
        <ele>141.8</ele>
        <time>2021-11-24T10:53:23Z</time>
      </trkpt>
      <trkpt lat="46.95051" lon="-0.88595">
        <ele>140.9</ele>
        <time>2021-11-24T10:53:29Z</time>
      </trkpt>
      <trkpt lat="46.95053" lon="-0.88597">
        <ele>140.7</ele>
        <time>2021-11-24T10:53:35Z</time>
      </trkpt>
      <trkpt lat="46.9506" lon="-0.88607">
        <ele>139.9</ele>
        <time>2021-11-24T10:53:40Z</time>
      </trkpt>
      <trkpt lat="46.95064" lon="-0.88617">
        <ele>140.2</ele>
        <time>2021-11-24T10:53:45Z</time>
      </trkpt>
      <trkpt lat="46.95067" lon="-0.88627">
        <ele>140.8</ele>
        <time>2021-11-24T10:53:51Z</time>
      </trkpt>
      <trkpt lat="46.95071" lon="-0.88635">
        <ele>140.9</ele>
        <time>2021-11-24T10:53:56Z</time>
      </trkpt>
      <trkpt lat="46.95072" lon="-0.88636">
        <ele>140.8</ele>
        <time>2021-11-24T10:54:01Z</time>
      </trkpt>
      <trkpt lat="46.95074" lon="-0.88639">
        <ele>140.7</ele>
        <time>2021-11-24T10:54:06Z</time>
      </trkpt>
      <trkpt lat="46.95075" lon="-0.88641">
        <ele>140.7</ele>
        <time>2021-11-24T10:54:12Z</time>
      </trkpt>
      <trkpt lat="46.95077" lon="-0.88645">
        <ele>140.8</ele>
        <time>2021-11-24T10:54:18Z</time>
      </trkpt>
      <trkpt lat="46.95087" lon="-0.88657">
        <ele>140.2</ele>
        <time>2021-11-24T10:54:24Z</time>
      </trkpt>
      <trkpt lat="46.95097" lon="-0.88667">
        <ele>139.1</ele>
        <time>2021-11-24T10:54:29Z</time>
      </trkpt>
      <trkpt lat="46.95105" lon="-0.88678">
        <ele>138.7</ele>
        <time>2021-11-24T10:54:35Z</time>
      </trkpt>
      <trkpt lat="46.95111" lon="-0.88689">
        <ele>139</ele>
        <time>2021-11-24T10:54:41Z</time>
      </trkpt>
      <trkpt lat="46.95116" lon="-0.887">
        <ele>139.1</ele>
        <time>2021-11-24T10:54:47Z</time>
      </trkpt>
      <trkpt lat="46.95116" lon="-0.8871">
        <ele>140.4</ele>
        <time>2021-11-24T10:54:53Z</time>
      </trkpt>
      <trkpt lat="46.95116" lon="-0.88721">
        <ele>141.8</ele>
        <time>2021-11-24T10:54:58Z</time>
      </trkpt>
      <trkpt lat="46.95114" lon="-0.88733">
        <ele>143.2</ele>
        <time>2021-11-24T10:55:04Z</time>
      </trkpt>
      <trkpt lat="46.95112" lon="-0.8874">
        <ele>144.1</ele>
        <time>2021-11-24T10:55:09Z</time>
      </trkpt>
      <trkpt lat="46.95111" lon="-0.88752">
        <ele>144.9</ele>
        <time>2021-11-24T10:55:15Z</time>
      </trkpt>
      <trkpt lat="46.95111" lon="-0.88759">
        <ele>144.7</ele>
        <time>2021-11-24T10:55:20Z</time>
      </trkpt>
      <trkpt lat="46.95113" lon="-0.88763">
        <ele>144.4</ele>
        <time>2021-11-24T10:55:25Z</time>
      </trkpt>
      <trkpt lat="46.95116" lon="-0.88767">
        <ele>144</ele>
        <time>2021-11-24T10:55:30Z</time>
      </trkpt>
      <trkpt lat="46.95121" lon="-0.88776">
        <ele>143.6</ele>
        <time>2021-11-24T10:55:36Z</time>
      </trkpt>
      <trkpt lat="46.95124" lon="-0.88787">
        <ele>144</ele>
        <time>2021-11-24T10:55:42Z</time>
      </trkpt>
      <trkpt lat="46.95128" lon="-0.88792">
        <ele>144.3</ele>
        <time>2021-11-24T10:55:47Z</time>
      </trkpt>
      <trkpt lat="46.95126" lon="-0.88801">
        <ele>144.8</ele>
        <time>2021-11-24T10:55:53Z</time>
      </trkpt>
      <trkpt lat="46.95127" lon="-0.88807">
        <ele>145.4</ele>
        <time>2021-11-24T10:55:58Z</time>
      </trkpt>
      <trkpt lat="46.95132" lon="-0.88802">
        <ele>145.2</ele>
        <time>2021-11-24T10:56:04Z</time>
      </trkpt>
      <trkpt lat="46.95138" lon="-0.88796">
        <ele>144.9</ele>
        <time>2021-11-24T10:56:09Z</time>
      </trkpt>
      <trkpt lat="46.95143" lon="-0.88791">
        <ele>144.6</ele>
        <time>2021-11-24T10:56:14Z</time>
      </trkpt>
      <trkpt lat="46.95149" lon="-0.88786">
        <ele>144.3</ele>
        <time>2021-11-24T10:56:19Z</time>
      </trkpt>
      <trkpt lat="46.95155" lon="-0.8878">
        <ele>143.8</ele>
        <time>2021-11-24T10:56:25Z</time>
      </trkpt>
      <trkpt lat="46.95161" lon="-0.88776">
        <ele>143.6</ele>
        <time>2021-11-24T10:56:30Z</time>
      </trkpt>
      <trkpt lat="46.95167" lon="-0.88772">
        <ele>143.2</ele>
        <time>2021-11-24T10:56:35Z</time>
      </trkpt>
      <trkpt lat="46.95174" lon="-0.8877">
        <ele>143</ele>
        <time>2021-11-24T10:56:41Z</time>
      </trkpt>
      <trkpt lat="46.9518" lon="-0.88766">
        <ele>142.5</ele>
        <time>2021-11-24T10:56:46Z</time>
      </trkpt>
      <trkpt lat="46.95187" lon="-0.88764">
        <ele>142.4</ele>
        <time>2021-11-24T10:56:52Z</time>
      </trkpt>
      <trkpt lat="46.95195" lon="-0.88765">
        <ele>142.6</ele>
        <time>2021-11-24T10:56:58Z</time>
      </trkpt>
      <trkpt lat="46.95201" lon="-0.88768">
        <ele>142.6</ele>
        <time>2021-11-24T10:57:03Z</time>
      </trkpt>
      <trkpt lat="46.95207" lon="-0.88774">
        <ele>142.7</ele>
        <time>2021-11-24T10:57:08Z</time>
      </trkpt>
      <trkpt lat="46.95214" lon="-0.88782">
        <ele>142.9</ele>
        <time>2021-11-24T10:57:14Z</time>
      </trkpt>
      <trkpt lat="46.95219" lon="-0.88788">
        <ele>143</ele>
        <time>2021-11-24T10:57:19Z</time>
      </trkpt>
      <trkpt lat="46.95225" lon="-0.88795">
        <ele>143.1</ele>
        <time>2021-11-24T10:57:24Z</time>
      </trkpt>
      <trkpt lat="46.95229" lon="-0.88802">
        <ele>143.3</ele>
        <time>2021-11-24T10:57:29Z</time>
      </trkpt>
      <trkpt lat="46.95235" lon="-0.88809">
        <ele>143.1</ele>
        <time>2021-11-24T10:57:35Z</time>
      </trkpt>
      <trkpt lat="46.95239" lon="-0.88814">
        <ele>142.8</ele>
        <time>2021-11-24T10:57:40Z</time>
      </trkpt>
      <trkpt lat="46.95245" lon="-0.88822">
        <ele>142.4</ele>
        <time>2021-11-24T10:57:46Z</time>
      </trkpt>
      <trkpt lat="46.9525" lon="-0.88828">
        <ele>142</ele>
        <time>2021-11-24T10:57:52Z</time>
      </trkpt>
      <trkpt lat="46.95252" lon="-0.88835">
        <ele>141.9</ele>
        <time>2021-11-24T10:57:58Z</time>
      </trkpt>
      <trkpt lat="46.95253" lon="-0.88844">
        <ele>141.7</ele>
        <time>2021-11-24T10:58:03Z</time>
      </trkpt>
      <trkpt lat="46.95252" lon="-0.88852">
        <ele>141.8</ele>
        <time>2021-11-24T10:58:08Z</time>
      </trkpt>
      <trkpt lat="46.95248" lon="-0.88861">
        <ele>142.1</ele>
        <time>2021-11-24T10:58:14Z</time>
      </trkpt>
      <trkpt lat="46.95244" lon="-0.88868">
        <ele>142.2</ele>
        <time>2021-11-24T10:58:20Z</time>
      </trkpt>
      <trkpt lat="46.95243" lon="-0.88871">
        <ele>142.2</ele>
        <time>2021-11-24T10:58:26Z</time>
      </trkpt>
      <trkpt lat="46.95244" lon="-0.88864">
        <ele>142.4</ele>
        <time>2021-11-24T08:59:18Z</time>
      </trkpt>
      <trkpt lat="46.95244" lon="-0.88864">
        <ele>142.4</ele>
        <time>2021-11-24T08:59:18Z</time>
      </trkpt>
      <trkpt lat="46.95245" lon="-0.88866">
        <ele>142.2</ele>
        <time>2021-11-24T08:59:23Z</time>
      </trkpt>
      <trkpt lat="46.95251" lon="-0.88871">
        <ele>141.5</ele>
        <time>2021-11-24T08:59:28Z</time>
      </trkpt>
      <trkpt lat="46.95255" lon="-0.88878">
        <ele>140.9</ele>
        <time>2021-11-24T08:59:33Z</time>
      </trkpt>
      <trkpt lat="46.9526" lon="-0.88885">
        <ele>140.1</ele>
        <time>2021-11-24T08:59:39Z</time>
      </trkpt>
      <trkpt lat="46.95266" lon="-0.88891">
        <ele>139.2</ele>
        <time>2021-11-24T08:59:45Z</time>
      </trkpt>
      <trkpt lat="46.95271" lon="-0.88896">
        <ele>138.5</ele>
        <time>2021-11-24T08:59:50Z</time>
      </trkpt>
      <trkpt lat="46.95278" lon="-0.889">
        <ele>137.6</ele>
        <time>2021-11-24T08:59:55Z</time>
      </trkpt>
      <trkpt lat="46.95286" lon="-0.88905">
        <ele>136.5</ele>
        <time>2021-11-24T09:00:01Z</time>
      </trkpt>
      <trkpt lat="46.95293" lon="-0.88909">
        <ele>135.6</ele>
        <time>2021-11-24T09:00:06Z</time>
      </trkpt>
      <trkpt lat="46.95301" lon="-0.88913">
        <ele>134.6</ele>
        <time>2021-11-24T09:00:12Z</time>
      </trkpt>
      <trkpt lat="46.95297" lon="-0.88924">
        <ele>134.7</ele>
        <time>2021-11-24T09:00:17Z</time>
      </trkpt>
      <trkpt lat="46.95293" lon="-0.88937">
        <ele>135</ele>
        <time>2021-11-24T09:00:23Z</time>
      </trkpt>
      <trkpt lat="46.9529" lon="-0.88949">
        <ele>135.1</ele>
        <time>2021-11-24T09:00:28Z</time>
      </trkpt>
      <trkpt lat="46.95288" lon="-0.88958">
        <ele>135</ele>
        <time>2021-11-24T09:00:33Z</time>
      </trkpt>
      <trkpt lat="46.95285" lon="-0.88969">
        <ele>135.1</ele>
        <time>2021-11-24T09:00:38Z</time>
      </trkpt>
      <trkpt lat="46.95281" lon="-0.88977">
        <ele>135.4</ele>
        <time>2021-11-24T09:00:44Z</time>
      </trkpt>
      <trkpt lat="46.95278" lon="-0.88987">
        <ele>135.4</ele>
        <time>2021-11-24T09:00:50Z</time>
      </trkpt>
      <trkpt lat="46.95276" lon="-0.88994">
        <ele>135.5</ele>
        <time>2021-11-24T09:00:55Z</time>
      </trkpt>
      <trkpt lat="46.95274" lon="-0.89002">
        <ele>135.5</ele>
        <time>2021-11-24T09:01:00Z</time>
      </trkpt>
      <trkpt lat="46.9527" lon="-0.89013">
        <ele>135.7</ele>
        <time>2021-11-24T09:01:06Z</time>
      </trkpt>
      <trkpt lat="46.95273" lon="-0.8902">
        <ele>135</ele>
        <time>2021-11-24T09:01:11Z</time>
      </trkpt>
      <trkpt lat="46.95281" lon="-0.8902">
        <ele>134.3</ele>
        <time>2021-11-24T09:01:16Z</time>
      </trkpt>
      <trkpt lat="46.95284" lon="-0.89026">
        <ele>134.4</ele>
        <time>2021-11-24T09:01:22Z</time>
      </trkpt>
      <trkpt lat="46.95287" lon="-0.8903">
        <ele>134.9</ele>
        <time>2021-11-24T09:01:27Z</time>
      </trkpt>
      <trkpt lat="46.95289" lon="-0.89031">
        <ele>135.1</ele>
        <time>2021-11-24T09:01:33Z</time>
      </trkpt>
      <trkpt lat="46.95289" lon="-0.89031">
        <ele>135.1</ele>
        <time>2021-11-24T09:01:38Z</time>
      </trkpt>
      <trkpt lat="46.95289" lon="-0.8903">
        <ele>135</ele>
        <time>2021-11-24T09:01:43Z</time>
      </trkpt>
      <trkpt lat="46.9529" lon="-0.89029">
        <ele>135</ele>
        <time>2021-11-24T09:01:49Z</time>
      </trkpt>
      <trkpt lat="46.9529" lon="-0.8903">
        <ele>135.1</ele>
        <time>2021-11-24T09:01:54Z</time>
      </trkpt>
      <trkpt lat="46.9529" lon="-0.8903">
        <ele>135.1</ele>
        <time>2021-11-24T09:01:59Z</time>
      </trkpt>
      <trkpt lat="46.95291" lon="-0.8903">
        <ele>135.2</ele>
        <time>2021-11-24T09:02:05Z</time>
      </trkpt>
      <trkpt lat="46.95291" lon="-0.8903">
        <ele>135.2</ele>
        <time>2021-11-24T09:02:11Z</time>
      </trkpt>
      <trkpt lat="46.95291" lon="-0.89029">
        <ele>135.1</ele>
        <time>2021-11-24T09:02:16Z</time>
      </trkpt>
      <trkpt lat="46.95297" lon="-0.89035">
        <ele>136.4</ele>
        <time>2021-11-24T09:02:22Z</time>
      </trkpt>
      <trkpt lat="46.95303" lon="-0.89029">
        <ele>136</ele>
        <time>2021-11-24T09:02:28Z</time>
      </trkpt>
      <trkpt lat="46.95309" lon="-0.89021">
        <ele>135.7</ele>
        <time>2021-11-24T09:02:34Z</time>
      </trkpt>
      <trkpt lat="46.95316" lon="-0.89015">
        <ele>136.2</ele>
        <time>2021-11-24T09:02:40Z</time>
      </trkpt>
      <trkpt lat="46.95321" lon="-0.89009">
        <ele>136.3</ele>
        <time>2021-11-24T09:02:46Z</time>
      </trkpt>
      <trkpt lat="46.95326" lon="-0.89004">
        <ele>136.4</ele>
        <time>2021-11-24T09:02:51Z</time>
      </trkpt>
      <trkpt lat="46.95331" lon="-0.88997">
        <ele>136</ele>
        <time>2021-11-24T09:02:56Z</time>
      </trkpt>
      <trkpt lat="46.95339" lon="-0.88988">
        <ele>135.2</ele>
        <time>2021-11-24T09:03:02Z</time>
      </trkpt>
      <trkpt lat="46.95346" lon="-0.88981">
        <ele>134.7</ele>
        <time>2021-11-24T09:03:08Z</time>
      </trkpt>
      <trkpt lat="46.95353" lon="-0.88978">
        <ele>135.1</ele>
        <time>2021-11-24T09:03:13Z</time>
      </trkpt>
      <trkpt lat="46.95359" lon="-0.88975">
        <ele>135.3</ele>
        <time>2021-11-24T09:03:18Z</time>
      </trkpt>
      <trkpt lat="46.95367" lon="-0.88971">
        <ele>135.5</ele>
        <time>2021-11-24T09:03:24Z</time>
      </trkpt>
      <trkpt lat="46.95375" lon="-0.88967">
        <ele>135.8</ele>
        <time>2021-11-24T09:03:29Z</time>
      </trkpt>
      <trkpt lat="46.95382" lon="-0.88963">
        <ele>136.2</ele>
        <time>2021-11-24T09:03:34Z</time>
      </trkpt>
      <trkpt lat="46.95389" lon="-0.88959">
        <ele>136.6</ele>
        <time>2021-11-24T09:03:39Z</time>
      </trkpt>
      <trkpt lat="46.95395" lon="-0.88957">
        <ele>136.2</ele>
        <time>2021-11-24T09:03:44Z</time>
      </trkpt>
      <trkpt lat="46.95402" lon="-0.88958">
        <ele>136.2</ele>
        <time>2021-11-24T09:03:50Z</time>
      </trkpt>
      <trkpt lat="46.95408" lon="-0.88966">
        <ele>137.2</ele>
        <time>2021-11-24T09:03:56Z</time>
      </trkpt>
      <trkpt lat="46.95408" lon="-0.88976">
        <ele>138.3</ele>
        <time>2021-11-24T09:04:01Z</time>
      </trkpt>
      <trkpt lat="46.95404" lon="-0.88987">
        <ele>139.3</ele>
        <time>2021-11-24T09:04:07Z</time>
      </trkpt>
      <trkpt lat="46.95397" lon="-0.88994">
        <ele>140.1</ele>
        <time>2021-11-24T09:04:13Z</time>
      </trkpt>
      <trkpt lat="46.95391" lon="-0.88998">
        <ele>140.7</ele>
        <time>2021-11-24T09:04:18Z</time>
      </trkpt>
      <trkpt lat="46.95388" lon="-0.89005">
        <ele>141.2</ele>
        <time>2021-11-24T09:04:24Z</time>
      </trkpt>
      <trkpt lat="46.95394" lon="-0.89011">
        <ele>141.2</ele>
        <time>2021-11-24T09:04:30Z</time>
      </trkpt>
      <trkpt lat="46.95402" lon="-0.89004">
        <ele>140.7</ele>
        <time>2021-11-24T09:04:36Z</time>
      </trkpt>
      <trkpt lat="46.95409" lon="-0.88997">
        <ele>140</ele>
        <time>2021-11-24T09:04:42Z</time>
      </trkpt>
      <trkpt lat="46.95414" lon="-0.88992">
        <ele>139.5</ele>
        <time>2021-11-24T09:04:47Z</time>
      </trkpt>
      <trkpt lat="46.9542" lon="-0.88987">
        <ele>139</ele>
        <time>2021-11-24T09:04:52Z</time>
      </trkpt>
      <trkpt lat="46.95426" lon="-0.88981">
        <ele>138.4</ele>
        <time>2021-11-24T09:04:57Z</time>
      </trkpt>
      <trkpt lat="46.95433" lon="-0.88972">
        <ele>137.4</ele>
        <time>2021-11-24T09:05:03Z</time>
      </trkpt>
      <trkpt lat="46.95439" lon="-0.88964">
        <ele>136.5</ele>
        <time>2021-11-24T09:05:08Z</time>
      </trkpt>
      <trkpt lat="46.95443" lon="-0.88959">
        <ele>136.1</ele>
        <time>2021-11-24T09:05:14Z</time>
      </trkpt>
      <trkpt lat="46.95447" lon="-0.88955">
        <ele>135.7</ele>
        <time>2021-11-24T09:05:20Z</time>
      </trkpt>
      <trkpt lat="46.9545" lon="-0.88953">
        <ele>135.5</ele>
        <time>2021-11-24T09:05:25Z</time>
      </trkpt>
      <trkpt lat="46.95459" lon="-0.88959">
        <ele>135.5</ele>
        <time>2021-11-24T09:05:31Z</time>
      </trkpt>
      <trkpt lat="46.95466" lon="-0.88963">
        <ele>135.3</ele>
        <time>2021-11-24T09:05:36Z</time>
      </trkpt>
      <trkpt lat="46.95474" lon="-0.88968">
        <ele>135.1</ele>
        <time>2021-11-24T09:05:42Z</time>
      </trkpt>
      <trkpt lat="46.95481" lon="-0.88971">
        <ele>135.3</ele>
        <time>2021-11-24T09:05:47Z</time>
      </trkpt>
      <trkpt lat="46.95488" lon="-0.88978">
        <ele>135.7</ele>
        <time>2021-11-24T09:05:53Z</time>
      </trkpt>
      <trkpt lat="46.95494" lon="-0.88986">
        <ele>136</ele>
        <time>2021-11-24T09:05:59Z</time>
      </trkpt>
      <trkpt lat="46.955" lon="-0.88992">
        <ele>136</ele>
        <time>2021-11-24T09:06:04Z</time>
      </trkpt>
      <trkpt lat="46.95505" lon="-0.88999">
        <ele>135.6</ele>
        <time>2021-11-24T09:06:10Z</time>
      </trkpt>
      <trkpt lat="46.95512" lon="-0.89008">
        <ele>135.1</ele>
        <time>2021-11-24T09:06:16Z</time>
      </trkpt>
      <trkpt lat="46.95516" lon="-0.89017">
        <ele>134.8</ele>
        <time>2021-11-24T09:06:21Z</time>
      </trkpt>
      <trkpt lat="46.95522" lon="-0.89026">
        <ele>134.4</ele>
        <time>2021-11-24T09:06:27Z</time>
      </trkpt>
      <trkpt lat="46.95529" lon="-0.89033">
        <ele>133.8</ele>
        <time>2021-11-24T09:06:33Z</time>
      </trkpt>
      <trkpt lat="46.95536" lon="-0.8904">
        <ele>132.7</ele>
        <time>2021-11-24T09:06:39Z</time>
      </trkpt>
      <trkpt lat="46.95543" lon="-0.89047">
        <ele>131.6</ele>
        <time>2021-11-24T09:06:45Z</time>
      </trkpt>
      <trkpt lat="46.95548" lon="-0.89052">
        <ele>131</ele>
        <time>2021-11-24T09:06:50Z</time>
      </trkpt>
      <trkpt lat="46.95554" lon="-0.89059">
        <ele>130.6</ele>
        <time>2021-11-24T09:06:56Z</time>
      </trkpt>
      <trkpt lat="46.9556" lon="-0.89063">
        <ele>130.4</ele>
        <time>2021-11-24T09:07:01Z</time>
      </trkpt>
      <trkpt lat="46.95565" lon="-0.89068">
        <ele>130.5</ele>
        <time>2021-11-24T09:07:06Z</time>
      </trkpt>
      <trkpt lat="46.95571" lon="-0.89074">
        <ele>130.5</ele>
        <time>2021-11-24T09:07:12Z</time>
      </trkpt>
      <trkpt lat="46.95578" lon="-0.89079">
        <ele>130.2</ele>
        <time>2021-11-24T09:07:18Z</time>
      </trkpt>
      <trkpt lat="46.95584" lon="-0.89081">
        <ele>129.8</ele>
        <time>2021-11-24T09:07:23Z</time>
      </trkpt>
      <trkpt lat="46.95591" lon="-0.89081">
        <ele>129.6</ele>
        <time>2021-11-24T09:07:28Z</time>
      </trkpt>
      <trkpt lat="46.95599" lon="-0.89083">
        <ele>129.4</ele>
        <time>2021-11-24T09:07:34Z</time>
      </trkpt>
      <trkpt lat="46.95607" lon="-0.89083">
        <ele>129.1</ele>
        <time>2021-11-24T09:07:39Z</time>
      </trkpt>
      <trkpt lat="46.95612" lon="-0.89076">
        <ele>128.4</ele>
        <time>2021-11-24T09:07:45Z</time>
      </trkpt>
      <trkpt lat="46.95617" lon="-0.89067">
        <ele>127.6</ele>
        <time>2021-11-24T09:07:51Z</time>
      </trkpt>
      <trkpt lat="46.95623" lon="-0.89059">
        <ele>126.8</ele>
        <time>2021-11-24T09:07:56Z</time>
      </trkpt>
      <trkpt lat="46.9563" lon="-0.89048">
        <ele>125.9</ele>
        <time>2021-11-24T09:08:02Z</time>
      </trkpt>
      <trkpt lat="46.95636" lon="-0.89039">
        <ele>125</ele>
        <time>2021-11-24T09:08:08Z</time>
      </trkpt>
      <trkpt lat="46.9564" lon="-0.89033">
        <ele>124.4</ele>
        <time>2021-11-24T09:08:13Z</time>
      </trkpt>
      <trkpt lat="46.95648" lon="-0.89025">
        <ele>123.8</ele>
        <time>2021-11-24T09:08:19Z</time>
      </trkpt>
      <trkpt lat="46.95653" lon="-0.89015">
        <ele>123.1</ele>
        <time>2021-11-24T09:08:25Z</time>
      </trkpt>
      <trkpt lat="46.95657" lon="-0.89006">
        <ele>122.4</ele>
        <time>2021-11-24T09:08:30Z</time>
      </trkpt>
      <trkpt lat="46.95662" lon="-0.88999">
        <ele>122</ele>
        <time>2021-11-24T09:08:36Z</time>
      </trkpt>
      <trkpt lat="46.95666" lon="-0.88993">
        <ele>121.7</ele>
        <time>2021-11-24T09:08:41Z</time>
      </trkpt>
      <trkpt lat="46.95671" lon="-0.88984">
        <ele>121</ele>
        <time>2021-11-24T09:08:46Z</time>
      </trkpt>
      <trkpt lat="46.95676" lon="-0.88974">
        <ele>120.4</ele>
        <time>2021-11-24T09:08:52Z</time>
      </trkpt>
      <trkpt lat="46.95682" lon="-0.88961">
        <ele>119.5</ele>
        <time>2021-11-24T09:08:58Z</time>
      </trkpt>
      <trkpt lat="46.95687" lon="-0.88953">
        <ele>118.8</ele>
        <time>2021-11-24T09:09:04Z</time>
      </trkpt>
      <trkpt lat="46.95692" lon="-0.88946">
        <ele>118.2</ele>
        <time>2021-11-24T09:09:09Z</time>
      </trkpt>
      <trkpt lat="46.95694" lon="-0.88941">
        <ele>117.9</ele>
        <time>2021-11-24T09:09:14Z</time>
      </trkpt>
      <trkpt lat="46.9569" lon="-0.88931">
        <ele>117.8</ele>
        <time>2021-11-24T09:09:20Z</time>
      </trkpt>
      <trkpt lat="46.95683" lon="-0.88921">
        <ele>118</ele>
        <time>2021-11-24T09:09:26Z</time>
      </trkpt>
      <trkpt lat="46.95686" lon="-0.8891">
        <ele>117.1</ele>
        <time>2021-11-24T09:09:31Z</time>
      </trkpt>
      <trkpt lat="46.95694" lon="-0.88901">
        <ele>115.9</ele>
        <time>2021-11-24T09:09:37Z</time>
      </trkpt>
      <trkpt lat="46.95701" lon="-0.88895">
        <ele>115.2</ele>
        <time>2021-11-24T09:09:42Z</time>
      </trkpt>
      <trkpt lat="46.95709" lon="-0.88892">
        <ele>114.7</ele>
        <time>2021-11-24T09:09:48Z</time>
      </trkpt>
      <trkpt lat="46.95716" lon="-0.88887">
        <ele>114.1</ele>
        <time>2021-11-24T09:09:54Z</time>
      </trkpt>
      <trkpt lat="46.95721" lon="-0.88881">
        <ele>113.7</ele>
        <time>2021-11-24T09:09:59Z</time>
      </trkpt>
      <trkpt lat="46.95727" lon="-0.88874">
        <ele>113.1</ele>
        <time>2021-11-24T09:10:05Z</time>
      </trkpt>
      <trkpt lat="46.95735" lon="-0.88866">
        <ele>112</ele>
        <time>2021-11-24T09:10:11Z</time>
      </trkpt>
      <trkpt lat="46.95739" lon="-0.88859">
        <ele>111.1</ele>
        <time>2021-11-24T09:10:16Z</time>
      </trkpt>
      <trkpt lat="46.95747" lon="-0.88851">
        <ele>110.2</ele>
        <time>2021-11-24T09:10:22Z</time>
      </trkpt>
      <trkpt lat="46.95754" lon="-0.88843">
        <ele>110.1</ele>
        <time>2021-11-24T09:10:28Z</time>
      </trkpt>
      <trkpt lat="46.9576" lon="-0.88836">
        <ele>110</ele>
        <time>2021-11-24T09:10:33Z</time>
      </trkpt>
      <trkpt lat="46.95763" lon="-0.88824">
        <ele>110.3</ele>
        <time>2021-11-24T09:10:39Z</time>
      </trkpt>
      <trkpt lat="46.95765" lon="-0.88814">
        <ele>110.7</ele>
        <time>2021-11-24T09:10:45Z</time>
      </trkpt>
      <trkpt lat="46.9577" lon="-0.88806">
        <ele>111</ele>
        <time>2021-11-24T09:10:50Z</time>
      </trkpt>
      <trkpt lat="46.9578" lon="-0.88808">
        <ele>110.9</ele>
        <time>2021-11-24T09:10:56Z</time>
      </trkpt>
      <trkpt lat="46.95788" lon="-0.88812">
        <ele>110.8</ele>
        <time>2021-11-24T09:11:02Z</time>
      </trkpt>
      <trkpt lat="46.95797" lon="-0.88817">
        <ele>110.6</ele>
        <time>2021-11-24T09:11:08Z</time>
      </trkpt>
      <trkpt lat="46.95804" lon="-0.88821">
        <ele>110.4</ele>
        <time>2021-11-24T09:11:13Z</time>
      </trkpt>
      <trkpt lat="46.95813" lon="-0.88824">
        <ele>110.3</ele>
        <time>2021-11-24T09:11:19Z</time>
      </trkpt>
      <trkpt lat="46.95821" lon="-0.88822">
        <ele>110.4</ele>
        <time>2021-11-24T09:11:24Z</time>
      </trkpt>
      <trkpt lat="46.95828" lon="-0.88817">
        <ele>110.6</ele>
        <time>2021-11-24T09:11:30Z</time>
      </trkpt>
      <trkpt lat="46.95831" lon="-0.88805">
        <ele>111</ele>
        <time>2021-11-24T09:11:36Z</time>
      </trkpt>
      <trkpt lat="46.95832" lon="-0.88795">
        <ele>111</ele>
        <time>2021-11-24T09:11:41Z</time>
      </trkpt>
      <trkpt lat="46.95835" lon="-0.88782">
        <ele>111</ele>
        <time>2021-11-24T09:11:47Z</time>
      </trkpt>
      <trkpt lat="46.95838" lon="-0.88772">
        <ele>111</ele>
        <time>2021-11-24T09:11:52Z</time>
      </trkpt>
      <trkpt lat="46.95844" lon="-0.88763">
        <ele>111</ele>
        <time>2021-11-24T09:11:58Z</time>
      </trkpt>
      <trkpt lat="46.9585" lon="-0.88758">
        <ele>111</ele>
        <time>2021-11-24T09:12:03Z</time>
      </trkpt>
      <trkpt lat="46.95855" lon="-0.88748">
        <ele>111</ele>
        <time>2021-11-24T09:12:09Z</time>
      </trkpt>
      <trkpt lat="46.95858" lon="-0.88733">
        <ele>111</ele>
        <time>2021-11-24T09:12:15Z</time>
      </trkpt>
      <trkpt lat="46.95861" lon="-0.88721">
        <ele>111</ele>
        <time>2021-11-24T09:12:21Z</time>
      </trkpt>
      <trkpt lat="46.95862" lon="-0.88711">
        <ele>111.4</ele>
        <time>2021-11-24T09:12:26Z</time>
      </trkpt>
      <trkpt lat="46.95864" lon="-0.88697">
        <ele>111.9</ele>
        <time>2021-11-24T09:12:32Z</time>
      </trkpt>
      <trkpt lat="46.95867" lon="-0.88688">
        <ele>112</ele>
        <time>2021-11-24T09:12:37Z</time>
      </trkpt>
      <trkpt lat="46.95872" lon="-0.8868">
        <ele>112</ele>
        <time>2021-11-24T09:12:43Z</time>
      </trkpt>
      <trkpt lat="46.95876" lon="-0.88674">
        <ele>112</ele>
        <time>2021-11-24T09:12:48Z</time>
      </trkpt>
      <trkpt lat="46.95879" lon="-0.88671">
        <ele>112</ele>
      </trkpt>
    </trkseg>
  </trk>
</gpx>